﻿<?xml version="1.0" encoding="UTF-8" standalone="no" ?>
<gpx xmlns="http://www.topografix.com/GPX/1/1" creator="CompeGPS" version="1.1" xmlns:xsi="http://www.w3.org/2001/XMLSchema-instance" xsi:schemaLocation="http://www.topografix.com/GPX/1/1 http://www.topografix.com/GPX/1/1/gpx.xsd http://www.garmin.com/xmlschemas/GpxExtensions/v3 http://www.garmin.com/xmlschemas/GpxExtensionsv3.xsd http://www.garmin.com/xmlschemas/TrackPointExtension/v1 http://www.garmin.com/xmlschemas/TrackPointExtensionv1.xsd" xmlns:gpxtpx="http://www.garmin.com/xmlschemas/TrackPointExtension/v1">
  <metadata>
    <link href="http://www.compegps.com">
      <text>CompeGPS TEAM, SL</text>
    </link>
    <time>2013-10-15T13:35:52Z</time>
    <bounds maxlat="33.237348" maxlon="35.575338" minlat="33.169797" minlon="35.557565"/>
  </metadata>
  <trk>
    <name>RamimShort</name>
    <trkseg>
      <trkpt lat="33.169797" lon="35.569993">
        <ele>75.7</ele>
        <time>2013-07-31T04:07:56Z</time>
        <sat>10</sat>
      </trkpt>
      <trkpt lat="33.169848" lon="35.569895">
        <ele>75.5</ele>
        <time>2013-07-31T04:07:59Z</time>
        <sat>10</sat>
      </trkpt>
      <trkpt lat="33.169933" lon="35.569833">
        <ele>75.5</ele>
        <time>2013-07-31T04:08:02Z</time>
        <sat>10</sat>
      </trkpt>
      <trkpt lat="33.170027" lon="35.569772">
        <ele>75.5</ele>
        <time>2013-07-31T04:08:05Z</time>
        <sat>10</sat>
      </trkpt>
      <trkpt lat="33.170125" lon="35.569713">
        <ele>75.4</ele>
        <time>2013-07-31T04:08:08Z</time>
        <sat>10</sat>
      </trkpt>
      <trkpt lat="33.170218" lon="35.569652">
        <ele>75.6</ele>
        <time>2013-07-31T04:08:11Z</time>
        <sat>10</sat>
      </trkpt>
      <trkpt lat="33.170310" lon="35.569593">
        <ele>75.9</ele>
        <time>2013-07-31T04:08:14Z</time>
        <sat>10</sat>
      </trkpt>
      <trkpt lat="33.170400" lon="35.569530">
        <ele>76.0</ele>
        <time>2013-07-31T04:08:17Z</time>
        <sat>10</sat>
      </trkpt>
      <trkpt lat="33.170498" lon="35.569470">
        <ele>76.1</ele>
        <time>2013-07-31T04:08:20Z</time>
        <sat>10</sat>
      </trkpt>
      <trkpt lat="33.170592" lon="35.569393">
        <ele>76.4</ele>
        <time>2013-07-31T04:08:23Z</time>
        <sat>10</sat>
      </trkpt>
      <trkpt lat="33.170692" lon="35.569308">
        <ele>76.5</ele>
        <time>2013-07-31T04:08:26Z</time>
        <sat>10</sat>
      </trkpt>
      <trkpt lat="33.170795" lon="35.569218">
        <ele>76.6</ele>
        <time>2013-07-31T04:08:29Z</time>
        <sat>10</sat>
      </trkpt>
      <trkpt lat="33.170899" lon="35.569125">
        <ele>76.7</ele>
        <time>2013-07-31T04:08:32Z</time>
        <sat>10</sat>
      </trkpt>
      <trkpt lat="33.170997" lon="35.569030">
        <ele>76.8</ele>
        <time>2013-07-31T04:08:35Z</time>
        <sat>10</sat>
      </trkpt>
      <trkpt lat="33.171088" lon="35.568935">
        <ele>77.0</ele>
        <time>2013-07-31T04:08:38Z</time>
        <sat>10</sat>
      </trkpt>
      <trkpt lat="33.171183" lon="35.568840">
        <ele>77.1</ele>
        <time>2013-07-31T04:08:41Z</time>
        <sat>10</sat>
      </trkpt>
      <trkpt lat="33.171278" lon="35.568748">
        <ele>77.3</ele>
        <time>2013-07-31T04:08:44Z</time>
        <sat>10</sat>
      </trkpt>
      <trkpt lat="33.171373" lon="35.568650">
        <ele>77.4</ele>
        <time>2013-07-31T04:08:47Z</time>
        <sat>10</sat>
      </trkpt>
      <trkpt lat="33.171473" lon="35.568552">
        <ele>77.5</ele>
        <time>2013-07-31T04:08:50Z</time>
        <sat>10</sat>
      </trkpt>
      <trkpt lat="33.171580" lon="35.568460">
        <ele>77.7</ele>
        <time>2013-07-31T04:08:53Z</time>
        <sat>10</sat>
      </trkpt>
      <trkpt lat="33.171685" lon="35.568372">
        <ele>77.7</ele>
        <time>2013-07-31T04:08:56Z</time>
        <sat>10</sat>
      </trkpt>
      <trkpt lat="33.171795" lon="35.568277">
        <ele>77.6</ele>
        <time>2013-07-31T04:08:59Z</time>
        <sat>10</sat>
      </trkpt>
      <trkpt lat="33.171868" lon="35.568208">
        <ele>77.5</ele>
        <time>2013-07-31T04:09:01Z</time>
        <sat>10</sat>
      </trkpt>
      <trkpt lat="33.171945" lon="35.568142">
        <ele>77.3</ele>
        <time>2013-07-31T04:09:03Z</time>
        <sat>10</sat>
      </trkpt>
      <trkpt lat="33.172023" lon="35.568072">
        <ele>77.3</ele>
        <time>2013-07-31T04:09:05Z</time>
        <sat>10</sat>
      </trkpt>
      <trkpt lat="33.172103" lon="35.568002">
        <ele>77.5</ele>
        <time>2013-07-31T04:09:07Z</time>
        <sat>10</sat>
      </trkpt>
      <trkpt lat="33.172185" lon="35.567930">
        <ele>77.3</ele>
        <time>2013-07-31T04:09:09Z</time>
        <sat>10</sat>
      </trkpt>
      <trkpt lat="33.172267" lon="35.567860">
        <ele>77.3</ele>
        <time>2013-07-31T04:09:11Z</time>
        <sat>10</sat>
      </trkpt>
      <trkpt lat="33.172352" lon="35.567788">
        <ele>77.1</ele>
        <time>2013-07-31T04:09:13Z</time>
        <sat>10</sat>
      </trkpt>
      <trkpt lat="33.172438" lon="35.567717">
        <ele>77.2</ele>
        <time>2013-07-31T04:09:15Z</time>
        <sat>10</sat>
      </trkpt>
      <trkpt lat="33.172523" lon="35.567647">
        <ele>77.1</ele>
        <time>2013-07-31T04:09:17Z</time>
        <sat>10</sat>
      </trkpt>
      <trkpt lat="33.172613" lon="35.567580">
        <ele>77.0</ele>
        <time>2013-07-31T04:09:19Z</time>
        <sat>10</sat>
      </trkpt>
      <trkpt lat="33.172705" lon="35.567522">
        <ele>77.0</ele>
        <time>2013-07-31T04:09:21Z</time>
        <sat>10</sat>
      </trkpt>
      <trkpt lat="33.172795" lon="35.567458">
        <ele>76.8</ele>
        <time>2013-07-31T04:09:23Z</time>
        <sat>10</sat>
      </trkpt>
      <trkpt lat="33.172885" lon="35.567393">
        <ele>76.6</ele>
        <time>2013-07-31T04:09:25Z</time>
        <sat>10</sat>
      </trkpt>
      <trkpt lat="33.172983" lon="35.567333">
        <ele>76.6</ele>
        <time>2013-07-31T04:09:27Z</time>
        <sat>10</sat>
      </trkpt>
      <trkpt lat="33.173080" lon="35.567275">
        <ele>76.4</ele>
        <time>2013-07-31T04:09:29Z</time>
        <sat>10</sat>
      </trkpt>
      <trkpt lat="33.173172" lon="35.567218">
        <ele>76.2</ele>
        <time>2013-07-31T04:09:31Z</time>
        <sat>10</sat>
      </trkpt>
      <trkpt lat="33.173272" lon="35.567160">
        <ele>76.2</ele>
        <time>2013-07-31T04:09:33Z</time>
        <sat>10</sat>
      </trkpt>
      <trkpt lat="33.173375" lon="35.567098">
        <ele>76.1</ele>
        <time>2013-07-31T04:09:35Z</time>
        <sat>10</sat>
      </trkpt>
      <trkpt lat="33.173475" lon="35.567045">
        <ele>76.0</ele>
        <time>2013-07-31T04:09:37Z</time>
        <sat>10</sat>
      </trkpt>
      <trkpt lat="33.173572" lon="35.566998">
        <ele>75.8</ele>
        <time>2013-07-31T04:09:39Z</time>
        <sat>10</sat>
      </trkpt>
      <trkpt lat="33.173662" lon="35.566963">
        <ele>75.7</ele>
        <time>2013-07-31T04:09:41Z</time>
        <sat>10</sat>
      </trkpt>
      <trkpt lat="33.173757" lon="35.566925">
        <ele>75.6</ele>
        <time>2013-07-31T04:09:44Z</time>
        <sat>10</sat>
      </trkpt>
      <trkpt lat="33.173848" lon="35.566887">
        <ele>75.5</ele>
        <time>2013-07-31T04:09:49Z</time>
        <sat>10</sat>
      </trkpt>
      <trkpt lat="33.173850" lon="35.566778">
        <ele>76.1</ele>
        <time>2013-07-31T04:09:58Z</time>
        <sat>10</sat>
      </trkpt>
      <trkpt lat="33.173818" lon="35.566660">
        <ele>77.0</ele>
        <time>2013-07-31T04:10:34Z</time>
        <sat>10</sat>
      </trkpt>
      <trkpt lat="33.173763" lon="35.566542">
        <ele>77.3</ele>
        <time>2013-07-31T04:10:38Z</time>
        <sat>10</sat>
      </trkpt>
      <trkpt lat="33.173698" lon="35.566467">
        <ele>77.2</ele>
        <time>2013-07-31T04:10:41Z</time>
        <sat>10</sat>
      </trkpt>
      <trkpt lat="33.173630" lon="35.566385">
        <ele>77.2</ele>
        <time>2013-07-31T04:10:44Z</time>
        <sat>10</sat>
      </trkpt>
      <trkpt lat="33.173675" lon="35.566275">
        <ele>77.3</ele>
        <time>2013-07-31T04:10:49Z</time>
        <sat>10</sat>
      </trkpt>
      <trkpt lat="33.173760" lon="35.566232">
        <ele>77.5</ele>
        <time>2013-07-31T04:10:53Z</time>
        <sat>10</sat>
      </trkpt>
      <trkpt lat="33.173863" lon="35.566223">
        <ele>77.8</ele>
        <time>2013-07-31T04:10:57Z</time>
        <sat>10</sat>
      </trkpt>
      <trkpt lat="33.173978" lon="35.566218">
        <ele>77.9</ele>
        <time>2013-07-31T04:11:01Z</time>
        <sat>10</sat>
      </trkpt>
      <trkpt lat="33.174085" lon="35.566198">
        <ele>78.1</ele>
        <time>2013-07-31T04:11:05Z</time>
        <sat>10</sat>
      </trkpt>
      <trkpt lat="33.174167" lon="35.566145">
        <ele>78.0</ele>
        <time>2013-07-31T04:11:09Z</time>
        <sat>10</sat>
      </trkpt>
      <trkpt lat="33.174195" lon="35.566030">
        <ele>78.2</ele>
        <time>2013-07-31T04:11:15Z</time>
        <sat>10</sat>
      </trkpt>
      <trkpt lat="33.174113" lon="35.565950">
        <ele>78.7</ele>
        <time>2013-07-31T04:11:20Z</time>
        <sat>10</sat>
      </trkpt>
      <trkpt lat="33.174028" lon="35.565888">
        <ele>79.4</ele>
        <time>2013-07-31T04:11:25Z</time>
        <sat>10</sat>
      </trkpt>
      <trkpt lat="33.173952" lon="35.565810">
        <ele>80.1</ele>
        <time>2013-07-31T04:11:30Z</time>
        <sat>10</sat>
      </trkpt>
      <trkpt lat="33.173872" lon="35.565722">
        <ele>81.3</ele>
        <time>2013-07-31T04:11:35Z</time>
        <sat>10</sat>
      </trkpt>
      <trkpt lat="33.173797" lon="35.565640">
        <ele>81.9</ele>
        <time>2013-07-31T04:11:40Z</time>
        <sat>10</sat>
      </trkpt>
      <trkpt lat="33.173723" lon="35.565553">
        <ele>82.7</ele>
        <time>2013-07-31T04:11:46Z</time>
        <sat>10</sat>
      </trkpt>
      <trkpt lat="33.173680" lon="35.565442">
        <ele>84.1</ele>
        <time>2013-07-31T04:11:52Z</time>
        <sat>10</sat>
      </trkpt>
      <trkpt lat="33.173677" lon="35.565318">
        <ele>85.7</ele>
        <time>2013-07-31T04:11:59Z</time>
        <sat>9</sat>
      </trkpt>
      <trkpt lat="33.173733" lon="35.565225">
        <ele>87.9</ele>
        <time>2013-07-31T04:12:06Z</time>
        <sat>10</sat>
      </trkpt>
      <trkpt lat="33.173817" lon="35.565160">
        <ele>89.0</ele>
        <time>2013-07-31T04:12:12Z</time>
        <sat>10</sat>
      </trkpt>
      <trkpt lat="33.173877" lon="35.565073">
        <ele>90.4</ele>
        <time>2013-07-31T04:12:18Z</time>
        <sat>10</sat>
      </trkpt>
      <trkpt lat="33.173919" lon="35.564972">
        <ele>92.0</ele>
        <time>2013-07-31T04:12:24Z</time>
        <sat>10</sat>
      </trkpt>
      <trkpt lat="33.173978" lon="35.564873">
        <ele>93.0</ele>
        <time>2013-07-31T04:12:31Z</time>
        <sat>10</sat>
      </trkpt>
      <trkpt lat="33.174034" lon="35.564782">
        <ele>94.0</ele>
        <time>2013-07-31T04:12:37Z</time>
        <sat>10</sat>
      </trkpt>
      <trkpt lat="33.174087" lon="35.564693">
        <ele>95.0</ele>
        <time>2013-07-31T04:12:43Z</time>
        <sat>10</sat>
      </trkpt>
      <trkpt lat="33.174078" lon="35.564582">
        <ele>96.7</ele>
        <time>2013-07-31T04:12:50Z</time>
        <sat>10</sat>
      </trkpt>
      <trkpt lat="33.173997" lon="35.564523">
        <ele>98.0</ele>
        <time>2013-07-31T04:12:56Z</time>
        <sat>10</sat>
      </trkpt>
      <trkpt lat="33.173893" lon="35.564520">
        <ele>99.7</ele>
        <time>2013-07-31T04:13:03Z</time>
        <sat>10</sat>
      </trkpt>
      <trkpt lat="33.173797" lon="35.564522">
        <ele>101.1</ele>
        <time>2013-07-31T04:13:09Z</time>
        <sat>10</sat>
      </trkpt>
      <trkpt lat="33.173697" lon="35.564550">
        <ele>102.7</ele>
        <time>2013-07-31T04:13:16Z</time>
        <sat>10</sat>
      </trkpt>
      <trkpt lat="33.173600" lon="35.564582">
        <ele>103.8</ele>
        <time>2013-07-31T04:13:22Z</time>
        <sat>10</sat>
      </trkpt>
      <trkpt lat="33.173517" lon="35.564627">
        <ele>104.6</ele>
        <time>2013-07-31T04:13:27Z</time>
        <sat>10</sat>
      </trkpt>
      <trkpt lat="33.173422" lon="35.564682">
        <ele>106.1</ele>
        <time>2013-07-31T04:13:33Z</time>
        <sat>10</sat>
      </trkpt>
      <trkpt lat="33.173337" lon="35.564725">
        <ele>107.4</ele>
        <time>2013-07-31T04:13:38Z</time>
        <sat>10</sat>
      </trkpt>
      <trkpt lat="33.173245" lon="35.564738">
        <ele>108.8</ele>
        <time>2013-07-31T04:13:44Z</time>
        <sat>10</sat>
      </trkpt>
      <trkpt lat="33.173252" lon="35.564625">
        <ele>110.3</ele>
        <time>2013-07-31T04:13:53Z</time>
        <sat>10</sat>
      </trkpt>
      <trkpt lat="33.173340" lon="35.564557">
        <ele>111.0</ele>
        <time>2013-07-31T04:13:58Z</time>
        <sat>10</sat>
      </trkpt>
      <trkpt lat="33.173420" lon="35.564502">
        <ele>111.3</ele>
        <time>2013-07-31T04:14:03Z</time>
        <sat>10</sat>
      </trkpt>
      <trkpt lat="33.173515" lon="35.564458">
        <ele>111.4</ele>
        <time>2013-07-31T04:14:08Z</time>
        <sat>10</sat>
      </trkpt>
      <trkpt lat="33.173617" lon="35.564403">
        <ele>111.3</ele>
        <time>2013-07-31T04:14:13Z</time>
        <sat>10</sat>
      </trkpt>
      <trkpt lat="33.173723" lon="35.564340">
        <ele>111.5</ele>
        <time>2013-07-31T04:14:17Z</time>
        <sat>10</sat>
      </trkpt>
      <trkpt lat="33.173818" lon="35.564288">
        <ele>111.7</ele>
        <time>2013-07-31T04:14:20Z</time>
        <sat>10</sat>
      </trkpt>
      <trkpt lat="33.173907" lon="35.564233">
        <ele>111.8</ele>
        <time>2013-07-31T04:14:23Z</time>
        <sat>10</sat>
      </trkpt>
      <trkpt lat="33.173992" lon="35.564185">
        <ele>111.7</ele>
        <time>2013-07-31T04:14:26Z</time>
        <sat>10</sat>
      </trkpt>
      <trkpt lat="33.174085" lon="35.564107">
        <ele>112.5</ele>
        <time>2013-07-31T04:14:30Z</time>
        <sat>10</sat>
      </trkpt>
      <trkpt lat="33.174170" lon="35.564035">
        <ele>112.7</ele>
        <time>2013-07-31T04:14:34Z</time>
        <sat>10</sat>
      </trkpt>
      <trkpt lat="33.174245" lon="35.563967">
        <ele>113.5</ele>
        <time>2013-07-31T04:14:38Z</time>
        <sat>10</sat>
      </trkpt>
      <trkpt lat="33.174328" lon="35.563887">
        <ele>114.9</ele>
        <time>2013-07-31T04:14:43Z</time>
        <sat>9</sat>
      </trkpt>
      <trkpt lat="33.174405" lon="35.563802">
        <ele>116.4</ele>
        <time>2013-07-31T04:14:48Z</time>
        <sat>10</sat>
      </trkpt>
      <trkpt lat="33.174490" lon="35.563740">
        <ele>117.4</ele>
        <time>2013-07-31T04:14:53Z</time>
        <sat>10</sat>
      </trkpt>
      <trkpt lat="33.174560" lon="35.563670">
        <ele>118.7</ele>
        <time>2013-07-31T04:14:58Z</time>
        <sat>10</sat>
      </trkpt>
      <trkpt lat="33.174627" lon="35.563588">
        <ele>120.5</ele>
        <time>2013-07-31T04:15:04Z</time>
        <sat>10</sat>
      </trkpt>
      <trkpt lat="33.174693" lon="35.563507">
        <ele>122.5</ele>
        <time>2013-07-31T04:15:10Z</time>
        <sat>10</sat>
      </trkpt>
      <trkpt lat="33.174767" lon="35.563423">
        <ele>124.3</ele>
        <time>2013-07-31T04:15:16Z</time>
        <sat>10</sat>
      </trkpt>
      <trkpt lat="33.174858" lon="35.563362">
        <ele>125.7</ele>
        <time>2013-07-31T04:15:22Z</time>
        <sat>10</sat>
      </trkpt>
      <trkpt lat="33.174942" lon="35.563285">
        <ele>127.3</ele>
        <time>2013-07-31T04:15:28Z</time>
        <sat>10</sat>
      </trkpt>
      <trkpt lat="33.175027" lon="35.563223">
        <ele>128.6</ele>
        <time>2013-07-31T04:15:34Z</time>
        <sat>10</sat>
      </trkpt>
      <trkpt lat="33.175108" lon="35.563162">
        <ele>130.3</ele>
        <time>2013-07-31T04:15:40Z</time>
        <sat>10</sat>
      </trkpt>
      <trkpt lat="33.175192" lon="35.563098">
        <ele>131.7</ele>
        <time>2013-07-31T04:15:46Z</time>
        <sat>10</sat>
      </trkpt>
      <trkpt lat="33.175287" lon="35.563050">
        <ele>133.2</ele>
        <time>2013-07-31T04:15:52Z</time>
        <sat>10</sat>
      </trkpt>
      <trkpt lat="33.175383" lon="35.563015">
        <ele>135.0</ele>
        <time>2013-07-31T04:15:58Z</time>
        <sat>9</sat>
      </trkpt>
      <trkpt lat="33.175482" lon="35.562987">
        <ele>136.8</ele>
        <time>2013-07-31T04:16:04Z</time>
        <sat>10</sat>
      </trkpt>
      <trkpt lat="33.175575" lon="35.562970">
        <ele>138.4</ele>
        <time>2013-07-31T04:16:10Z</time>
        <sat>10</sat>
      </trkpt>
      <trkpt lat="33.175672" lon="35.562992">
        <ele>139.7</ele>
        <time>2013-07-31T04:16:17Z</time>
        <sat>10</sat>
      </trkpt>
      <trkpt lat="33.175768" lon="35.562967">
        <ele>140.7</ele>
        <time>2013-07-31T04:16:23Z</time>
        <sat>10</sat>
      </trkpt>
      <trkpt lat="33.175860" lon="35.562910">
        <ele>141.4</ele>
        <time>2013-07-31T04:16:30Z</time>
        <sat>10</sat>
      </trkpt>
      <trkpt lat="33.175873" lon="35.562787">
        <ele>142.7</ele>
        <time>2013-07-31T04:16:37Z</time>
        <sat>10</sat>
      </trkpt>
      <trkpt lat="33.175875" lon="35.562663">
        <ele>143.7</ele>
        <time>2013-07-31T04:16:44Z</time>
        <sat>10</sat>
      </trkpt>
      <trkpt lat="33.175898" lon="35.562553">
        <ele>144.8</ele>
        <time>2013-07-31T04:16:50Z</time>
        <sat>10</sat>
      </trkpt>
      <trkpt lat="33.175953" lon="35.562458">
        <ele>146.1</ele>
        <time>2013-07-31T04:16:56Z</time>
        <sat>10</sat>
      </trkpt>
      <trkpt lat="33.176030" lon="35.562382">
        <ele>147.2</ele>
        <time>2013-07-31T04:17:02Z</time>
        <sat>10</sat>
      </trkpt>
      <trkpt lat="33.176118" lon="35.562318">
        <ele>148.4</ele>
        <time>2013-07-31T04:17:08Z</time>
        <sat>10</sat>
      </trkpt>
      <trkpt lat="33.176213" lon="35.562272">
        <ele>149.2</ele>
        <time>2013-07-31T04:17:14Z</time>
        <sat>10</sat>
      </trkpt>
      <trkpt lat="33.176297" lon="35.562217">
        <ele>150.0</ele>
        <time>2013-07-31T04:17:19Z</time>
        <sat>10</sat>
      </trkpt>
      <trkpt lat="33.176390" lon="35.562190">
        <ele>150.7</ele>
        <time>2013-07-31T04:17:24Z</time>
        <sat>10</sat>
      </trkpt>
      <trkpt lat="33.176493" lon="35.562157">
        <ele>151.5</ele>
        <time>2013-07-31T04:17:30Z</time>
        <sat>10</sat>
      </trkpt>
      <trkpt lat="33.176592" lon="35.562117">
        <ele>152.6</ele>
        <time>2013-07-31T04:17:36Z</time>
        <sat>10</sat>
      </trkpt>
      <trkpt lat="33.176675" lon="35.562057">
        <ele>153.5</ele>
        <time>2013-07-31T04:17:42Z</time>
        <sat>10</sat>
      </trkpt>
      <trkpt lat="33.176758" lon="35.561990">
        <ele>154.5</ele>
        <time>2013-07-31T04:17:48Z</time>
        <sat>10</sat>
      </trkpt>
      <trkpt lat="33.176842" lon="35.561932">
        <ele>155.6</ele>
        <time>2013-07-31T04:17:54Z</time>
        <sat>10</sat>
      </trkpt>
      <trkpt lat="33.176925" lon="35.561872">
        <ele>157.0</ele>
        <time>2013-07-31T04:18:00Z</time>
        <sat>10</sat>
      </trkpt>
      <trkpt lat="33.176972" lon="35.561770">
        <ele>158.3</ele>
        <time>2013-07-31T04:18:06Z</time>
        <sat>9</sat>
      </trkpt>
      <trkpt lat="33.176960" lon="35.561662">
        <ele>160.1</ele>
        <time>2013-07-31T04:18:12Z</time>
        <sat>10</sat>
      </trkpt>
      <trkpt lat="33.176907" lon="35.561552">
        <ele>161.2</ele>
        <time>2013-07-31T04:18:18Z</time>
        <sat>10</sat>
      </trkpt>
      <trkpt lat="33.176993" lon="35.561522">
        <ele>162.2</ele>
        <time>2013-07-31T04:18:26Z</time>
        <sat>10</sat>
      </trkpt>
      <trkpt lat="33.177118" lon="35.561568">
        <ele>164.2</ele>
        <time>2013-07-31T04:18:41Z</time>
        <sat>10</sat>
      </trkpt>
      <trkpt lat="33.177212" lon="35.561555">
        <ele>164.7</ele>
        <time>2013-07-31T04:18:43Z</time>
        <sat>10</sat>
      </trkpt>
      <trkpt lat="33.177308" lon="35.561535">
        <ele>166.0</ele>
        <time>2013-07-31T04:18:49Z</time>
        <sat>10</sat>
      </trkpt>
      <trkpt lat="33.177397" lon="35.561493">
        <ele>167.9</ele>
        <time>2013-07-31T04:18:56Z</time>
        <sat>10</sat>
      </trkpt>
      <trkpt lat="33.177490" lon="35.561475">
        <ele>169.7</ele>
        <time>2013-07-31T04:19:03Z</time>
        <sat>10</sat>
      </trkpt>
      <trkpt lat="33.177610" lon="35.561450">
        <ele>171.7</ele>
        <time>2013-07-31T04:19:11Z</time>
        <sat>10</sat>
      </trkpt>
      <trkpt lat="33.177700" lon="35.561447">
        <ele>173.5</ele>
        <time>2013-07-31T04:19:19Z</time>
        <sat>10</sat>
      </trkpt>
      <trkpt lat="33.177803" lon="35.561452">
        <ele>175.9</ele>
        <time>2013-07-31T04:19:26Z</time>
        <sat>9</sat>
      </trkpt>
      <trkpt lat="33.177900" lon="35.561458">
        <ele>177.5</ele>
        <time>2013-07-31T04:19:34Z</time>
        <sat>10</sat>
      </trkpt>
      <trkpt lat="33.177998" lon="35.561433">
        <ele>178.5</ele>
        <time>2013-07-31T04:19:41Z</time>
        <sat>10</sat>
      </trkpt>
      <trkpt lat="33.178095" lon="35.561398">
        <ele>179.4</ele>
        <time>2013-07-31T04:19:48Z</time>
        <sat>10</sat>
      </trkpt>
      <trkpt lat="33.178183" lon="35.561352">
        <ele>181.0</ele>
        <time>2013-07-31T04:19:55Z</time>
        <sat>10</sat>
      </trkpt>
      <trkpt lat="33.178265" lon="35.561287">
        <ele>183.2</ele>
        <time>2013-07-31T04:20:03Z</time>
        <sat>9</sat>
      </trkpt>
      <trkpt lat="33.178345" lon="35.561220">
        <ele>184.7</ele>
        <time>2013-07-31T04:20:10Z</time>
        <sat>10</sat>
      </trkpt>
      <trkpt lat="33.178415" lon="35.561148">
        <ele>186.2</ele>
        <time>2013-07-31T04:20:17Z</time>
        <sat>10</sat>
      </trkpt>
      <trkpt lat="33.178483" lon="35.561067">
        <ele>188.1</ele>
        <time>2013-07-31T04:20:24Z</time>
        <sat>10</sat>
      </trkpt>
      <trkpt lat="33.178553" lon="35.560985">
        <ele>190.2</ele>
        <time>2013-07-31T04:20:32Z</time>
        <sat>10</sat>
      </trkpt>
      <trkpt lat="33.178623" lon="35.560905">
        <ele>192.2</ele>
        <time>2013-07-31T04:20:40Z</time>
        <sat>10</sat>
      </trkpt>
      <trkpt lat="33.178702" lon="35.560833">
        <ele>194.4</ele>
        <time>2013-07-31T04:20:49Z</time>
        <sat>10</sat>
      </trkpt>
      <trkpt lat="33.178788" lon="35.560778">
        <ele>195.1</ele>
        <time>2013-07-31T04:20:57Z</time>
        <sat>10</sat>
      </trkpt>
      <trkpt lat="33.178870" lon="35.560705">
        <ele>196.0</ele>
        <time>2013-07-31T04:21:05Z</time>
        <sat>10</sat>
      </trkpt>
      <trkpt lat="33.178953" lon="35.560640">
        <ele>196.0</ele>
        <time>2013-07-31T04:21:13Z</time>
        <sat>10</sat>
      </trkpt>
      <trkpt lat="33.179038" lon="35.560592">
        <ele>196.7</ele>
        <time>2013-07-31T04:21:21Z</time>
        <sat>10</sat>
      </trkpt>
      <trkpt lat="33.179130" lon="35.560570">
        <ele>196.8</ele>
        <time>2013-07-31T04:21:29Z</time>
        <sat>10</sat>
      </trkpt>
      <trkpt lat="33.179040" lon="35.560592">
        <ele>196.0</ele>
        <time>2013-07-31T04:22:26Z</time>
        <sat>10</sat>
      </trkpt>
      <trkpt lat="33.178930" lon="35.560603">
        <ele>195.5</ele>
        <time>2013-07-31T04:22:33Z</time>
        <sat>10</sat>
      </trkpt>
      <trkpt lat="33.178832" lon="35.560638">
        <ele>195.9</ele>
        <time>2013-07-31T04:22:39Z</time>
        <sat>10</sat>
      </trkpt>
      <trkpt lat="33.178760" lon="35.560717">
        <ele>195.8</ele>
        <time>2013-07-31T04:22:45Z</time>
        <sat>10</sat>
      </trkpt>
      <trkpt lat="33.178697" lon="35.560795">
        <ele>195.7</ele>
        <time>2013-07-31T04:22:51Z</time>
        <sat>10</sat>
      </trkpt>
      <trkpt lat="33.178608" lon="35.560817">
        <ele>194.4</ele>
        <time>2013-07-31T04:33:55Z</time>
        <sat>11</sat>
      </trkpt>
      <trkpt lat="33.178547" lon="35.560717">
        <ele>194.9</ele>
        <time>2013-07-31T04:34:05Z</time>
        <sat>11</sat>
      </trkpt>
      <trkpt lat="33.178453" lon="35.560655">
        <ele>194.3</ele>
        <time>2013-07-31T04:34:11Z</time>
        <sat>11</sat>
      </trkpt>
      <trkpt lat="33.178352" lon="35.560655">
        <ele>194.5</ele>
        <time>2013-07-31T04:35:37Z</time>
        <sat>11</sat>
      </trkpt>
      <trkpt lat="33.178258" lon="35.560647">
        <ele>194.0</ele>
        <time>2013-07-31T04:35:44Z</time>
        <sat>11</sat>
      </trkpt>
      <trkpt lat="33.178198" lon="35.560558">
        <ele>195.3</ele>
        <time>2013-07-31T04:36:19Z</time>
        <sat>11</sat>
      </trkpt>
      <trkpt lat="33.178263" lon="35.560475">
        <ele>197.6</ele>
        <time>2013-07-31T04:36:36Z</time>
        <sat>11</sat>
      </trkpt>
      <trkpt lat="33.178252" lon="35.560368">
        <ele>201.0</ele>
        <time>2013-07-31T04:36:59Z</time>
        <sat>10</sat>
      </trkpt>
      <trkpt lat="33.178233" lon="35.560260">
        <ele>205.4</ele>
        <time>2013-07-31T04:37:35Z</time>
        <sat>11</sat>
      </trkpt>
      <trkpt lat="33.178135" lon="35.560262">
        <ele>206.9</ele>
        <time>2013-07-31T04:37:51Z</time>
        <sat>11</sat>
      </trkpt>
      <trkpt lat="33.178078" lon="35.560170">
        <ele>209.7</ele>
        <time>2013-07-31T04:38:21Z</time>
        <sat>10</sat>
      </trkpt>
      <trkpt lat="33.178040" lon="35.560067">
        <ele>210.7</ele>
        <time>2013-07-31T04:38:35Z</time>
        <sat>10</sat>
      </trkpt>
      <trkpt lat="33.177943" lon="35.560065">
        <ele>212.6</ele>
        <time>2013-07-31T04:38:50Z</time>
        <sat>10</sat>
      </trkpt>
      <trkpt lat="33.177852" lon="35.560027">
        <ele>213.3</ele>
        <time>2013-07-31T04:39:12Z</time>
        <sat>10</sat>
      </trkpt>
      <trkpt lat="33.177808" lon="35.559928">
        <ele>215.1</ele>
        <time>2013-07-31T04:40:14Z</time>
        <sat>10</sat>
      </trkpt>
      <trkpt lat="33.177778" lon="35.559822">
        <ele>216.8</ele>
        <time>2013-07-31T04:40:28Z</time>
        <sat>10</sat>
      </trkpt>
      <trkpt lat="33.177813" lon="35.559712">
        <ele>218.3</ele>
        <time>2013-07-31T04:41:06Z</time>
        <sat>10</sat>
      </trkpt>
      <trkpt lat="33.177895" lon="35.559640">
        <ele>219.1</ele>
        <time>2013-07-31T04:41:14Z</time>
        <sat>10</sat>
      </trkpt>
      <trkpt lat="33.177978" lon="35.559582">
        <ele>220.3</ele>
        <time>2013-07-31T04:41:21Z</time>
        <sat>10</sat>
      </trkpt>
      <trkpt lat="33.178057" lon="35.559528">
        <ele>221.3</ele>
        <time>2013-07-31T04:41:27Z</time>
        <sat>10</sat>
      </trkpt>
      <trkpt lat="33.178137" lon="35.559475">
        <ele>222.5</ele>
        <time>2013-07-31T04:41:33Z</time>
        <sat>10</sat>
      </trkpt>
      <trkpt lat="33.178225" lon="35.559438">
        <ele>223.6</ele>
        <time>2013-07-31T04:41:39Z</time>
        <sat>10</sat>
      </trkpt>
      <trkpt lat="33.178320" lon="35.559410">
        <ele>224.8</ele>
        <time>2013-07-31T04:41:45Z</time>
        <sat>10</sat>
      </trkpt>
      <trkpt lat="33.178418" lon="35.559384">
        <ele>225.5</ele>
        <time>2013-07-31T04:41:51Z</time>
        <sat>10</sat>
      </trkpt>
      <trkpt lat="33.178513" lon="35.559347">
        <ele>226.4</ele>
        <time>2013-07-31T04:41:57Z</time>
        <sat>10</sat>
      </trkpt>
      <trkpt lat="33.178610" lon="35.559302">
        <ele>228.0</ele>
        <time>2013-07-31T04:42:04Z</time>
        <sat>10</sat>
      </trkpt>
      <trkpt lat="33.178697" lon="35.559255">
        <ele>229.3</ele>
        <time>2013-07-31T04:42:10Z</time>
        <sat>9</sat>
      </trkpt>
      <trkpt lat="33.178783" lon="35.559198">
        <ele>231.2</ele>
        <time>2013-07-31T04:42:17Z</time>
        <sat>9</sat>
      </trkpt>
      <trkpt lat="33.178873" lon="35.559162">
        <ele>232.4</ele>
        <time>2013-07-31T04:42:24Z</time>
        <sat>9</sat>
      </trkpt>
      <trkpt lat="33.178977" lon="35.559158">
        <ele>233.9</ele>
        <time>2013-07-31T04:42:31Z</time>
        <sat>9</sat>
      </trkpt>
      <trkpt lat="33.179080" lon="35.559155">
        <ele>235.2</ele>
        <time>2013-07-31T04:42:38Z</time>
        <sat>9</sat>
      </trkpt>
      <trkpt lat="33.179175" lon="35.559128">
        <ele>236.8</ele>
        <time>2013-07-31T04:42:45Z</time>
        <sat>9</sat>
      </trkpt>
      <trkpt lat="33.179260" lon="35.559085">
        <ele>237.4</ele>
        <time>2013-07-31T04:59:08Z</time>
        <sat>10</sat>
      </trkpt>
      <trkpt lat="33.179348" lon="35.559030">
        <ele>238.5</ele>
        <time>2013-07-31T04:59:16Z</time>
        <sat>10</sat>
      </trkpt>
      <trkpt lat="33.179428" lon="35.558963">
        <ele>239.8</ele>
        <time>2013-07-31T04:59:22Z</time>
        <sat>10</sat>
      </trkpt>
      <trkpt lat="33.179510" lon="35.558915">
        <ele>241.4</ele>
        <time>2013-07-31T04:59:28Z</time>
        <sat>10</sat>
      </trkpt>
      <trkpt lat="33.179607" lon="35.558948">
        <ele>243.3</ele>
        <time>2013-07-31T04:59:35Z</time>
        <sat>10</sat>
      </trkpt>
      <trkpt lat="33.179695" lon="35.558983">
        <ele>245.0</ele>
        <time>2013-07-31T04:59:42Z</time>
        <sat>10</sat>
      </trkpt>
      <trkpt lat="33.179783" lon="35.559048">
        <ele>245.8</ele>
        <time>2013-07-31T04:59:49Z</time>
        <sat>10</sat>
      </trkpt>
      <trkpt lat="33.179863" lon="35.559098">
        <ele>246.7</ele>
        <time>2013-07-31T04:59:55Z</time>
        <sat>10</sat>
      </trkpt>
      <trkpt lat="33.179967" lon="35.559122">
        <ele>247.1</ele>
        <time>2013-07-31T05:00:02Z</time>
        <sat>10</sat>
      </trkpt>
      <trkpt lat="33.180067" lon="35.559113">
        <ele>247.5</ele>
        <time>2013-07-31T05:00:08Z</time>
        <sat>10</sat>
      </trkpt>
      <trkpt lat="33.180153" lon="35.559080">
        <ele>248.1</ele>
        <time>2013-07-31T05:00:14Z</time>
        <sat>10</sat>
      </trkpt>
      <trkpt lat="33.180247" lon="35.559043">
        <ele>248.8</ele>
        <time>2013-07-31T05:00:21Z</time>
        <sat>10</sat>
      </trkpt>
      <trkpt lat="33.180342" lon="35.558992">
        <ele>249.8</ele>
        <time>2013-07-31T05:00:27Z</time>
        <sat>9</sat>
      </trkpt>
      <trkpt lat="33.180428" lon="35.558950">
        <ele>251.1</ele>
        <time>2013-07-31T05:00:33Z</time>
        <sat>10</sat>
      </trkpt>
      <trkpt lat="33.180515" lon="35.558918">
        <ele>252.5</ele>
        <time>2013-07-31T05:00:39Z</time>
        <sat>10</sat>
      </trkpt>
      <trkpt lat="33.180605" lon="35.558878">
        <ele>253.4</ele>
        <time>2013-07-31T05:00:45Z</time>
        <sat>10</sat>
      </trkpt>
      <trkpt lat="33.180692" lon="35.558837">
        <ele>254.2</ele>
        <time>2013-07-31T05:00:51Z</time>
        <sat>10</sat>
      </trkpt>
      <trkpt lat="33.180783" lon="35.558785">
        <ele>256.0</ele>
        <time>2013-07-31T05:00:58Z</time>
        <sat>10</sat>
      </trkpt>
      <trkpt lat="33.180867" lon="35.558725">
        <ele>257.6</ele>
        <time>2013-07-31T05:01:05Z</time>
        <sat>10</sat>
      </trkpt>
      <trkpt lat="33.180957" lon="35.558672">
        <ele>259.9</ele>
        <time>2013-07-31T05:01:13Z</time>
        <sat>10</sat>
      </trkpt>
      <trkpt lat="33.181043" lon="35.558628">
        <ele>261.7</ele>
        <time>2013-07-31T05:01:20Z</time>
        <sat>10</sat>
      </trkpt>
      <trkpt lat="33.181132" lon="35.558570">
        <ele>263.5</ele>
        <time>2013-07-31T05:01:27Z</time>
        <sat>10</sat>
      </trkpt>
      <trkpt lat="33.181218" lon="35.558518">
        <ele>265.4</ele>
        <time>2013-07-31T05:01:34Z</time>
        <sat>10</sat>
      </trkpt>
      <trkpt lat="33.181308" lon="35.558480">
        <ele>266.9</ele>
        <time>2013-07-31T05:01:40Z</time>
        <sat>10</sat>
      </trkpt>
      <trkpt lat="33.181397" lon="35.558440">
        <ele>268.5</ele>
        <time>2013-07-31T05:01:46Z</time>
        <sat>10</sat>
      </trkpt>
      <trkpt lat="33.181488" lon="35.558398">
        <ele>270.1</ele>
        <time>2013-07-31T05:01:53Z</time>
        <sat>10</sat>
      </trkpt>
      <trkpt lat="33.181587" lon="35.558380">
        <ele>270.7</ele>
        <time>2013-07-31T05:02:33Z</time>
        <sat>10</sat>
      </trkpt>
      <trkpt lat="33.181680" lon="35.558363">
        <ele>270.7</ele>
        <time>2013-07-31T05:46:31Z</time>
        <sat>9</sat>
      </trkpt>
      <trkpt lat="33.181762" lon="35.558305">
        <ele>271.7</ele>
        <time>2013-07-31T05:46:37Z</time>
        <sat>9</sat>
      </trkpt>
      <trkpt lat="33.181838" lon="35.558238">
        <ele>272.8</ele>
        <time>2013-07-31T05:46:44Z</time>
        <sat>9</sat>
      </trkpt>
      <trkpt lat="33.181915" lon="35.558157">
        <ele>273.5</ele>
        <time>2013-07-31T05:46:51Z</time>
        <sat>9</sat>
      </trkpt>
      <trkpt lat="33.181987" lon="35.558090">
        <ele>274.3</ele>
        <time>2013-07-31T05:46:58Z</time>
        <sat>9</sat>
      </trkpt>
      <trkpt lat="33.182082" lon="35.558047">
        <ele>274.5</ele>
        <time>2013-07-31T05:47:10Z</time>
        <sat>9</sat>
      </trkpt>
      <trkpt lat="33.182180" lon="35.558007">
        <ele>274.4</ele>
        <time>2013-07-31T05:47:17Z</time>
        <sat>9</sat>
      </trkpt>
      <trkpt lat="33.182272" lon="35.557980">
        <ele>274.1</ele>
        <time>2013-07-31T05:47:21Z</time>
        <sat>9</sat>
      </trkpt>
      <trkpt lat="33.182390" lon="35.557970">
        <ele>273.4</ele>
        <time>2013-07-31T05:47:25Z</time>
        <sat>9</sat>
      </trkpt>
      <trkpt lat="33.182485" lon="35.557973">
        <ele>272.9</ele>
        <time>2013-07-31T05:47:28Z</time>
        <sat>9</sat>
      </trkpt>
      <trkpt lat="33.182608" lon="35.557982">
        <ele>271.8</ele>
        <time>2013-07-31T05:47:31Z</time>
        <sat>9</sat>
      </trkpt>
      <trkpt lat="33.182720" lon="35.558050">
        <ele>271.1</ele>
        <time>2013-07-31T05:47:34Z</time>
        <sat>9</sat>
      </trkpt>
      <trkpt lat="33.182828" lon="35.558113">
        <ele>270.4</ele>
        <time>2013-07-31T05:47:37Z</time>
        <sat>9</sat>
      </trkpt>
      <trkpt lat="33.182940" lon="35.558177">
        <ele>269.3</ele>
        <time>2013-07-31T05:47:40Z</time>
        <sat>9</sat>
      </trkpt>
      <trkpt lat="33.183030" lon="35.558232">
        <ele>268.6</ele>
        <time>2013-07-31T05:47:43Z</time>
        <sat>9</sat>
      </trkpt>
      <trkpt lat="33.183132" lon="35.558278">
        <ele>268.2</ele>
        <time>2013-07-31T05:47:47Z</time>
        <sat>9</sat>
      </trkpt>
      <trkpt lat="33.183225" lon="35.558333">
        <ele>267.8</ele>
        <time>2013-07-31T05:47:52Z</time>
        <sat>9</sat>
      </trkpt>
      <trkpt lat="33.183320" lon="35.558398">
        <ele>267.6</ele>
        <time>2013-07-31T05:47:55Z</time>
        <sat>9</sat>
      </trkpt>
      <trkpt lat="33.183403" lon="35.558440">
        <ele>266.1</ele>
        <time>2013-07-31T05:47:58Z</time>
        <sat>9</sat>
      </trkpt>
      <trkpt lat="33.183517" lon="35.558492">
        <ele>265.3</ele>
        <time>2013-07-31T05:48:01Z</time>
        <sat>9</sat>
      </trkpt>
      <trkpt lat="33.183623" lon="35.558517">
        <ele>264.7</ele>
        <time>2013-07-31T05:48:04Z</time>
        <sat>9</sat>
      </trkpt>
      <trkpt lat="33.183733" lon="35.558515">
        <ele>264.2</ele>
        <time>2013-07-31T05:48:07Z</time>
        <sat>9</sat>
      </trkpt>
      <trkpt lat="33.183815" lon="35.558567">
        <ele>264.3</ele>
        <time>2013-07-31T05:48:10Z</time>
        <sat>9</sat>
      </trkpt>
      <trkpt lat="33.183905" lon="35.558575">
        <ele>263.7</ele>
        <time>2013-07-31T05:48:12Z</time>
        <sat>9</sat>
      </trkpt>
      <trkpt lat="33.184013" lon="35.558612">
        <ele>262.7</ele>
        <time>2013-07-31T05:48:15Z</time>
        <sat>9</sat>
      </trkpt>
      <trkpt lat="33.184117" lon="35.558678">
        <ele>261.8</ele>
        <time>2013-07-31T05:48:18Z</time>
        <sat>9</sat>
      </trkpt>
      <trkpt lat="33.184222" lon="35.558718">
        <ele>261.6</ele>
        <time>2013-07-31T05:48:20Z</time>
        <sat>9</sat>
      </trkpt>
      <trkpt lat="33.184323" lon="35.558715">
        <ele>261.0</ele>
        <time>2013-07-31T05:48:22Z</time>
        <sat>9</sat>
      </trkpt>
      <trkpt lat="33.184425" lon="35.558702">
        <ele>260.4</ele>
        <time>2013-07-31T05:48:24Z</time>
        <sat>9</sat>
      </trkpt>
      <trkpt lat="33.184553" lon="35.558702">
        <ele>259.9</ele>
        <time>2013-07-31T05:48:27Z</time>
        <sat>9</sat>
      </trkpt>
      <trkpt lat="33.184670" lon="35.558647">
        <ele>258.5</ele>
        <time>2013-07-31T05:48:30Z</time>
        <sat>9</sat>
      </trkpt>
      <trkpt lat="33.184780" lon="35.558635">
        <ele>258.1</ele>
        <time>2013-07-31T05:48:33Z</time>
        <sat>9</sat>
      </trkpt>
      <trkpt lat="33.184893" lon="35.558690">
        <ele>257.5</ele>
        <time>2013-07-31T05:48:36Z</time>
        <sat>9</sat>
      </trkpt>
      <trkpt lat="33.185018" lon="35.558730">
        <ele>256.9</ele>
        <time>2013-07-31T05:48:39Z</time>
        <sat>9</sat>
      </trkpt>
      <trkpt lat="33.185147" lon="35.558722">
        <ele>256.9</ele>
        <time>2013-07-31T05:48:42Z</time>
        <sat>9</sat>
      </trkpt>
      <trkpt lat="33.185257" lon="35.558715">
        <ele>256.4</ele>
        <time>2013-07-31T05:48:45Z</time>
        <sat>9</sat>
      </trkpt>
      <trkpt lat="33.185347" lon="35.558707">
        <ele>256.3</ele>
        <time>2013-07-31T05:48:48Z</time>
        <sat>9</sat>
      </trkpt>
      <trkpt lat="33.185452" lon="35.558707">
        <ele>255.9</ele>
        <time>2013-07-31T05:48:51Z</time>
        <sat>9</sat>
      </trkpt>
      <trkpt lat="33.185548" lon="35.558695">
        <ele>255.0</ele>
        <time>2013-07-31T05:48:53Z</time>
        <sat>9</sat>
      </trkpt>
      <trkpt lat="33.185654" lon="35.558657">
        <ele>253.7</ele>
        <time>2013-07-31T05:48:55Z</time>
        <sat>9</sat>
      </trkpt>
      <trkpt lat="33.185748" lon="35.558587">
        <ele>252.8</ele>
        <time>2013-07-31T05:48:57Z</time>
        <sat>9</sat>
      </trkpt>
      <trkpt lat="33.185833" lon="35.558542">
        <ele>252.3</ele>
        <time>2013-07-31T05:48:59Z</time>
        <sat>9</sat>
      </trkpt>
      <trkpt lat="33.185958" lon="35.558507">
        <ele>251.5</ele>
        <time>2013-07-31T05:49:02Z</time>
        <sat>9</sat>
      </trkpt>
      <trkpt lat="33.186072" lon="35.558435">
        <ele>249.6</ele>
        <time>2013-07-31T05:49:05Z</time>
        <sat>9</sat>
      </trkpt>
      <trkpt lat="33.186147" lon="35.558375">
        <ele>249.5</ele>
        <time>2013-07-31T05:49:07Z</time>
        <sat>9</sat>
      </trkpt>
      <trkpt lat="33.186238" lon="35.558363">
        <ele>248.9</ele>
        <time>2013-07-31T05:49:09Z</time>
        <sat>9</sat>
      </trkpt>
      <trkpt lat="33.186338" lon="35.558435">
        <ele>248.4</ele>
        <time>2013-07-31T05:49:13Z</time>
        <sat>9</sat>
      </trkpt>
      <trkpt lat="33.186427" lon="35.558488">
        <ele>247.5</ele>
        <time>2013-07-31T05:49:17Z</time>
        <sat>9</sat>
      </trkpt>
      <trkpt lat="33.186510" lon="35.558555">
        <ele>246.9</ele>
        <time>2013-07-31T05:49:21Z</time>
        <sat>9</sat>
      </trkpt>
      <trkpt lat="33.186635" lon="35.558592">
        <ele>245.4</ele>
        <time>2013-07-31T05:49:24Z</time>
        <sat>9</sat>
      </trkpt>
      <trkpt lat="33.186742" lon="35.558562">
        <ele>245.5</ele>
        <time>2013-07-31T05:49:27Z</time>
        <sat>9</sat>
      </trkpt>
      <trkpt lat="33.186845" lon="35.558547">
        <ele>245.0</ele>
        <time>2013-07-31T05:49:30Z</time>
        <sat>9</sat>
      </trkpt>
      <trkpt lat="33.186940" lon="35.558528">
        <ele>244.8</ele>
        <time>2013-07-31T05:49:34Z</time>
        <sat>9</sat>
      </trkpt>
      <trkpt lat="33.187037" lon="35.558590">
        <ele>244.7</ele>
        <time>2013-07-31T05:49:38Z</time>
        <sat>9</sat>
      </trkpt>
      <trkpt lat="33.187130" lon="35.558612">
        <ele>244.5</ele>
        <time>2013-07-31T05:49:43Z</time>
        <sat>9</sat>
      </trkpt>
      <trkpt lat="33.187235" lon="35.558598">
        <ele>244.4</ele>
        <time>2013-07-31T05:51:37Z</time>
        <sat>9</sat>
      </trkpt>
      <trkpt lat="33.187327" lon="35.558657">
        <ele>244.5</ele>
        <time>2013-07-31T05:51:41Z</time>
        <sat>9</sat>
      </trkpt>
      <trkpt lat="33.187413" lon="35.558727">
        <ele>244.0</ele>
        <time>2013-07-31T05:51:44Z</time>
        <sat>9</sat>
      </trkpt>
      <trkpt lat="33.187518" lon="35.558757">
        <ele>243.7</ele>
        <time>2013-07-31T05:51:47Z</time>
        <sat>9</sat>
      </trkpt>
      <trkpt lat="33.187618" lon="35.558777">
        <ele>243.2</ele>
        <time>2013-07-31T05:51:50Z</time>
        <sat>9</sat>
      </trkpt>
      <trkpt lat="33.187720" lon="35.558817">
        <ele>242.4</ele>
        <time>2013-07-31T05:51:53Z</time>
        <sat>9</sat>
      </trkpt>
      <trkpt lat="33.187848" lon="35.558852">
        <ele>242.1</ele>
        <time>2013-07-31T05:51:56Z</time>
        <sat>8</sat>
      </trkpt>
      <trkpt lat="33.187972" lon="35.558813">
        <ele>241.4</ele>
        <time>2013-07-31T05:51:59Z</time>
        <sat>8</sat>
      </trkpt>
      <trkpt lat="33.188073" lon="35.558795">
        <ele>240.7</ele>
        <time>2013-07-31T05:52:01Z</time>
        <sat>8</sat>
      </trkpt>
      <trkpt lat="33.188208" lon="35.558792">
        <ele>240.1</ele>
        <time>2013-07-31T05:52:04Z</time>
        <sat>8</sat>
      </trkpt>
      <trkpt lat="33.188310" lon="35.558817">
        <ele>239.8</ele>
        <time>2013-07-31T05:52:06Z</time>
        <sat>8</sat>
      </trkpt>
      <trkpt lat="33.188403" lon="35.558830">
        <ele>239.6</ele>
        <time>2013-07-31T05:52:08Z</time>
        <sat>8</sat>
      </trkpt>
      <trkpt lat="33.188513" lon="35.558837">
        <ele>239.9</ele>
        <time>2013-07-31T05:52:12Z</time>
        <sat>8</sat>
      </trkpt>
      <trkpt lat="33.188623" lon="35.558842">
        <ele>239.1</ele>
        <time>2013-07-31T05:52:14Z</time>
        <sat>8</sat>
      </trkpt>
      <trkpt lat="33.188748" lon="35.558868">
        <ele>238.8</ele>
        <time>2013-07-31T05:52:16Z</time>
        <sat>8</sat>
      </trkpt>
      <trkpt lat="33.188882" lon="35.558878">
        <ele>238.2</ele>
        <time>2013-07-31T05:52:18Z</time>
        <sat>8</sat>
      </trkpt>
      <trkpt lat="33.188993" lon="35.558902">
        <ele>238.0</ele>
        <time>2013-07-31T05:52:21Z</time>
        <sat>8</sat>
      </trkpt>
      <trkpt lat="33.189130" lon="35.558927">
        <ele>237.7</ele>
        <time>2013-07-31T05:52:24Z</time>
        <sat>8</sat>
      </trkpt>
      <trkpt lat="33.189235" lon="35.559005">
        <ele>237.1</ele>
        <time>2013-07-31T05:52:27Z</time>
        <sat>8</sat>
      </trkpt>
      <trkpt lat="33.189330" lon="35.559055">
        <ele>236.3</ele>
        <time>2013-07-31T05:52:29Z</time>
        <sat>8</sat>
      </trkpt>
      <trkpt lat="33.189442" lon="35.559087">
        <ele>235.4</ele>
        <time>2013-07-31T05:52:32Z</time>
        <sat>8</sat>
      </trkpt>
      <trkpt lat="33.189542" lon="35.559115">
        <ele>235.7</ele>
        <time>2013-07-31T05:52:36Z</time>
        <sat>7</sat>
      </trkpt>
      <trkpt lat="33.189643" lon="35.559138">
        <ele>236.1</ele>
        <time>2013-07-31T05:52:40Z</time>
        <sat>7</sat>
      </trkpt>
      <trkpt lat="33.189747" lon="35.559128">
        <ele>236.4</ele>
        <time>2013-07-31T05:52:44Z</time>
        <sat>7</sat>
      </trkpt>
      <trkpt lat="33.189847" lon="35.559222">
        <ele>236.0</ele>
        <time>2013-07-31T05:52:48Z</time>
        <sat>7</sat>
      </trkpt>
      <trkpt lat="33.189918" lon="35.559288">
        <ele>235.9</ele>
        <time>2013-07-31T05:52:51Z</time>
        <sat>8</sat>
      </trkpt>
      <trkpt lat="33.190010" lon="35.559377">
        <ele>234.6</ele>
        <time>2013-07-31T05:52:54Z</time>
        <sat>8</sat>
      </trkpt>
      <trkpt lat="33.190110" lon="35.559445">
        <ele>233.7</ele>
        <time>2013-07-31T05:52:56Z</time>
        <sat>8</sat>
      </trkpt>
      <trkpt lat="33.190187" lon="35.559548">
        <ele>233.1</ele>
        <time>2013-07-31T05:52:58Z</time>
        <sat>8</sat>
      </trkpt>
      <trkpt lat="33.190233" lon="35.559692">
        <ele>232.7</ele>
        <time>2013-07-31T05:53:00Z</time>
        <sat>8</sat>
      </trkpt>
      <trkpt lat="33.190258" lon="35.559840">
        <ele>231.3</ele>
        <time>2013-07-31T05:53:02Z</time>
        <sat>8</sat>
      </trkpt>
      <trkpt lat="33.190298" lon="35.559942">
        <ele>230.3</ele>
        <time>2013-07-31T05:53:04Z</time>
        <sat>8</sat>
      </trkpt>
      <trkpt lat="33.190402" lon="35.559937">
        <ele>229.3</ele>
        <time>2013-07-31T05:53:09Z</time>
        <sat>8</sat>
      </trkpt>
      <trkpt lat="33.190500" lon="35.559907">
        <ele>229.6</ele>
        <time>2013-07-31T05:53:15Z</time>
        <sat>8</sat>
      </trkpt>
      <trkpt lat="33.190588" lon="35.559857">
        <ele>229.6</ele>
        <time>2013-07-31T05:53:20Z</time>
        <sat>8</sat>
      </trkpt>
      <trkpt lat="33.190680" lon="35.559817">
        <ele>228.6</ele>
        <time>2013-07-31T05:53:24Z</time>
        <sat>8</sat>
      </trkpt>
      <trkpt lat="33.190813" lon="35.559837">
        <ele>228.1</ele>
        <time>2013-07-31T05:53:27Z</time>
        <sat>7</sat>
      </trkpt>
      <trkpt lat="33.190907" lon="35.559905">
        <ele>228.0</ele>
        <time>2013-07-31T05:53:29Z</time>
        <sat>8</sat>
      </trkpt>
      <trkpt lat="33.191018" lon="35.559967">
        <ele>227.8</ele>
        <time>2013-07-31T05:53:32Z</time>
        <sat>8</sat>
      </trkpt>
      <trkpt lat="33.191145" lon="35.559993">
        <ele>227.1</ele>
        <time>2013-07-31T05:53:35Z</time>
        <sat>8</sat>
      </trkpt>
      <trkpt lat="33.191245" lon="35.560000">
        <ele>226.9</ele>
        <time>2013-07-31T05:53:37Z</time>
        <sat>8</sat>
      </trkpt>
      <trkpt lat="33.191367" lon="35.560010">
        <ele>227.0</ele>
        <time>2013-07-31T05:53:39Z</time>
        <sat>8</sat>
      </trkpt>
      <trkpt lat="33.191492" lon="35.560035">
        <ele>226.9</ele>
        <time>2013-07-31T05:53:41Z</time>
        <sat>8</sat>
      </trkpt>
      <trkpt lat="33.191598" lon="35.560080">
        <ele>226.7</ele>
        <time>2013-07-31T05:53:43Z</time>
        <sat>8</sat>
      </trkpt>
      <trkpt lat="33.191697" lon="35.560103">
        <ele>227.1</ele>
        <time>2013-07-31T05:53:47Z</time>
        <sat>8</sat>
      </trkpt>
      <trkpt lat="33.191785" lon="35.560140">
        <ele>227.5</ele>
        <time>2013-07-31T05:53:51Z</time>
        <sat>8</sat>
      </trkpt>
      <trkpt lat="33.191888" lon="35.560180">
        <ele>228.1</ele>
        <time>2013-07-31T05:53:56Z</time>
        <sat>8</sat>
      </trkpt>
      <trkpt lat="33.191987" lon="35.560213">
        <ele>228.1</ele>
        <time>2013-07-31T05:54:01Z</time>
        <sat>8</sat>
      </trkpt>
      <trkpt lat="33.192088" lon="35.560263">
        <ele>227.8</ele>
        <time>2013-07-31T05:54:05Z</time>
        <sat>8</sat>
      </trkpt>
      <trkpt lat="33.192182" lon="35.560305">
        <ele>228.2</ele>
        <time>2013-07-31T05:54:08Z</time>
        <sat>8</sat>
      </trkpt>
      <trkpt lat="33.192288" lon="35.560327">
        <ele>228.6</ele>
        <time>2013-07-31T05:54:11Z</time>
        <sat>8</sat>
      </trkpt>
      <trkpt lat="33.192390" lon="35.560380">
        <ele>228.7</ele>
        <time>2013-07-31T05:54:14Z</time>
        <sat>8</sat>
      </trkpt>
      <trkpt lat="33.192497" lon="35.560457">
        <ele>229.2</ele>
        <time>2013-07-31T05:54:17Z</time>
        <sat>8</sat>
      </trkpt>
      <trkpt lat="33.192593" lon="35.560528">
        <ele>229.2</ele>
        <time>2013-07-31T05:54:20Z</time>
        <sat>8</sat>
      </trkpt>
      <trkpt lat="33.192680" lon="35.560612">
        <ele>229.3</ele>
        <time>2013-07-31T05:54:23Z</time>
        <sat>7</sat>
      </trkpt>
      <trkpt lat="33.192765" lon="35.560683">
        <ele>228.9</ele>
        <time>2013-07-31T05:54:26Z</time>
        <sat>8</sat>
      </trkpt>
      <trkpt lat="33.192868" lon="35.560768">
        <ele>228.6</ele>
        <time>2013-07-31T05:54:29Z</time>
        <sat>7</sat>
      </trkpt>
      <trkpt lat="33.192963" lon="35.560822">
        <ele>227.9</ele>
        <time>2013-07-31T05:54:31Z</time>
        <sat>8</sat>
      </trkpt>
      <trkpt lat="33.193062" lon="35.560867">
        <ele>227.7</ele>
        <time>2013-07-31T05:54:33Z</time>
        <sat>7</sat>
      </trkpt>
      <trkpt lat="33.193163" lon="35.560922">
        <ele>227.3</ele>
        <time>2013-07-31T05:54:35Z</time>
        <sat>7</sat>
      </trkpt>
      <trkpt lat="33.193257" lon="35.560992">
        <ele>227.0</ele>
        <time>2013-07-31T05:54:37Z</time>
        <sat>7</sat>
      </trkpt>
      <trkpt lat="33.193342" lon="35.561065">
        <ele>225.4</ele>
        <time>2013-07-31T05:54:39Z</time>
        <sat>7</sat>
      </trkpt>
      <trkpt lat="33.193430" lon="35.561102">
        <ele>224.0</ele>
        <time>2013-07-31T05:54:41Z</time>
        <sat>7</sat>
      </trkpt>
      <trkpt lat="33.193520" lon="35.561105">
        <ele>222.8</ele>
        <time>2013-07-31T05:54:44Z</time>
        <sat>7</sat>
      </trkpt>
      <trkpt lat="33.193517" lon="35.560985">
        <ele>221.4</ele>
        <time>2013-07-31T05:55:05Z</time>
        <sat>8</sat>
      </trkpt>
      <trkpt lat="33.193500" lon="35.560873">
        <ele>222.1</ele>
        <time>2013-07-31T05:55:10Z</time>
        <sat>8</sat>
      </trkpt>
      <trkpt lat="33.193478" lon="35.560757">
        <ele>224.2</ele>
        <time>2013-07-31T05:55:15Z</time>
        <sat>8</sat>
      </trkpt>
      <trkpt lat="33.193500" lon="35.560638">
        <ele>225.8</ele>
        <time>2013-07-31T05:55:20Z</time>
        <sat>8</sat>
      </trkpt>
      <trkpt lat="33.193545" lon="35.560545">
        <ele>226.3</ele>
        <time>2013-07-31T05:55:24Z</time>
        <sat>8</sat>
      </trkpt>
      <trkpt lat="33.193612" lon="35.560465">
        <ele>227.6</ele>
        <time>2013-07-31T05:55:29Z</time>
        <sat>8</sat>
      </trkpt>
      <trkpt lat="33.193703" lon="35.560395">
        <ele>228.6</ele>
        <time>2013-07-31T05:55:35Z</time>
        <sat>8</sat>
      </trkpt>
      <trkpt lat="33.193783" lon="35.560335">
        <ele>228.9</ele>
        <time>2013-07-31T05:55:40Z</time>
        <sat>8</sat>
      </trkpt>
      <trkpt lat="33.193862" lon="35.560267">
        <ele>229.2</ele>
        <time>2013-07-31T05:55:45Z</time>
        <sat>8</sat>
      </trkpt>
      <trkpt lat="33.193945" lon="35.560205">
        <ele>230.2</ele>
        <time>2013-07-31T05:55:50Z</time>
        <sat>8</sat>
      </trkpt>
      <trkpt lat="33.194022" lon="35.560143">
        <ele>231.2</ele>
        <time>2013-07-31T05:55:56Z</time>
        <sat>8</sat>
      </trkpt>
      <trkpt lat="33.194110" lon="35.560103">
        <ele>231.5</ele>
        <time>2013-07-31T05:56:02Z</time>
        <sat>8</sat>
      </trkpt>
      <trkpt lat="33.194205" lon="35.560063">
        <ele>232.0</ele>
        <time>2013-07-31T05:56:08Z</time>
        <sat>8</sat>
      </trkpt>
      <trkpt lat="33.194298" lon="35.560045">
        <ele>232.9</ele>
        <time>2013-07-31T05:56:13Z</time>
        <sat>8</sat>
      </trkpt>
      <trkpt lat="33.194402" lon="35.560007">
        <ele>233.5</ele>
        <time>2013-07-31T05:56:18Z</time>
        <sat>8</sat>
      </trkpt>
      <trkpt lat="33.194497" lon="35.559963">
        <ele>234.2</ele>
        <time>2013-07-31T05:56:23Z</time>
        <sat>8</sat>
      </trkpt>
      <trkpt lat="33.194605" lon="35.559925">
        <ele>235.0</ele>
        <time>2013-07-31T05:56:28Z</time>
        <sat>8</sat>
      </trkpt>
      <trkpt lat="33.194703" lon="35.559885">
        <ele>236.3</ele>
        <time>2013-07-31T05:56:34Z</time>
        <sat>8</sat>
      </trkpt>
      <trkpt lat="33.194800" lon="35.559892">
        <ele>237.6</ele>
        <time>2013-07-31T05:56:40Z</time>
        <sat>8</sat>
      </trkpt>
      <trkpt lat="33.194908" lon="35.559890">
        <ele>238.2</ele>
        <time>2013-07-31T05:56:46Z</time>
        <sat>8</sat>
      </trkpt>
      <trkpt lat="33.194997" lon="35.559927">
        <ele>238.2</ele>
        <time>2013-07-31T05:56:50Z</time>
        <sat>8</sat>
      </trkpt>
      <trkpt lat="33.195107" lon="35.559938">
        <ele>237.9</ele>
        <time>2013-07-31T05:56:54Z</time>
        <sat>8</sat>
      </trkpt>
      <trkpt lat="33.195197" lon="35.559970">
        <ele>237.5</ele>
        <time>2013-07-31T05:56:57Z</time>
        <sat>8</sat>
      </trkpt>
      <trkpt lat="33.195307" lon="35.560007">
        <ele>237.7</ele>
        <time>2013-07-31T05:57:00Z</time>
        <sat>8</sat>
      </trkpt>
      <trkpt lat="33.195412" lon="35.560027">
        <ele>237.5</ele>
        <time>2013-07-31T05:57:03Z</time>
        <sat>8</sat>
      </trkpt>
      <trkpt lat="33.195518" lon="35.560052">
        <ele>237.2</ele>
        <time>2013-07-31T05:57:06Z</time>
        <sat>8</sat>
      </trkpt>
      <trkpt lat="33.195608" lon="35.560063">
        <ele>237.2</ele>
        <time>2013-07-31T05:57:09Z</time>
        <sat>8</sat>
      </trkpt>
      <trkpt lat="33.195702" lon="35.560067">
        <ele>237.3</ele>
        <time>2013-07-31T05:57:12Z</time>
        <sat>8</sat>
      </trkpt>
      <trkpt lat="33.195803" lon="35.560072">
        <ele>237.4</ele>
        <time>2013-07-31T05:57:15Z</time>
        <sat>8</sat>
      </trkpt>
      <trkpt lat="33.195897" lon="35.560077">
        <ele>237.6</ele>
        <time>2013-07-31T05:57:18Z</time>
        <sat>8</sat>
      </trkpt>
      <trkpt lat="33.196013" lon="35.560090">
        <ele>237.8</ele>
        <time>2013-07-31T05:57:22Z</time>
        <sat>8</sat>
      </trkpt>
      <trkpt lat="33.196125" lon="35.560103">
        <ele>238.0</ele>
        <time>2013-07-31T05:57:26Z</time>
        <sat>8</sat>
      </trkpt>
      <trkpt lat="33.196223" lon="35.560113">
        <ele>238.7</ele>
        <time>2013-07-31T05:57:30Z</time>
        <sat>8</sat>
      </trkpt>
      <trkpt lat="33.196330" lon="35.560123">
        <ele>240.1</ele>
        <time>2013-07-31T05:57:34Z</time>
        <sat>8</sat>
      </trkpt>
      <trkpt lat="33.196427" lon="35.560127">
        <ele>240.9</ele>
        <time>2013-07-31T05:57:38Z</time>
        <sat>8</sat>
      </trkpt>
      <trkpt lat="33.196527" lon="35.560103">
        <ele>241.4</ele>
        <time>2013-07-31T05:57:42Z</time>
        <sat>8</sat>
      </trkpt>
      <trkpt lat="33.196632" lon="35.560080">
        <ele>242.1</ele>
        <time>2013-07-31T05:57:46Z</time>
        <sat>8</sat>
      </trkpt>
      <trkpt lat="33.196733" lon="35.560052">
        <ele>242.6</ele>
        <time>2013-07-31T05:57:50Z</time>
        <sat>8</sat>
      </trkpt>
      <trkpt lat="33.196837" lon="35.560038">
        <ele>242.7</ele>
        <time>2013-07-31T05:57:54Z</time>
        <sat>8</sat>
      </trkpt>
      <trkpt lat="33.196950" lon="35.560028">
        <ele>242.8</ele>
        <time>2013-07-31T05:57:58Z</time>
        <sat>8</sat>
      </trkpt>
      <trkpt lat="33.197058" lon="35.560005">
        <ele>243.4</ele>
        <time>2013-07-31T05:58:02Z</time>
        <sat>8</sat>
      </trkpt>
      <trkpt lat="33.197157" lon="35.559977">
        <ele>243.6</ele>
        <time>2013-07-31T05:58:06Z</time>
        <sat>8</sat>
      </trkpt>
      <trkpt lat="33.197248" lon="35.559942">
        <ele>244.5</ele>
        <time>2013-07-31T05:58:10Z</time>
        <sat>8</sat>
      </trkpt>
      <trkpt lat="33.197342" lon="35.559912">
        <ele>244.5</ele>
        <time>2013-07-31T05:58:14Z</time>
        <sat>8</sat>
      </trkpt>
      <trkpt lat="33.197435" lon="35.559862">
        <ele>244.7</ele>
        <time>2013-07-31T05:58:18Z</time>
        <sat>8</sat>
      </trkpt>
      <trkpt lat="33.197527" lon="35.559797">
        <ele>244.8</ele>
        <time>2013-07-31T05:58:22Z</time>
        <sat>8</sat>
      </trkpt>
      <trkpt lat="33.197632" lon="35.559757">
        <ele>245.1</ele>
        <time>2013-07-31T05:58:26Z</time>
        <sat>8</sat>
      </trkpt>
      <trkpt lat="33.197733" lon="35.559757">
        <ele>245.7</ele>
        <time>2013-07-31T05:58:29Z</time>
        <sat>8</sat>
      </trkpt>
      <trkpt lat="33.197847" lon="35.559750">
        <ele>245.7</ele>
        <time>2013-07-31T05:58:32Z</time>
        <sat>8</sat>
      </trkpt>
      <trkpt lat="33.197942" lon="35.559735">
        <ele>245.2</ele>
        <time>2013-07-31T05:58:35Z</time>
        <sat>8</sat>
      </trkpt>
      <trkpt lat="33.198047" lon="35.559733">
        <ele>244.5</ele>
        <time>2013-07-31T05:58:39Z</time>
        <sat>8</sat>
      </trkpt>
      <trkpt lat="33.198150" lon="35.559760">
        <ele>244.6</ele>
        <time>2013-07-31T05:58:43Z</time>
        <sat>8</sat>
      </trkpt>
      <trkpt lat="33.198248" lon="35.559797">
        <ele>244.6</ele>
        <time>2013-07-31T05:58:46Z</time>
        <sat>8</sat>
      </trkpt>
      <trkpt lat="33.198348" lon="35.559853">
        <ele>244.9</ele>
        <time>2013-07-31T05:58:49Z</time>
        <sat>8</sat>
      </trkpt>
      <trkpt lat="33.198433" lon="35.559903">
        <ele>245.3</ele>
        <time>2013-07-31T05:58:52Z</time>
        <sat>8</sat>
      </trkpt>
      <trkpt lat="33.198525" lon="35.559938">
        <ele>245.4</ele>
        <time>2013-07-31T05:58:55Z</time>
        <sat>8</sat>
      </trkpt>
      <trkpt lat="33.198630" lon="35.559957">
        <ele>245.5</ele>
        <time>2013-07-31T05:58:59Z</time>
        <sat>8</sat>
      </trkpt>
      <trkpt lat="33.198722" lon="35.559950">
        <ele>245.7</ele>
        <time>2013-07-31T05:59:02Z</time>
        <sat>8</sat>
      </trkpt>
      <trkpt lat="33.198832" lon="35.559922">
        <ele>245.8</ele>
        <time>2013-07-31T05:59:05Z</time>
        <sat>8</sat>
      </trkpt>
      <trkpt lat="33.198925" lon="35.559900">
        <ele>246.1</ele>
        <time>2013-07-31T05:59:08Z</time>
        <sat>8</sat>
      </trkpt>
      <trkpt lat="33.199020" lon="35.559883">
        <ele>246.1</ele>
        <time>2013-07-31T05:59:11Z</time>
        <sat>8</sat>
      </trkpt>
      <trkpt lat="33.199113" lon="35.559872">
        <ele>246.9</ele>
        <time>2013-07-31T05:59:14Z</time>
        <sat>8</sat>
      </trkpt>
      <trkpt lat="33.199227" lon="35.559867">
        <ele>247.4</ele>
        <time>2013-07-31T05:59:18Z</time>
        <sat>8</sat>
      </trkpt>
      <trkpt lat="33.199318" lon="35.559875">
        <ele>247.9</ele>
        <time>2013-07-31T05:59:21Z</time>
        <sat>8</sat>
      </trkpt>
      <trkpt lat="33.199435" lon="35.559873">
        <ele>248.5</ele>
        <time>2013-07-31T05:59:25Z</time>
        <sat>8</sat>
      </trkpt>
      <trkpt lat="33.199528" lon="35.559858">
        <ele>248.9</ele>
        <time>2013-07-31T05:59:28Z</time>
        <sat>8</sat>
      </trkpt>
      <trkpt lat="33.199618" lon="35.559860">
        <ele>249.0</ele>
        <time>2013-07-31T05:59:31Z</time>
        <sat>8</sat>
      </trkpt>
      <trkpt lat="33.199713" lon="35.559907">
        <ele>248.7</ele>
        <time>2013-07-31T05:59:34Z</time>
        <sat>8</sat>
      </trkpt>
      <trkpt lat="33.199815" lon="35.559968">
        <ele>249.3</ele>
        <time>2013-07-31T05:59:37Z</time>
        <sat>8</sat>
      </trkpt>
      <trkpt lat="33.199922" lon="35.560028">
        <ele>249.4</ele>
        <time>2013-07-31T05:59:40Z</time>
        <sat>8</sat>
      </trkpt>
      <trkpt lat="33.200022" lon="35.560095">
        <ele>249.4</ele>
        <time>2013-07-31T05:59:43Z</time>
        <sat>8</sat>
      </trkpt>
      <trkpt lat="33.200087" lon="35.560193">
        <ele>249.2</ele>
        <time>2013-07-31T05:59:46Z</time>
        <sat>8</sat>
      </trkpt>
      <trkpt lat="33.200117" lon="35.560312">
        <ele>249.1</ele>
        <time>2013-07-31T05:59:49Z</time>
        <sat>8</sat>
      </trkpt>
      <trkpt lat="33.200153" lon="35.560413">
        <ele>249.1</ele>
        <time>2013-07-31T05:59:52Z</time>
        <sat>8</sat>
      </trkpt>
      <trkpt lat="33.200210" lon="35.560502">
        <ele>249.1</ele>
        <time>2013-07-31T05:59:55Z</time>
        <sat>7</sat>
      </trkpt>
      <trkpt lat="33.200310" lon="35.560575">
        <ele>249.3</ele>
        <time>2013-07-31T05:59:58Z</time>
        <sat>7</sat>
      </trkpt>
      <trkpt lat="33.200417" lon="35.560652">
        <ele>249.8</ele>
        <time>2013-07-31T06:00:01Z</time>
        <sat>8</sat>
      </trkpt>
      <trkpt lat="33.200513" lon="35.560703">
        <ele>250.1</ele>
        <time>2013-07-31T06:00:04Z</time>
        <sat>8</sat>
      </trkpt>
      <trkpt lat="33.200612" lon="35.560753">
        <ele>250.6</ele>
        <time>2013-07-31T06:00:08Z</time>
        <sat>8</sat>
      </trkpt>
      <trkpt lat="33.200715" lon="35.560802">
        <ele>251.0</ele>
        <time>2013-07-31T06:00:12Z</time>
        <sat>8</sat>
      </trkpt>
      <trkpt lat="33.200800" lon="35.560838">
        <ele>251.4</ele>
        <time>2013-07-31T06:00:16Z</time>
        <sat>8</sat>
      </trkpt>
      <trkpt lat="33.200892" lon="35.560847">
        <ele>252.0</ele>
        <time>2013-07-31T06:00:20Z</time>
        <sat>8</sat>
      </trkpt>
      <trkpt lat="33.200992" lon="35.560837">
        <ele>252.5</ele>
        <time>2013-07-31T06:00:24Z</time>
        <sat>8</sat>
      </trkpt>
      <trkpt lat="33.201030" lon="35.560732">
        <ele>252.7</ele>
        <time>2013-07-31T06:00:30Z</time>
        <sat>8</sat>
      </trkpt>
      <trkpt lat="33.200938" lon="35.560692">
        <ele>252.9</ele>
        <time>2013-07-31T06:00:35Z</time>
        <sat>8</sat>
      </trkpt>
      <trkpt lat="33.200835" lon="35.560620">
        <ele>253.5</ele>
        <time>2013-07-31T06:00:40Z</time>
        <sat>8</sat>
      </trkpt>
      <trkpt lat="33.200762" lon="35.560552">
        <ele>253.9</ele>
        <time>2013-07-31T06:00:43Z</time>
        <sat>8</sat>
      </trkpt>
      <trkpt lat="33.200688" lon="35.560483">
        <ele>254.3</ele>
        <time>2013-07-31T06:00:46Z</time>
        <sat>8</sat>
      </trkpt>
      <trkpt lat="33.200617" lon="35.560407">
        <ele>254.5</ele>
        <time>2013-07-31T06:00:49Z</time>
        <sat>8</sat>
      </trkpt>
      <trkpt lat="33.200565" lon="35.560317">
        <ele>255.0</ele>
        <time>2013-07-31T06:00:52Z</time>
        <sat>8</sat>
      </trkpt>
      <trkpt lat="33.200542" lon="35.560210">
        <ele>256.0</ele>
        <time>2013-07-31T06:00:56Z</time>
        <sat>8</sat>
      </trkpt>
      <trkpt lat="33.200558" lon="35.560103">
        <ele>256.9</ele>
        <time>2013-07-31T06:01:01Z</time>
        <sat>8</sat>
      </trkpt>
      <trkpt lat="33.200553" lon="35.559992">
        <ele>258.3</ele>
        <time>2013-07-31T06:01:06Z</time>
        <sat>8</sat>
      </trkpt>
      <trkpt lat="33.200568" lon="35.559882">
        <ele>259.8</ele>
        <time>2013-07-31T06:01:11Z</time>
        <sat>8</sat>
      </trkpt>
      <trkpt lat="33.200662" lon="35.559865">
        <ele>260.5</ele>
        <time>2013-07-31T06:01:16Z</time>
        <sat>8</sat>
      </trkpt>
      <trkpt lat="33.200767" lon="35.559850">
        <ele>261.5</ele>
        <time>2013-07-31T06:01:21Z</time>
        <sat>8</sat>
      </trkpt>
      <trkpt lat="33.200865" lon="35.559832">
        <ele>262.2</ele>
        <time>2013-07-31T06:01:26Z</time>
        <sat>8</sat>
      </trkpt>
      <trkpt lat="33.200977" lon="35.559850">
        <ele>262.9</ele>
        <time>2013-07-31T06:01:31Z</time>
        <sat>8</sat>
      </trkpt>
      <trkpt lat="33.201065" lon="35.559892">
        <ele>262.5</ele>
        <time>2013-07-31T06:01:34Z</time>
        <sat>8</sat>
      </trkpt>
      <trkpt lat="33.201163" lon="35.559938">
        <ele>261.9</ele>
        <time>2013-07-31T06:01:37Z</time>
        <sat>8</sat>
      </trkpt>
      <trkpt lat="33.201278" lon="35.559947">
        <ele>261.4</ele>
        <time>2013-07-31T06:01:40Z</time>
        <sat>8</sat>
      </trkpt>
      <trkpt lat="33.201393" lon="35.559937">
        <ele>260.7</ele>
        <time>2013-07-31T06:01:43Z</time>
        <sat>8</sat>
      </trkpt>
      <trkpt lat="33.201503" lon="35.559935">
        <ele>260.4</ele>
        <time>2013-07-31T06:01:46Z</time>
        <sat>8</sat>
      </trkpt>
      <trkpt lat="33.201608" lon="35.559898">
        <ele>260.3</ele>
        <time>2013-07-31T06:01:50Z</time>
        <sat>8</sat>
      </trkpt>
      <trkpt lat="33.201692" lon="35.559847">
        <ele>260.8</ele>
        <time>2013-07-31T06:01:53Z</time>
        <sat>8</sat>
      </trkpt>
      <trkpt lat="33.201790" lon="35.559800">
        <ele>261.3</ele>
        <time>2013-07-31T06:01:57Z</time>
        <sat>8</sat>
      </trkpt>
      <trkpt lat="33.201880" lon="35.559782">
        <ele>262.0</ele>
        <time>2013-07-31T06:02:00Z</time>
        <sat>8</sat>
      </trkpt>
      <trkpt lat="33.201978" lon="35.559757">
        <ele>262.8</ele>
        <time>2013-07-31T06:02:04Z</time>
        <sat>8</sat>
      </trkpt>
      <trkpt lat="33.202082" lon="35.559770">
        <ele>263.3</ele>
        <time>2013-07-31T06:02:08Z</time>
        <sat>8</sat>
      </trkpt>
      <trkpt lat="33.202188" lon="35.559810">
        <ele>263.2</ele>
        <time>2013-07-31T06:02:11Z</time>
        <sat>8</sat>
      </trkpt>
      <trkpt lat="33.202285" lon="35.559818">
        <ele>263.2</ele>
        <time>2013-07-31T06:02:14Z</time>
        <sat>8</sat>
      </trkpt>
      <trkpt lat="33.202377" lon="35.559843">
        <ele>263.0</ele>
        <time>2013-07-31T06:02:17Z</time>
        <sat>8</sat>
      </trkpt>
      <trkpt lat="33.202478" lon="35.559872">
        <ele>263.0</ele>
        <time>2013-07-31T06:02:20Z</time>
        <sat>8</sat>
      </trkpt>
      <trkpt lat="33.202570" lon="35.559888">
        <ele>263.0</ele>
        <time>2013-07-31T06:02:23Z</time>
        <sat>8</sat>
      </trkpt>
      <trkpt lat="33.202658" lon="35.559910">
        <ele>263.4</ele>
        <time>2013-07-31T06:02:26Z</time>
        <sat>8</sat>
      </trkpt>
      <trkpt lat="33.202750" lon="35.559915">
        <ele>263.5</ele>
        <time>2013-07-31T06:02:29Z</time>
        <sat>8</sat>
      </trkpt>
      <trkpt lat="33.202833" lon="35.559968">
        <ele>264.0</ele>
        <time>2013-07-31T06:02:32Z</time>
        <sat>8</sat>
      </trkpt>
      <trkpt lat="33.202920" lon="35.560035">
        <ele>263.9</ele>
        <time>2013-07-31T06:02:35Z</time>
        <sat>8</sat>
      </trkpt>
      <trkpt lat="33.203010" lon="35.560097">
        <ele>265.3</ele>
        <time>2013-07-31T06:02:39Z</time>
        <sat>8</sat>
      </trkpt>
      <trkpt lat="33.203123" lon="35.560123">
        <ele>266.2</ele>
        <time>2013-07-31T06:02:44Z</time>
        <sat>8</sat>
      </trkpt>
      <trkpt lat="33.203217" lon="35.560088">
        <ele>266.8</ele>
        <time>2013-07-31T06:02:48Z</time>
        <sat>8</sat>
      </trkpt>
      <trkpt lat="33.203313" lon="35.560040">
        <ele>266.7</ele>
        <time>2013-07-31T06:02:52Z</time>
        <sat>8</sat>
      </trkpt>
      <trkpt lat="33.203410" lon="35.560030">
        <ele>266.6</ele>
        <time>2013-07-31T06:02:55Z</time>
        <sat>8</sat>
      </trkpt>
      <trkpt lat="33.203502" lon="35.560013">
        <ele>266.7</ele>
        <time>2013-07-31T06:02:58Z</time>
        <sat>8</sat>
      </trkpt>
      <trkpt lat="33.203603" lon="35.560000">
        <ele>267.7</ele>
        <time>2013-07-31T06:03:03Z</time>
        <sat>8</sat>
      </trkpt>
      <trkpt lat="33.203703" lon="35.560012">
        <ele>268.1</ele>
        <time>2013-07-31T06:03:08Z</time>
        <sat>8</sat>
      </trkpt>
      <trkpt lat="33.203795" lon="35.560043">
        <ele>268.1</ele>
        <time>2013-07-31T06:03:11Z</time>
        <sat>8</sat>
      </trkpt>
      <trkpt lat="33.203888" lon="35.560070">
        <ele>268.0</ele>
        <time>2013-07-31T06:03:14Z</time>
        <sat>8</sat>
      </trkpt>
      <trkpt lat="33.203988" lon="35.560092">
        <ele>268.4</ele>
        <time>2013-07-31T06:03:18Z</time>
        <sat>8</sat>
      </trkpt>
      <trkpt lat="33.204085" lon="35.560088">
        <ele>269.1</ele>
        <time>2013-07-31T06:03:23Z</time>
        <sat>8</sat>
      </trkpt>
      <trkpt lat="33.204183" lon="35.560105">
        <ele>269.8</ele>
        <time>2013-07-31T06:03:27Z</time>
        <sat>8</sat>
      </trkpt>
      <trkpt lat="33.204292" lon="35.560107">
        <ele>270.9</ele>
        <time>2013-07-31T06:03:32Z</time>
        <sat>8</sat>
      </trkpt>
      <trkpt lat="33.204382" lon="35.560130">
        <ele>272.0</ele>
        <time>2013-07-31T06:03:36Z</time>
        <sat>8</sat>
      </trkpt>
      <trkpt lat="33.204470" lon="35.560210">
        <ele>272.8</ele>
        <time>2013-07-31T06:03:41Z</time>
        <sat>8</sat>
      </trkpt>
      <trkpt lat="33.204542" lon="35.560298">
        <ele>273.3</ele>
        <time>2013-07-31T06:03:46Z</time>
        <sat>8</sat>
      </trkpt>
      <trkpt lat="33.204613" lon="35.560382">
        <ele>274.4</ele>
        <time>2013-07-31T06:03:51Z</time>
        <sat>8</sat>
      </trkpt>
      <trkpt lat="33.204672" lon="35.560480">
        <ele>275.2</ele>
        <time>2013-07-31T06:03:56Z</time>
        <sat>8</sat>
      </trkpt>
      <trkpt lat="33.204757" lon="35.560550">
        <ele>275.8</ele>
        <time>2013-07-31T06:04:01Z</time>
        <sat>8</sat>
      </trkpt>
      <trkpt lat="33.204848" lon="35.560593">
        <ele>276.0</ele>
        <time>2013-07-31T06:04:06Z</time>
        <sat>8</sat>
      </trkpt>
      <trkpt lat="33.204950" lon="35.560585">
        <ele>276.4</ele>
        <time>2013-07-31T06:04:11Z</time>
        <sat>8</sat>
      </trkpt>
      <trkpt lat="33.205033" lon="35.560542">
        <ele>276.9</ele>
        <time>2013-07-31T06:04:15Z</time>
        <sat>8</sat>
      </trkpt>
      <trkpt lat="33.205120" lon="35.560480">
        <ele>278.3</ele>
        <time>2013-07-31T06:04:20Z</time>
        <sat>8</sat>
      </trkpt>
      <trkpt lat="33.205205" lon="35.560417">
        <ele>279.3</ele>
        <time>2013-07-31T06:04:27Z</time>
        <sat>8</sat>
      </trkpt>
      <trkpt lat="33.205305" lon="35.560417">
        <ele>280.5</ele>
        <time>2013-07-31T06:04:33Z</time>
        <sat>8</sat>
      </trkpt>
      <trkpt lat="33.205407" lon="35.560418">
        <ele>281.0</ele>
        <time>2013-07-31T06:04:39Z</time>
        <sat>8</sat>
      </trkpt>
      <trkpt lat="33.205508" lon="35.560400">
        <ele>282.2</ele>
        <time>2013-07-31T06:04:45Z</time>
        <sat>8</sat>
      </trkpt>
      <trkpt lat="33.205607" lon="35.560353">
        <ele>283.2</ele>
        <time>2013-07-31T06:04:51Z</time>
        <sat>8</sat>
      </trkpt>
      <trkpt lat="33.205683" lon="35.560285">
        <ele>284.0</ele>
        <time>2013-07-31T06:04:56Z</time>
        <sat>8</sat>
      </trkpt>
      <trkpt lat="33.205735" lon="35.560178">
        <ele>284.8</ele>
        <time>2013-07-31T06:05:00Z</time>
        <sat>8</sat>
      </trkpt>
      <trkpt lat="33.205778" lon="35.560080">
        <ele>285.8</ele>
        <time>2013-07-31T06:05:04Z</time>
        <sat>8</sat>
      </trkpt>
      <trkpt lat="33.205828" lon="35.559972">
        <ele>287.3</ele>
        <time>2013-07-31T06:05:08Z</time>
        <sat>8</sat>
      </trkpt>
      <trkpt lat="33.205862" lon="35.559870">
        <ele>288.9</ele>
        <time>2013-07-31T06:05:13Z</time>
        <sat>8</sat>
      </trkpt>
      <trkpt lat="33.205898" lon="35.559755">
        <ele>290.2</ele>
        <time>2013-07-31T06:05:19Z</time>
        <sat>8</sat>
      </trkpt>
      <trkpt lat="33.205892" lon="35.559647">
        <ele>291.4</ele>
        <time>2013-07-31T06:05:25Z</time>
        <sat>8</sat>
      </trkpt>
      <trkpt lat="33.205877" lon="35.559537">
        <ele>292.0</ele>
        <time>2013-07-31T06:05:30Z</time>
        <sat>8</sat>
      </trkpt>
      <trkpt lat="33.205857" lon="35.559432">
        <ele>292.9</ele>
        <time>2013-07-31T06:05:35Z</time>
        <sat>8</sat>
      </trkpt>
      <trkpt lat="33.205832" lon="35.559318">
        <ele>294.0</ele>
        <time>2013-07-31T06:05:41Z</time>
        <sat>8</sat>
      </trkpt>
      <trkpt lat="33.205818" lon="35.559212">
        <ele>294.5</ele>
        <time>2013-07-31T06:05:46Z</time>
        <sat>8</sat>
      </trkpt>
      <trkpt lat="33.205817" lon="35.559102">
        <ele>295.1</ele>
        <time>2013-07-31T06:05:51Z</time>
        <sat>8</sat>
      </trkpt>
      <trkpt lat="33.205833" lon="35.558985">
        <ele>296.4</ele>
        <time>2013-07-31T06:05:57Z</time>
        <sat>8</sat>
      </trkpt>
      <trkpt lat="33.205882" lon="35.558880">
        <ele>297.2</ele>
        <time>2013-07-31T06:06:02Z</time>
        <sat>8</sat>
      </trkpt>
      <trkpt lat="33.205970" lon="35.558828">
        <ele>297.9</ele>
        <time>2013-07-31T06:06:07Z</time>
        <sat>8</sat>
      </trkpt>
      <trkpt lat="33.206060" lon="35.558855">
        <ele>298.1</ele>
        <time>2013-07-31T06:06:10Z</time>
        <sat>8</sat>
      </trkpt>
      <trkpt lat="33.206168" lon="35.558870">
        <ele>297.7</ele>
        <time>2013-07-31T06:06:14Z</time>
        <sat>8</sat>
      </trkpt>
      <trkpt lat="33.206270" lon="35.558907">
        <ele>297.8</ele>
        <time>2013-07-31T06:06:19Z</time>
        <sat>8</sat>
      </trkpt>
      <trkpt lat="33.206372" lon="35.558965">
        <ele>298.7</ele>
        <time>2013-07-31T06:06:24Z</time>
        <sat>8</sat>
      </trkpt>
      <trkpt lat="33.206463" lon="35.558985">
        <ele>298.9</ele>
        <time>2013-07-31T06:06:28Z</time>
        <sat>8</sat>
      </trkpt>
      <trkpt lat="33.206552" lon="35.559015">
        <ele>299.0</ele>
        <time>2013-07-31T06:06:32Z</time>
        <sat>8</sat>
      </trkpt>
      <trkpt lat="33.206612" lon="35.559108">
        <ele>298.9</ele>
        <time>2013-07-31T06:06:36Z</time>
        <sat>8</sat>
      </trkpt>
      <trkpt lat="33.206632" lon="35.559230">
        <ele>299.2</ele>
        <time>2013-07-31T06:06:41Z</time>
        <sat>8</sat>
      </trkpt>
      <trkpt lat="33.206623" lon="35.559365">
        <ele>299.5</ele>
        <time>2013-07-31T06:06:46Z</time>
        <sat>8</sat>
      </trkpt>
      <trkpt lat="33.206650" lon="35.559477">
        <ele>299.6</ele>
        <time>2013-07-31T06:06:50Z</time>
        <sat>8</sat>
      </trkpt>
      <trkpt lat="33.206670" lon="35.559625">
        <ele>299.2</ele>
        <time>2013-07-31T06:06:54Z</time>
        <sat>8</sat>
      </trkpt>
      <trkpt lat="33.206702" lon="35.559750">
        <ele>299.0</ele>
        <time>2013-07-31T06:06:57Z</time>
        <sat>8</sat>
      </trkpt>
      <trkpt lat="33.206753" lon="35.559892">
        <ele>298.3</ele>
        <time>2013-07-31T06:07:00Z</time>
        <sat>8</sat>
      </trkpt>
      <trkpt lat="33.206845" lon="35.559938">
        <ele>298.2</ele>
        <time>2013-07-31T06:07:03Z</time>
        <sat>8</sat>
      </trkpt>
      <trkpt lat="33.206928" lon="35.560010">
        <ele>297.8</ele>
        <time>2013-07-31T06:07:07Z</time>
        <sat>8</sat>
      </trkpt>
      <trkpt lat="33.207023" lon="35.560082">
        <ele>297.8</ele>
        <time>2013-07-31T06:07:11Z</time>
        <sat>8</sat>
      </trkpt>
      <trkpt lat="33.207123" lon="35.560120">
        <ele>297.8</ele>
        <time>2013-07-31T06:07:16Z</time>
        <sat>8</sat>
      </trkpt>
      <trkpt lat="33.207218" lon="35.560153">
        <ele>297.5</ele>
        <time>2013-07-31T06:07:20Z</time>
        <sat>8</sat>
      </trkpt>
      <trkpt lat="33.207315" lon="35.560158">
        <ele>298.5</ele>
        <time>2013-07-31T06:07:26Z</time>
        <sat>8</sat>
      </trkpt>
      <trkpt lat="33.207410" lon="35.560177">
        <ele>299.2</ele>
        <time>2013-07-31T06:07:31Z</time>
        <sat>8</sat>
      </trkpt>
      <trkpt lat="33.207510" lon="35.560163">
        <ele>299.9</ele>
        <time>2013-07-31T06:07:36Z</time>
        <sat>8</sat>
      </trkpt>
      <trkpt lat="33.207603" lon="35.560178">
        <ele>300.8</ele>
        <time>2013-07-31T06:07:42Z</time>
        <sat>7</sat>
      </trkpt>
      <trkpt lat="33.207570" lon="35.560062">
        <ele>300.9</ele>
        <time>2013-07-31T06:07:54Z</time>
        <sat>8</sat>
      </trkpt>
      <trkpt lat="33.207600" lon="35.560168">
        <ele>301.1</ele>
        <time>2013-07-31T06:08:09Z</time>
        <sat>8</sat>
      </trkpt>
      <trkpt lat="33.207702" lon="35.560187">
        <ele>301.2</ele>
        <time>2013-07-31T06:08:14Z</time>
        <sat>7</sat>
      </trkpt>
      <trkpt lat="33.207802" lon="35.560220">
        <ele>301.6</ele>
        <time>2013-07-31T06:08:19Z</time>
        <sat>7</sat>
      </trkpt>
      <trkpt lat="33.207892" lon="35.560245">
        <ele>301.9</ele>
        <time>2013-07-31T06:08:23Z</time>
        <sat>7</sat>
      </trkpt>
      <trkpt lat="33.207983" lon="35.560238">
        <ele>301.9</ele>
        <time>2013-07-31T06:08:27Z</time>
        <sat>7</sat>
      </trkpt>
      <trkpt lat="33.208087" lon="35.560193">
        <ele>302.4</ele>
        <time>2013-07-31T06:08:32Z</time>
        <sat>8</sat>
      </trkpt>
      <trkpt lat="33.208170" lon="35.560152">
        <ele>303.2</ele>
        <time>2013-07-31T06:08:36Z</time>
        <sat>8</sat>
      </trkpt>
      <trkpt lat="33.208245" lon="35.560077">
        <ele>304.0</ele>
        <time>2013-07-31T06:08:41Z</time>
        <sat>8</sat>
      </trkpt>
      <trkpt lat="33.208303" lon="35.559983">
        <ele>305.1</ele>
        <time>2013-07-31T06:08:46Z</time>
        <sat>8</sat>
      </trkpt>
      <trkpt lat="33.208358" lon="35.559878">
        <ele>305.5</ele>
        <time>2013-07-31T06:08:52Z</time>
        <sat>8</sat>
      </trkpt>
      <trkpt lat="33.208422" lon="35.559780">
        <ele>307.3</ele>
        <time>2013-07-31T06:08:57Z</time>
        <sat>8</sat>
      </trkpt>
      <trkpt lat="33.208482" lon="35.559685">
        <ele>309.1</ele>
        <time>2013-07-31T06:09:03Z</time>
        <sat>8</sat>
      </trkpt>
      <trkpt lat="33.208525" lon="35.559565">
        <ele>310.4</ele>
        <time>2013-07-31T06:09:08Z</time>
        <sat>8</sat>
      </trkpt>
      <trkpt lat="33.208558" lon="35.559450">
        <ele>311.8</ele>
        <time>2013-07-31T06:09:13Z</time>
        <sat>8</sat>
      </trkpt>
      <trkpt lat="33.208590" lon="35.559343">
        <ele>313.0</ele>
        <time>2013-07-31T06:09:18Z</time>
        <sat>8</sat>
      </trkpt>
      <trkpt lat="33.208622" lon="35.559225">
        <ele>314.9</ele>
        <time>2013-07-31T06:09:24Z</time>
        <sat>8</sat>
      </trkpt>
      <trkpt lat="33.208680" lon="35.559142">
        <ele>315.6</ele>
        <time>2013-07-31T06:09:29Z</time>
        <sat>7</sat>
      </trkpt>
      <trkpt lat="33.208752" lon="35.559072">
        <ele>316.0</ele>
        <time>2013-07-31T06:09:34Z</time>
        <sat>7</sat>
      </trkpt>
      <trkpt lat="33.208840" lon="35.559025">
        <ele>316.8</ele>
        <time>2013-07-31T06:09:40Z</time>
        <sat>8</sat>
      </trkpt>
      <trkpt lat="33.208938" lon="35.558977">
        <ele>317.5</ele>
        <time>2013-07-31T06:09:46Z</time>
        <sat>7</sat>
      </trkpt>
      <trkpt lat="33.209042" lon="35.558948">
        <ele>317.6</ele>
        <time>2013-07-31T06:09:52Z</time>
        <sat>7</sat>
      </trkpt>
      <trkpt lat="33.209133" lon="35.558925">
        <ele>317.4</ele>
        <time>2013-07-31T06:09:57Z</time>
        <sat>7</sat>
      </trkpt>
      <trkpt lat="33.209240" lon="35.558902">
        <ele>317.6</ele>
        <time>2013-07-31T06:10:02Z</time>
        <sat>7</sat>
      </trkpt>
      <trkpt lat="33.209338" lon="35.558882">
        <ele>318.1</ele>
        <time>2013-07-31T06:10:07Z</time>
        <sat>8</sat>
      </trkpt>
      <trkpt lat="33.209433" lon="35.558853">
        <ele>318.8</ele>
        <time>2013-07-31T06:10:11Z</time>
        <sat>7</sat>
      </trkpt>
      <trkpt lat="33.209528" lon="35.558835">
        <ele>320.4</ele>
        <time>2013-07-31T06:10:19Z</time>
        <sat>8</sat>
      </trkpt>
      <trkpt lat="33.209633" lon="35.558813">
        <ele>321.5</ele>
        <time>2013-07-31T06:10:26Z</time>
        <sat>8</sat>
      </trkpt>
      <trkpt lat="33.209725" lon="35.558782">
        <ele>322.4</ele>
        <time>2013-07-31T06:10:32Z</time>
        <sat>8</sat>
      </trkpt>
      <trkpt lat="33.209815" lon="35.558740">
        <ele>323.3</ele>
        <time>2013-07-31T06:10:38Z</time>
        <sat>8</sat>
      </trkpt>
      <trkpt lat="33.209910" lon="35.558697">
        <ele>324.0</ele>
        <time>2013-07-31T06:10:44Z</time>
        <sat>8</sat>
      </trkpt>
      <trkpt lat="33.210002" lon="35.558637">
        <ele>324.8</ele>
        <time>2013-07-31T06:10:50Z</time>
        <sat>8</sat>
      </trkpt>
      <trkpt lat="33.210075" lon="35.558548">
        <ele>325.6</ele>
        <time>2013-07-31T06:10:56Z</time>
        <sat>8</sat>
      </trkpt>
      <trkpt lat="33.210167" lon="35.558483">
        <ele>325.9</ele>
        <time>2013-07-31T06:11:01Z</time>
        <sat>8</sat>
      </trkpt>
      <trkpt lat="33.210255" lon="35.558428">
        <ele>326.2</ele>
        <time>2013-07-31T06:11:06Z</time>
        <sat>7</sat>
      </trkpt>
      <trkpt lat="33.210350" lon="35.558387">
        <ele>327.2</ele>
        <time>2013-07-31T06:11:11Z</time>
        <sat>7</sat>
      </trkpt>
      <trkpt lat="33.210440" lon="35.558405">
        <ele>327.3</ele>
        <time>2013-07-31T06:11:16Z</time>
        <sat>7</sat>
      </trkpt>
      <trkpt lat="33.210520" lon="35.558458">
        <ele>327.4</ele>
        <time>2013-07-31T06:11:20Z</time>
        <sat>7</sat>
      </trkpt>
      <trkpt lat="33.210610" lon="35.558507">
        <ele>327.6</ele>
        <time>2013-07-31T06:11:25Z</time>
        <sat>8</sat>
      </trkpt>
      <trkpt lat="33.210707" lon="35.558538">
        <ele>328.0</ele>
        <time>2013-07-31T06:11:31Z</time>
        <sat>7</sat>
      </trkpt>
      <trkpt lat="33.210800" lon="35.558548">
        <ele>328.8</ele>
        <time>2013-07-31T06:11:37Z</time>
        <sat>8</sat>
      </trkpt>
      <trkpt lat="33.210905" lon="35.558525">
        <ele>329.3</ele>
        <time>2013-07-31T06:11:42Z</time>
        <sat>8</sat>
      </trkpt>
      <trkpt lat="33.210982" lon="35.558467">
        <ele>329.5</ele>
        <time>2013-07-31T06:11:45Z</time>
        <sat>8</sat>
      </trkpt>
      <trkpt lat="33.211077" lon="35.558403">
        <ele>329.3</ele>
        <time>2013-07-31T06:11:50Z</time>
        <sat>8</sat>
      </trkpt>
      <trkpt lat="33.211165" lon="35.558367">
        <ele>329.7</ele>
        <time>2013-07-31T06:11:55Z</time>
        <sat>8</sat>
      </trkpt>
      <trkpt lat="33.211270" lon="35.558338">
        <ele>330.3</ele>
        <time>2013-07-31T06:12:01Z</time>
        <sat>8</sat>
      </trkpt>
      <trkpt lat="33.211380" lon="35.558328">
        <ele>330.3</ele>
        <time>2013-07-31T06:12:06Z</time>
        <sat>8</sat>
      </trkpt>
      <trkpt lat="33.211472" lon="35.558298">
        <ele>330.3</ele>
        <time>2013-07-31T06:12:10Z</time>
        <sat>8</sat>
      </trkpt>
      <trkpt lat="33.211569" lon="35.558252">
        <ele>329.7</ele>
        <time>2013-07-31T06:12:14Z</time>
        <sat>8</sat>
      </trkpt>
      <trkpt lat="33.211687" lon="35.558203">
        <ele>328.8</ele>
        <time>2013-07-31T06:12:18Z</time>
        <sat>7</sat>
      </trkpt>
      <trkpt lat="33.211785" lon="35.558133">
        <ele>328.3</ele>
        <time>2013-07-31T06:12:21Z</time>
        <sat>8</sat>
      </trkpt>
      <trkpt lat="33.211837" lon="35.558035">
        <ele>328.4</ele>
        <time>2013-07-31T06:12:24Z</time>
        <sat>8</sat>
      </trkpt>
      <trkpt lat="33.211893" lon="35.557943">
        <ele>329.3</ele>
        <time>2013-07-31T06:12:30Z</time>
        <sat>7</sat>
      </trkpt>
      <trkpt lat="33.211960" lon="35.557813">
        <ele>330.0</ele>
        <time>2013-07-31T06:22:21Z</time>
        <sat>8</sat>
      </trkpt>
      <trkpt lat="33.212028" lon="35.557728">
        <ele>330.3</ele>
        <time>2013-07-31T06:22:24Z</time>
        <sat>8</sat>
      </trkpt>
      <trkpt lat="33.212122" lon="35.557660">
        <ele>331.1</ele>
        <time>2013-07-31T06:22:28Z</time>
        <sat>8</sat>
      </trkpt>
      <trkpt lat="33.212217" lon="35.557605">
        <ele>331.1</ele>
        <time>2013-07-31T06:22:32Z</time>
        <sat>8</sat>
      </trkpt>
      <trkpt lat="33.212327" lon="35.557573">
        <ele>331.3</ele>
        <time>2013-07-31T06:22:37Z</time>
        <sat>8</sat>
      </trkpt>
      <trkpt lat="33.212437" lon="35.557565">
        <ele>331.0</ele>
        <time>2013-07-31T06:22:41Z</time>
        <sat>8</sat>
      </trkpt>
      <trkpt lat="33.212530" lon="35.557568">
        <ele>331.3</ele>
        <time>2013-07-31T06:22:45Z</time>
        <sat>8</sat>
      </trkpt>
      <trkpt lat="33.212630" lon="35.557603">
        <ele>331.3</ele>
        <time>2013-07-31T06:22:51Z</time>
        <sat>8</sat>
      </trkpt>
      <trkpt lat="33.212713" lon="35.557677">
        <ele>332.1</ele>
        <time>2013-07-31T06:22:57Z</time>
        <sat>8</sat>
      </trkpt>
      <trkpt lat="33.212778" lon="35.557785">
        <ele>331.6</ele>
        <time>2013-07-31T06:23:01Z</time>
        <sat>8</sat>
      </trkpt>
      <trkpt lat="33.212877" lon="35.557840">
        <ele>331.2</ele>
        <time>2013-07-31T06:23:04Z</time>
        <sat>8</sat>
      </trkpt>
      <trkpt lat="33.212975" lon="35.557860">
        <ele>331.0</ele>
        <time>2013-07-31T06:23:07Z</time>
        <sat>8</sat>
      </trkpt>
      <trkpt lat="33.213072" lon="35.557870">
        <ele>331.5</ele>
        <time>2013-07-31T06:23:11Z</time>
        <sat>8</sat>
      </trkpt>
      <trkpt lat="33.213185" lon="35.557895">
        <ele>331.8</ele>
        <time>2013-07-31T06:23:16Z</time>
        <sat>8</sat>
      </trkpt>
      <trkpt lat="33.213302" lon="35.557920">
        <ele>331.7</ele>
        <time>2013-07-31T06:23:20Z</time>
        <sat>8</sat>
      </trkpt>
      <trkpt lat="33.213413" lon="35.557915">
        <ele>331.9</ele>
        <time>2013-07-31T06:23:24Z</time>
        <sat>8</sat>
      </trkpt>
      <trkpt lat="33.213523" lon="35.557903">
        <ele>332.7</ele>
        <time>2013-07-31T06:23:29Z</time>
        <sat>8</sat>
      </trkpt>
      <trkpt lat="33.213623" lon="35.557895">
        <ele>332.8</ele>
        <time>2013-07-31T06:23:34Z</time>
        <sat>8</sat>
      </trkpt>
      <trkpt lat="33.213727" lon="35.557860">
        <ele>332.7</ele>
        <time>2013-07-31T06:23:38Z</time>
        <sat>8</sat>
      </trkpt>
      <trkpt lat="33.213807" lon="35.557788">
        <ele>332.1</ele>
        <time>2013-07-31T06:23:41Z</time>
        <sat>8</sat>
      </trkpt>
      <trkpt lat="33.213858" lon="35.557692">
        <ele>331.7</ele>
        <time>2013-07-31T06:23:45Z</time>
        <sat>8</sat>
      </trkpt>
      <trkpt lat="33.213938" lon="35.557640">
        <ele>331.7</ele>
        <time>2013-07-31T06:23:48Z</time>
        <sat>8</sat>
      </trkpt>
      <trkpt lat="33.214020" lon="35.557698">
        <ele>332.1</ele>
        <time>2013-07-31T06:23:53Z</time>
        <sat>8</sat>
      </trkpt>
      <trkpt lat="33.214013" lon="35.557822">
        <ele>332.7</ele>
        <time>2013-07-31T06:23:59Z</time>
        <sat>8</sat>
      </trkpt>
      <trkpt lat="33.214010" lon="35.557933">
        <ele>333.1</ele>
        <time>2013-07-31T06:24:03Z</time>
        <sat>8</sat>
      </trkpt>
      <trkpt lat="33.213995" lon="35.558050">
        <ele>333.6</ele>
        <time>2013-07-31T06:24:07Z</time>
        <sat>8</sat>
      </trkpt>
      <trkpt lat="33.214005" lon="35.558188">
        <ele>334.0</ele>
        <time>2013-07-31T06:24:13Z</time>
        <sat>8</sat>
      </trkpt>
      <trkpt lat="33.214015" lon="35.558298">
        <ele>333.8</ele>
        <time>2013-07-31T06:24:16Z</time>
        <sat>8</sat>
      </trkpt>
      <trkpt lat="33.214062" lon="35.558392">
        <ele>333.7</ele>
        <time>2013-07-31T06:24:19Z</time>
        <sat>8</sat>
      </trkpt>
      <trkpt lat="33.214128" lon="35.558515">
        <ele>333.2</ele>
        <time>2013-07-31T06:24:23Z</time>
        <sat>8</sat>
      </trkpt>
      <trkpt lat="33.214182" lon="35.558632">
        <ele>332.8</ele>
        <time>2013-07-31T06:24:27Z</time>
        <sat>8</sat>
      </trkpt>
      <trkpt lat="33.214222" lon="35.558728">
        <ele>333.3</ele>
        <time>2013-07-31T06:24:31Z</time>
        <sat>8</sat>
      </trkpt>
      <trkpt lat="33.214260" lon="35.558845">
        <ele>333.3</ele>
        <time>2013-07-31T06:24:35Z</time>
        <sat>8</sat>
      </trkpt>
      <trkpt lat="33.214273" lon="35.558963">
        <ele>333.1</ele>
        <time>2013-07-31T06:24:38Z</time>
        <sat>8</sat>
      </trkpt>
      <trkpt lat="33.214290" lon="35.559088">
        <ele>332.9</ele>
        <time>2013-07-31T06:24:41Z</time>
        <sat>8</sat>
      </trkpt>
      <trkpt lat="33.214303" lon="35.559205">
        <ele>332.8</ele>
        <time>2013-07-31T06:24:44Z</time>
        <sat>8</sat>
      </trkpt>
      <trkpt lat="33.214308" lon="35.559337">
        <ele>331.9</ele>
        <time>2013-07-31T06:24:47Z</time>
        <sat>8</sat>
      </trkpt>
      <trkpt lat="33.214308" lon="35.559468">
        <ele>331.7</ele>
        <time>2013-07-31T06:24:50Z</time>
        <sat>8</sat>
      </trkpt>
      <trkpt lat="33.214303" lon="35.559593">
        <ele>331.5</ele>
        <time>2013-07-31T06:24:53Z</time>
        <sat>8</sat>
      </trkpt>
      <trkpt lat="33.214308" lon="35.559703">
        <ele>331.8</ele>
        <time>2013-07-31T06:24:56Z</time>
        <sat>8</sat>
      </trkpt>
      <trkpt lat="33.214307" lon="35.559820">
        <ele>332.6</ele>
        <time>2013-07-31T06:25:01Z</time>
        <sat>8</sat>
      </trkpt>
      <trkpt lat="33.214302" lon="35.559948">
        <ele>333.4</ele>
        <time>2013-07-31T06:25:06Z</time>
        <sat>7</sat>
      </trkpt>
      <trkpt lat="33.214333" lon="35.560055">
        <ele>334.3</ele>
        <time>2013-07-31T06:25:11Z</time>
        <sat>8</sat>
      </trkpt>
      <trkpt lat="33.214333" lon="35.560167">
        <ele>328.0</ele>
        <time>2013-07-31T06:25:16Z</time>
        <sat>8</sat>
      </trkpt>
      <trkpt lat="33.214355" lon="35.560287">
        <ele>334.5</ele>
        <time>2013-07-31T06:25:22Z</time>
        <sat>8</sat>
      </trkpt>
      <trkpt lat="33.214448" lon="35.560353">
        <ele>336.4</ele>
        <time>2013-07-31T06:25:28Z</time>
        <sat>8</sat>
      </trkpt>
      <trkpt lat="33.214537" lon="35.560283">
        <ele>337.5</ele>
        <time>2013-07-31T06:25:33Z</time>
        <sat>8</sat>
      </trkpt>
      <trkpt lat="33.214600" lon="35.560180">
        <ele>338.0</ele>
        <time>2013-07-31T06:25:38Z</time>
        <sat>8</sat>
      </trkpt>
      <trkpt lat="33.214673" lon="35.560100">
        <ele>339.0</ele>
        <time>2013-07-31T06:25:43Z</time>
        <sat>8</sat>
      </trkpt>
      <trkpt lat="33.214767" lon="35.560103">
        <ele>340.1</ele>
        <time>2013-07-31T06:25:48Z</time>
        <sat>8</sat>
      </trkpt>
      <trkpt lat="33.214817" lon="35.560207">
        <ele>341.5</ele>
        <time>2013-07-31T06:25:54Z</time>
        <sat>8</sat>
      </trkpt>
      <trkpt lat="33.214862" lon="35.560315">
        <ele>342.2</ele>
        <time>2013-07-31T06:25:59Z</time>
        <sat>8</sat>
      </trkpt>
      <trkpt lat="33.214913" lon="35.560418">
        <ele>342.8</ele>
        <time>2013-07-31T06:26:04Z</time>
        <sat>8</sat>
      </trkpt>
      <trkpt lat="33.214973" lon="35.560517">
        <ele>343.3</ele>
        <time>2013-07-31T06:26:09Z</time>
        <sat>8</sat>
      </trkpt>
      <trkpt lat="33.215022" lon="35.560617">
        <ele>343.8</ele>
        <time>2013-07-31T06:26:14Z</time>
        <sat>8</sat>
      </trkpt>
      <trkpt lat="33.215067" lon="35.560742">
        <ele>343.9</ele>
        <time>2013-07-31T06:26:18Z</time>
        <sat>8</sat>
      </trkpt>
      <trkpt lat="33.215097" lon="35.560847">
        <ele>344.0</ele>
        <time>2013-07-31T06:26:22Z</time>
        <sat>8</sat>
      </trkpt>
      <trkpt lat="33.215102" lon="35.560972">
        <ele>343.4</ele>
        <time>2013-07-31T06:26:25Z</time>
        <sat>8</sat>
      </trkpt>
      <trkpt lat="33.215115" lon="35.561125">
        <ele>343.4</ele>
        <time>2013-07-31T06:26:28Z</time>
        <sat>8</sat>
      </trkpt>
      <trkpt lat="33.215155" lon="35.561227">
        <ele>342.8</ele>
        <time>2013-07-31T06:26:30Z</time>
        <sat>8</sat>
      </trkpt>
      <trkpt lat="33.215227" lon="35.561295">
        <ele>342.5</ele>
        <time>2013-07-31T06:26:34Z</time>
        <sat>8</sat>
      </trkpt>
      <trkpt lat="33.215235" lon="35.561410">
        <ele>342.4</ele>
        <time>2013-07-31T06:26:38Z</time>
        <sat>8</sat>
      </trkpt>
      <trkpt lat="33.215228" lon="35.561518">
        <ele>342.1</ele>
        <time>2013-07-31T06:26:41Z</time>
        <sat>8</sat>
      </trkpt>
      <trkpt lat="33.215252" lon="35.561623">
        <ele>341.2</ele>
        <time>2013-07-31T06:26:46Z</time>
        <sat>8</sat>
      </trkpt>
      <trkpt lat="33.215268" lon="35.561735">
        <ele>339.9</ele>
        <time>2013-07-31T06:26:50Z</time>
        <sat>8</sat>
      </trkpt>
      <trkpt lat="33.215280" lon="35.561858">
        <ele>339.7</ele>
        <time>2013-07-31T06:26:57Z</time>
        <sat>8</sat>
      </trkpt>
      <trkpt lat="33.215305" lon="35.561977">
        <ele>339.1</ele>
        <time>2013-07-31T06:27:02Z</time>
        <sat>8</sat>
      </trkpt>
      <trkpt lat="33.215250" lon="35.561873">
        <ele>339.3</ele>
        <time>2013-07-31T06:35:26Z</time>
        <sat>8</sat>
      </trkpt>
      <trkpt lat="33.215305" lon="35.561768">
        <ele>340.5</ele>
        <time>2013-07-31T06:35:33Z</time>
        <sat>8</sat>
      </trkpt>
      <trkpt lat="33.215307" lon="35.561653">
        <ele>341.3</ele>
        <time>2013-07-31T06:35:40Z</time>
        <sat>8</sat>
      </trkpt>
      <trkpt lat="33.215357" lon="35.561558">
        <ele>342.0</ele>
        <time>2013-07-31T06:35:46Z</time>
        <sat>8</sat>
      </trkpt>
      <trkpt lat="33.215447" lon="35.561500">
        <ele>342.6</ele>
        <time>2013-07-31T06:35:51Z</time>
        <sat>8</sat>
      </trkpt>
      <trkpt lat="33.215512" lon="35.561423">
        <ele>343.2</ele>
        <time>2013-07-31T06:35:56Z</time>
        <sat>8</sat>
      </trkpt>
      <trkpt lat="33.215622" lon="35.561388">
        <ele>343.3</ele>
        <time>2013-07-31T06:36:01Z</time>
        <sat>8</sat>
      </trkpt>
      <trkpt lat="33.215730" lon="35.561375">
        <ele>343.3</ele>
        <time>2013-07-31T06:36:05Z</time>
        <sat>8</sat>
      </trkpt>
      <trkpt lat="33.215830" lon="35.561362">
        <ele>343.5</ele>
        <time>2013-07-31T06:36:10Z</time>
        <sat>8</sat>
      </trkpt>
      <trkpt lat="33.215923" lon="35.561368">
        <ele>342.9</ele>
        <time>2013-07-31T06:36:14Z</time>
        <sat>8</sat>
      </trkpt>
      <trkpt lat="33.216018" lon="35.561398">
        <ele>342.4</ele>
        <time>2013-07-31T06:36:17Z</time>
        <sat>8</sat>
      </trkpt>
      <trkpt lat="33.216050" lon="35.561517">
        <ele>341.6</ele>
        <time>2013-07-31T06:36:21Z</time>
        <sat>8</sat>
      </trkpt>
      <trkpt lat="33.215982" lon="35.561602">
        <ele>341.1</ele>
        <time>2013-07-31T06:36:24Z</time>
        <sat>8</sat>
      </trkpt>
      <trkpt lat="33.216077" lon="35.561707">
        <ele>339.9</ele>
        <time>2013-07-31T06:36:28Z</time>
        <sat>8</sat>
      </trkpt>
      <trkpt lat="33.216203" lon="35.561737">
        <ele>339.4</ele>
        <time>2013-07-31T06:36:30Z</time>
        <sat>8</sat>
      </trkpt>
      <trkpt lat="33.216303" lon="35.561780">
        <ele>338.4</ele>
        <time>2013-07-31T06:36:32Z</time>
        <sat>8</sat>
      </trkpt>
      <trkpt lat="33.216435" lon="35.561837">
        <ele>337.4</ele>
        <time>2013-07-31T06:36:34Z</time>
        <sat>8</sat>
      </trkpt>
      <trkpt lat="33.216563" lon="35.561870">
        <ele>336.9</ele>
        <time>2013-07-31T06:36:36Z</time>
        <sat>8</sat>
      </trkpt>
      <trkpt lat="33.216667" lon="35.561905">
        <ele>335.2</ele>
        <time>2013-07-31T06:36:38Z</time>
        <sat>8</sat>
      </trkpt>
      <trkpt lat="33.216768" lon="35.561908">
        <ele>334.9</ele>
        <time>2013-07-31T06:36:40Z</time>
        <sat>8</sat>
      </trkpt>
      <trkpt lat="33.216882" lon="35.561948">
        <ele>334.9</ele>
        <time>2013-07-31T06:36:43Z</time>
        <sat>8</sat>
      </trkpt>
      <trkpt lat="33.217008" lon="35.561988">
        <ele>335.2</ele>
        <time>2013-07-31T06:36:46Z</time>
        <sat>8</sat>
      </trkpt>
      <trkpt lat="33.217097" lon="35.562015">
        <ele>335.0</ele>
        <time>2013-07-31T06:36:48Z</time>
        <sat>8</sat>
      </trkpt>
      <trkpt lat="33.217207" lon="35.562030">
        <ele>334.1</ele>
        <time>2013-07-31T06:36:50Z</time>
        <sat>8</sat>
      </trkpt>
      <trkpt lat="33.217327" lon="35.562027">
        <ele>333.8</ele>
        <time>2013-07-31T06:36:52Z</time>
        <sat>8</sat>
      </trkpt>
      <trkpt lat="33.217467" lon="35.562030">
        <ele>333.7</ele>
        <time>2013-07-31T06:36:54Z</time>
        <sat>8</sat>
      </trkpt>
      <trkpt lat="33.217598" lon="35.562010">
        <ele>332.2</ele>
        <time>2013-07-31T06:36:56Z</time>
        <sat>8</sat>
      </trkpt>
      <trkpt lat="33.217715" lon="35.561977">
        <ele>331.9</ele>
        <time>2013-07-31T06:36:58Z</time>
        <sat>8</sat>
      </trkpt>
      <trkpt lat="33.217825" lon="35.561935">
        <ele>331.9</ele>
        <time>2013-07-31T06:37:01Z</time>
        <sat>8</sat>
      </trkpt>
      <trkpt lat="33.217920" lon="35.562002">
        <ele>332.3</ele>
        <time>2013-07-31T06:37:05Z</time>
        <sat>8</sat>
      </trkpt>
      <trkpt lat="33.218003" lon="35.562072">
        <ele>332.7</ele>
        <time>2013-07-31T06:37:09Z</time>
        <sat>8</sat>
      </trkpt>
      <trkpt lat="33.218077" lon="35.562138">
        <ele>333.6</ele>
        <time>2013-07-31T06:37:13Z</time>
        <sat>8</sat>
      </trkpt>
      <trkpt lat="33.218135" lon="35.562253">
        <ele>334.4</ele>
        <time>2013-07-31T06:37:18Z</time>
        <sat>8</sat>
      </trkpt>
      <trkpt lat="33.218183" lon="35.562372">
        <ele>334.7</ele>
        <time>2013-07-31T06:37:22Z</time>
        <sat>8</sat>
      </trkpt>
      <trkpt lat="33.218253" lon="35.562480">
        <ele>334.6</ele>
        <time>2013-07-31T06:37:26Z</time>
        <sat>8</sat>
      </trkpt>
      <trkpt lat="33.218338" lon="35.562542">
        <ele>334.8</ele>
        <time>2013-07-31T06:37:29Z</time>
        <sat>8</sat>
      </trkpt>
      <trkpt lat="33.218463" lon="35.562540">
        <ele>335.4</ele>
        <time>2013-07-31T06:37:32Z</time>
        <sat>8</sat>
      </trkpt>
      <trkpt lat="33.218543" lon="35.562463">
        <ele>336.5</ele>
        <time>2013-07-31T06:37:36Z</time>
        <sat>8</sat>
      </trkpt>
      <trkpt lat="33.218627" lon="35.562388">
        <ele>337.5</ele>
        <time>2013-07-31T06:37:41Z</time>
        <sat>8</sat>
      </trkpt>
      <trkpt lat="33.218720" lon="35.562388">
        <ele>338.5</ele>
        <time>2013-07-31T06:37:45Z</time>
        <sat>8</sat>
      </trkpt>
      <trkpt lat="33.218817" lon="35.562433">
        <ele>338.8</ele>
        <time>2013-07-31T06:37:49Z</time>
        <sat>8</sat>
      </trkpt>
      <trkpt lat="33.218865" lon="35.562527">
        <ele>338.8</ele>
        <time>2013-07-31T06:37:52Z</time>
        <sat>8</sat>
      </trkpt>
      <trkpt lat="33.218938" lon="35.562668">
        <ele>337.9</ele>
        <time>2013-07-31T06:37:55Z</time>
        <sat>8</sat>
      </trkpt>
      <trkpt lat="33.219018" lon="35.562750">
        <ele>337.1</ele>
        <time>2013-07-31T06:37:57Z</time>
        <sat>8</sat>
      </trkpt>
      <trkpt lat="33.219123" lon="35.562787">
        <ele>336.6</ele>
        <time>2013-07-31T06:37:59Z</time>
        <sat>8</sat>
      </trkpt>
      <trkpt lat="33.219215" lon="35.562805">
        <ele>336.7</ele>
        <time>2013-07-31T06:38:02Z</time>
        <sat>8</sat>
      </trkpt>
      <trkpt lat="33.219292" lon="35.562875">
        <ele>336.8</ele>
        <time>2013-07-31T06:38:05Z</time>
        <sat>8</sat>
      </trkpt>
      <trkpt lat="33.219390" lon="35.562987">
        <ele>336.5</ele>
        <time>2013-07-31T06:38:08Z</time>
        <sat>8</sat>
      </trkpt>
      <trkpt lat="33.219483" lon="35.563038">
        <ele>336.3</ele>
        <time>2013-07-31T06:38:10Z</time>
        <sat>8</sat>
      </trkpt>
      <trkpt lat="33.219598" lon="35.563078">
        <ele>335.0</ele>
        <time>2013-07-31T06:38:12Z</time>
        <sat>8</sat>
      </trkpt>
      <trkpt lat="33.219702" lon="35.563122">
        <ele>334.6</ele>
        <time>2013-07-31T06:38:14Z</time>
        <sat>8</sat>
      </trkpt>
      <trkpt lat="33.219818" lon="35.563153">
        <ele>334.0</ele>
        <time>2013-07-31T06:38:16Z</time>
        <sat>8</sat>
      </trkpt>
      <trkpt lat="33.219940" lon="35.563187">
        <ele>333.3</ele>
        <time>2013-07-31T06:38:18Z</time>
        <sat>8</sat>
      </trkpt>
      <trkpt lat="33.220060" lon="35.563217">
        <ele>333.4</ele>
        <time>2013-07-31T06:38:20Z</time>
        <sat>8</sat>
      </trkpt>
      <trkpt lat="33.220168" lon="35.563258">
        <ele>333.2</ele>
        <time>2013-07-31T06:38:22Z</time>
        <sat>8</sat>
      </trkpt>
      <trkpt lat="33.220285" lon="35.563308">
        <ele>333.2</ele>
        <time>2013-07-31T06:38:24Z</time>
        <sat>8</sat>
      </trkpt>
      <trkpt lat="33.220383" lon="35.563368">
        <ele>332.6</ele>
        <time>2013-07-31T06:38:26Z</time>
        <sat>8</sat>
      </trkpt>
      <trkpt lat="33.220478" lon="35.563333">
        <ele>331.8</ele>
        <time>2013-07-31T06:38:31Z</time>
        <sat>8</sat>
      </trkpt>
      <trkpt lat="33.220583" lon="35.563260">
        <ele>331.4</ele>
        <time>2013-07-31T06:38:35Z</time>
        <sat>8</sat>
      </trkpt>
      <trkpt lat="33.220648" lon="35.563182">
        <ele>331.7</ele>
        <time>2013-07-31T06:38:38Z</time>
        <sat>8</sat>
      </trkpt>
      <trkpt lat="33.220728" lon="35.563132">
        <ele>332.1</ele>
        <time>2013-07-31T06:38:41Z</time>
        <sat>8</sat>
      </trkpt>
      <trkpt lat="33.220825" lon="35.563132">
        <ele>332.5</ele>
        <time>2013-07-31T06:38:44Z</time>
        <sat>8</sat>
      </trkpt>
      <trkpt lat="33.220923" lon="35.563208">
        <ele>332.7</ele>
        <time>2013-07-31T06:38:48Z</time>
        <sat>8</sat>
      </trkpt>
      <trkpt lat="33.221033" lon="35.563222">
        <ele>332.2</ele>
        <time>2013-07-31T06:38:52Z</time>
        <sat>8</sat>
      </trkpt>
      <trkpt lat="33.221135" lon="35.563177">
        <ele>332.6</ele>
        <time>2013-07-31T06:38:56Z</time>
        <sat>8</sat>
      </trkpt>
      <trkpt lat="33.221230" lon="35.563135">
        <ele>333.3</ele>
        <time>2013-07-31T06:38:59Z</time>
        <sat>8</sat>
      </trkpt>
      <trkpt lat="33.221330" lon="35.563122">
        <ele>334.3</ele>
        <time>2013-07-31T06:39:03Z</time>
        <sat>8</sat>
      </trkpt>
      <trkpt lat="33.221437" lon="35.563133">
        <ele>335.2</ele>
        <time>2013-07-31T06:39:06Z</time>
        <sat>8</sat>
      </trkpt>
      <trkpt lat="33.221535" lon="35.563150">
        <ele>336.1</ele>
        <time>2013-07-31T06:39:09Z</time>
        <sat>8</sat>
      </trkpt>
      <trkpt lat="33.221645" lon="35.563143">
        <ele>337.2</ele>
        <time>2013-07-31T06:39:13Z</time>
        <sat>8</sat>
      </trkpt>
      <trkpt lat="33.221743" lon="35.563188">
        <ele>337.9</ele>
        <time>2013-07-31T06:39:18Z</time>
        <sat>8</sat>
      </trkpt>
      <trkpt lat="33.221840" lon="35.563210">
        <ele>337.9</ele>
        <time>2013-07-31T06:39:22Z</time>
        <sat>8</sat>
      </trkpt>
      <trkpt lat="33.221940" lon="35.563185">
        <ele>338.1</ele>
        <time>2013-07-31T06:39:26Z</time>
        <sat>8</sat>
      </trkpt>
      <trkpt lat="33.222038" lon="35.563150">
        <ele>337.9</ele>
        <time>2013-07-31T06:39:31Z</time>
        <sat>8</sat>
      </trkpt>
      <trkpt lat="33.222138" lon="35.563125">
        <ele>338.1</ele>
        <time>2013-07-31T06:39:36Z</time>
        <sat>8</sat>
      </trkpt>
      <trkpt lat="33.222222" lon="35.563078">
        <ele>338.5</ele>
        <time>2013-07-31T06:39:40Z</time>
        <sat>8</sat>
      </trkpt>
      <trkpt lat="33.222308" lon="35.563043">
        <ele>338.5</ele>
        <time>2013-07-31T06:39:44Z</time>
        <sat>8</sat>
      </trkpt>
      <trkpt lat="33.222410" lon="35.563043">
        <ele>338.3</ele>
        <time>2013-07-31T06:39:49Z</time>
        <sat>8</sat>
      </trkpt>
      <trkpt lat="33.222518" lon="35.563082">
        <ele>338.2</ele>
        <time>2013-07-31T06:39:52Z</time>
        <sat>8</sat>
      </trkpt>
      <trkpt lat="33.222613" lon="35.563127">
        <ele>338.0</ele>
        <time>2013-07-31T06:39:54Z</time>
        <sat>8</sat>
      </trkpt>
      <trkpt lat="33.222713" lon="35.563135">
        <ele>337.8</ele>
        <time>2013-07-31T06:39:57Z</time>
        <sat>8</sat>
      </trkpt>
      <trkpt lat="33.222820" lon="35.563130">
        <ele>337.8</ele>
        <time>2013-07-31T06:40:01Z</time>
        <sat>8</sat>
      </trkpt>
      <trkpt lat="33.222922" lon="35.563113">
        <ele>338.1</ele>
        <time>2013-07-31T06:40:04Z</time>
        <sat>8</sat>
      </trkpt>
      <trkpt lat="33.223025" lon="35.563070">
        <ele>338.7</ele>
        <time>2013-07-31T06:40:08Z</time>
        <sat>8</sat>
      </trkpt>
      <trkpt lat="33.223128" lon="35.563098">
        <ele>339.5</ele>
        <time>2013-07-31T06:40:12Z</time>
        <sat>8</sat>
      </trkpt>
      <trkpt lat="33.223180" lon="35.563188">
        <ele>340.8</ele>
        <time>2013-07-31T06:40:16Z</time>
        <sat>8</sat>
      </trkpt>
      <trkpt lat="33.223193" lon="35.563310">
        <ele>341.7</ele>
        <time>2013-07-31T06:40:21Z</time>
        <sat>8</sat>
      </trkpt>
      <trkpt lat="33.223270" lon="35.563380">
        <ele>344.9</ele>
        <time>2013-07-31T06:40:38Z</time>
        <sat>8</sat>
      </trkpt>
      <trkpt lat="33.223362" lon="35.563413">
        <ele>345.1</ele>
        <time>2013-07-31T06:40:41Z</time>
        <sat>8</sat>
      </trkpt>
      <trkpt lat="33.223455" lon="35.563420">
        <ele>346.1</ele>
        <time>2013-07-31T06:40:45Z</time>
        <sat>8</sat>
      </trkpt>
      <trkpt lat="33.223552" lon="35.563402">
        <ele>347.6</ele>
        <time>2013-07-31T06:40:50Z</time>
        <sat>8</sat>
      </trkpt>
      <trkpt lat="33.223648" lon="35.563415">
        <ele>349.0</ele>
        <time>2013-07-31T06:40:55Z</time>
        <sat>8</sat>
      </trkpt>
      <trkpt lat="33.223753" lon="35.563423">
        <ele>350.2</ele>
        <time>2013-07-31T06:41:00Z</time>
        <sat>8</sat>
      </trkpt>
      <trkpt lat="33.223850" lon="35.563443">
        <ele>350.9</ele>
        <time>2013-07-31T06:41:05Z</time>
        <sat>8</sat>
      </trkpt>
      <trkpt lat="33.223942" lon="35.563442">
        <ele>351.2</ele>
        <time>2013-07-31T06:41:09Z</time>
        <sat>8</sat>
      </trkpt>
      <trkpt lat="33.224042" lon="35.563447">
        <ele>351.5</ele>
        <time>2013-07-31T06:41:14Z</time>
        <sat>8</sat>
      </trkpt>
      <trkpt lat="33.224147" lon="35.563472">
        <ele>351.7</ele>
        <time>2013-07-31T06:41:18Z</time>
        <sat>8</sat>
      </trkpt>
      <trkpt lat="33.224250" lon="35.563470">
        <ele>352.0</ele>
        <time>2013-07-31T06:41:23Z</time>
        <sat>8</sat>
      </trkpt>
      <trkpt lat="33.224340" lon="35.563483">
        <ele>351.9</ele>
        <time>2013-07-31T06:41:27Z</time>
        <sat>8</sat>
      </trkpt>
      <trkpt lat="33.224450" lon="35.563500">
        <ele>351.5</ele>
        <time>2013-07-31T06:41:31Z</time>
        <sat>8</sat>
      </trkpt>
      <trkpt lat="33.224557" lon="35.563495">
        <ele>351.4</ele>
        <time>2013-07-31T06:41:35Z</time>
        <sat>8</sat>
      </trkpt>
      <trkpt lat="33.224642" lon="35.563457">
        <ele>351.3</ele>
        <time>2013-07-31T06:41:38Z</time>
        <sat>8</sat>
      </trkpt>
      <trkpt lat="33.224733" lon="35.563407">
        <ele>351.4</ele>
        <time>2013-07-31T06:41:42Z</time>
        <sat>8</sat>
      </trkpt>
      <trkpt lat="33.224798" lon="35.563328">
        <ele>351.6</ele>
        <time>2013-07-31T06:41:45Z</time>
        <sat>8</sat>
      </trkpt>
      <trkpt lat="33.224838" lon="35.563225">
        <ele>351.6</ele>
        <time>2013-07-31T06:41:48Z</time>
        <sat>8</sat>
      </trkpt>
      <trkpt lat="33.224880" lon="35.563100">
        <ele>351.9</ele>
        <time>2013-07-31T06:41:53Z</time>
        <sat>8</sat>
      </trkpt>
      <trkpt lat="33.224910" lon="35.562967">
        <ele>352.0</ele>
        <time>2013-07-31T06:41:58Z</time>
        <sat>8</sat>
      </trkpt>
      <trkpt lat="33.224938" lon="35.562858">
        <ele>351.9</ele>
        <time>2013-07-31T06:42:01Z</time>
        <sat>8</sat>
      </trkpt>
      <trkpt lat="33.224992" lon="35.562747">
        <ele>351.9</ele>
        <time>2013-07-31T06:42:05Z</time>
        <sat>8</sat>
      </trkpt>
      <trkpt lat="33.225053" lon="35.562625">
        <ele>352.0</ele>
        <time>2013-07-31T06:42:09Z</time>
        <sat>8</sat>
      </trkpt>
      <trkpt lat="33.225150" lon="35.562533">
        <ele>352.4</ele>
        <time>2013-07-31T06:42:13Z</time>
        <sat>8</sat>
      </trkpt>
      <trkpt lat="33.225235" lon="35.562425">
        <ele>352.2</ele>
        <time>2013-07-31T06:42:16Z</time>
        <sat>8</sat>
      </trkpt>
      <trkpt lat="33.225312" lon="35.562328">
        <ele>352.3</ele>
        <time>2013-07-31T06:42:20Z</time>
        <sat>8</sat>
      </trkpt>
      <trkpt lat="33.225385" lon="35.562265">
        <ele>352.2</ele>
        <time>2013-07-31T06:42:24Z</time>
        <sat>8</sat>
      </trkpt>
      <trkpt lat="33.225485" lon="35.562200">
        <ele>351.9</ele>
        <time>2013-07-31T06:42:28Z</time>
        <sat>8</sat>
      </trkpt>
      <trkpt lat="33.225593" lon="35.562195">
        <ele>352.0</ele>
        <time>2013-07-31T06:42:32Z</time>
        <sat>8</sat>
      </trkpt>
      <trkpt lat="33.225680" lon="35.562232">
        <ele>352.2</ele>
        <time>2013-07-31T06:42:36Z</time>
        <sat>8</sat>
      </trkpt>
      <trkpt lat="33.225750" lon="35.562307">
        <ele>352.6</ele>
        <time>2013-07-31T06:42:41Z</time>
        <sat>8</sat>
      </trkpt>
      <trkpt lat="33.225812" lon="35.562407">
        <ele>352.7</ele>
        <time>2013-07-31T06:42:47Z</time>
        <sat>8</sat>
      </trkpt>
      <trkpt lat="33.225902" lon="35.562445">
        <ele>353.6</ele>
        <time>2013-07-31T06:42:53Z</time>
        <sat>8</sat>
      </trkpt>
      <trkpt lat="33.225950" lon="35.562552">
        <ele>354.6</ele>
        <time>2013-07-31T06:42:59Z</time>
        <sat>8</sat>
      </trkpt>
      <trkpt lat="33.225982" lon="35.562672">
        <ele>355.0</ele>
        <time>2013-07-31T06:43:04Z</time>
        <sat>7</sat>
      </trkpt>
      <trkpt lat="33.226035" lon="35.562770">
        <ele>355.0</ele>
        <time>2013-07-31T06:43:09Z</time>
        <sat>8</sat>
      </trkpt>
      <trkpt lat="33.226107" lon="35.562853">
        <ele>354.8</ele>
        <time>2013-07-31T06:43:14Z</time>
        <sat>8</sat>
      </trkpt>
      <trkpt lat="33.226187" lon="35.562917">
        <ele>354.9</ele>
        <time>2013-07-31T06:43:18Z</time>
        <sat>8</sat>
      </trkpt>
      <trkpt lat="33.226277" lon="35.562908">
        <ele>355.7</ele>
        <time>2013-07-31T06:43:24Z</time>
        <sat>8</sat>
      </trkpt>
      <trkpt lat="33.226350" lon="35.562837">
        <ele>357.2</ele>
        <time>2013-07-31T06:43:31Z</time>
        <sat>8</sat>
      </trkpt>
      <trkpt lat="33.226412" lon="35.562915">
        <ele>369.5</ele>
        <time>2013-07-31T07:13:00Z</time>
        <sat>7</sat>
      </trkpt>
      <trkpt lat="33.226520" lon="35.562930">
        <ele>369.8</ele>
        <time>2013-07-31T07:13:04Z</time>
        <sat>7</sat>
      </trkpt>
      <trkpt lat="33.226615" lon="35.562935">
        <ele>370.3</ele>
        <time>2013-07-31T07:13:07Z</time>
        <sat>7</sat>
      </trkpt>
      <trkpt lat="33.226712" lon="35.562897">
        <ele>370.8</ele>
        <time>2013-07-31T07:13:11Z</time>
        <sat>7</sat>
      </trkpt>
      <trkpt lat="33.226813" lon="35.562868">
        <ele>371.7</ele>
        <time>2013-07-31T07:13:15Z</time>
        <sat>7</sat>
      </trkpt>
      <trkpt lat="33.226908" lon="35.562845">
        <ele>372.0</ele>
        <time>2013-07-31T07:13:18Z</time>
        <sat>7</sat>
      </trkpt>
      <trkpt lat="33.226992" lon="35.562782">
        <ele>372.0</ele>
        <time>2013-07-31T07:13:21Z</time>
        <sat>7</sat>
      </trkpt>
      <trkpt lat="33.227043" lon="35.562682">
        <ele>372.7</ele>
        <time>2013-07-31T07:13:25Z</time>
        <sat>7</sat>
      </trkpt>
      <trkpt lat="33.227097" lon="35.562590">
        <ele>373.7</ele>
        <time>2013-07-31T07:13:29Z</time>
        <sat>7</sat>
      </trkpt>
      <trkpt lat="33.227187" lon="35.562522">
        <ele>374.4</ele>
        <time>2013-07-31T07:13:33Z</time>
        <sat>7</sat>
      </trkpt>
      <trkpt lat="33.227240" lon="35.562430">
        <ele>374.7</ele>
        <time>2013-07-31T07:13:37Z</time>
        <sat>7</sat>
      </trkpt>
      <trkpt lat="33.227328" lon="35.562377">
        <ele>375.2</ele>
        <time>2013-07-31T07:13:42Z</time>
        <sat>7</sat>
      </trkpt>
      <trkpt lat="33.227425" lon="35.562335">
        <ele>375.5</ele>
        <time>2013-07-31T07:13:46Z</time>
        <sat>7</sat>
      </trkpt>
      <trkpt lat="33.227513" lon="35.562275">
        <ele>376.4</ele>
        <time>2013-07-31T07:13:51Z</time>
        <sat>7</sat>
      </trkpt>
      <trkpt lat="33.227613" lon="35.562295">
        <ele>377.6</ele>
        <time>2013-07-31T07:13:56Z</time>
        <sat>7</sat>
      </trkpt>
      <trkpt lat="33.227685" lon="35.562375">
        <ele>378.9</ele>
        <time>2013-07-31T07:14:01Z</time>
        <sat>7</sat>
      </trkpt>
      <trkpt lat="33.227790" lon="35.562447">
        <ele>379.5</ele>
        <time>2013-07-31T07:14:06Z</time>
        <sat>7</sat>
      </trkpt>
      <trkpt lat="33.227853" lon="35.562528">
        <ele>379.8</ele>
        <time>2013-07-31T07:14:10Z</time>
        <sat>7</sat>
      </trkpt>
      <trkpt lat="33.227935" lon="35.562600">
        <ele>380.1</ele>
        <time>2013-07-31T07:14:16Z</time>
        <sat>7</sat>
      </trkpt>
      <trkpt lat="33.227990" lon="35.562695">
        <ele>380.7</ele>
        <time>2013-07-31T07:14:21Z</time>
        <sat>7</sat>
      </trkpt>
      <trkpt lat="33.228037" lon="35.562812">
        <ele>381.0</ele>
        <time>2013-07-31T07:14:26Z</time>
        <sat>7</sat>
      </trkpt>
      <trkpt lat="33.228110" lon="35.562925">
        <ele>381.1</ele>
        <time>2013-07-31T07:14:30Z</time>
        <sat>7</sat>
      </trkpt>
      <trkpt lat="33.228180" lon="35.563007">
        <ele>380.8</ele>
        <time>2013-07-31T07:14:33Z</time>
        <sat>7</sat>
      </trkpt>
      <trkpt lat="33.228272" lon="35.563095">
        <ele>380.5</ele>
        <time>2013-07-31T07:14:36Z</time>
        <sat>7</sat>
      </trkpt>
      <trkpt lat="33.228347" lon="35.563168">
        <ele>380.6</ele>
        <time>2013-07-31T07:14:38Z</time>
        <sat>7</sat>
      </trkpt>
      <trkpt lat="33.228423" lon="35.563240">
        <ele>380.6</ele>
        <time>2013-07-31T07:14:40Z</time>
        <sat>7</sat>
      </trkpt>
      <trkpt lat="33.228515" lon="35.563298">
        <ele>379.2</ele>
        <time>2013-07-31T07:14:42Z</time>
        <sat>7</sat>
      </trkpt>
      <trkpt lat="33.228600" lon="35.563337">
        <ele>379.2</ele>
        <time>2013-07-31T07:14:44Z</time>
        <sat>7</sat>
      </trkpt>
      <trkpt lat="33.228682" lon="35.563385">
        <ele>379.2</ele>
        <time>2013-07-31T07:14:46Z</time>
        <sat>7</sat>
      </trkpt>
      <trkpt lat="33.228800" lon="35.563403">
        <ele>379.3</ele>
        <time>2013-07-31T07:14:49Z</time>
        <sat>7</sat>
      </trkpt>
      <trkpt lat="33.228927" lon="35.563422">
        <ele>379.0</ele>
        <time>2013-07-31T07:14:52Z</time>
        <sat>7</sat>
      </trkpt>
      <trkpt lat="33.229055" lon="35.563412">
        <ele>378.4</ele>
        <time>2013-07-31T07:14:55Z</time>
        <sat>7</sat>
      </trkpt>
      <trkpt lat="33.229163" lon="35.563388">
        <ele>378.2</ele>
        <time>2013-07-31T07:14:58Z</time>
        <sat>7</sat>
      </trkpt>
      <trkpt lat="33.229293" lon="35.563353">
        <ele>378.3</ele>
        <time>2013-07-31T07:15:02Z</time>
        <sat>7</sat>
      </trkpt>
      <trkpt lat="33.229398" lon="35.563298">
        <ele>378.3</ele>
        <time>2013-07-31T07:15:05Z</time>
        <sat>7</sat>
      </trkpt>
      <trkpt lat="33.229490" lon="35.563227">
        <ele>378.1</ele>
        <time>2013-07-31T07:15:07Z</time>
        <sat>7</sat>
      </trkpt>
      <trkpt lat="33.229625" lon="35.563142">
        <ele>377.5</ele>
        <time>2013-07-31T07:15:10Z</time>
        <sat>6</sat>
      </trkpt>
      <trkpt lat="33.229705" lon="35.563090">
        <ele>377.7</ele>
        <time>2013-07-31T07:15:12Z</time>
        <sat>6</sat>
      </trkpt>
      <trkpt lat="33.229808" lon="35.563063">
        <ele>377.4</ele>
        <time>2013-07-31T07:15:14Z</time>
        <sat>6</sat>
      </trkpt>
      <trkpt lat="33.229942" lon="35.563057">
        <ele>377.4</ele>
        <time>2013-07-31T07:15:17Z</time>
        <sat>6</sat>
      </trkpt>
      <trkpt lat="33.230042" lon="35.563025">
        <ele>376.9</ele>
        <time>2013-07-31T07:15:20Z</time>
        <sat>6</sat>
      </trkpt>
      <trkpt lat="33.230110" lon="35.563108">
        <ele>376.7</ele>
        <time>2013-07-31T07:15:24Z</time>
        <sat>6</sat>
      </trkpt>
      <trkpt lat="33.230202" lon="35.563182">
        <ele>376.0</ele>
        <time>2013-07-31T07:15:27Z</time>
        <sat>6</sat>
      </trkpt>
      <trkpt lat="33.230290" lon="35.563260">
        <ele>374.8</ele>
        <time>2013-07-31T07:15:30Z</time>
        <sat>6</sat>
      </trkpt>
      <trkpt lat="33.230378" lon="35.563323">
        <ele>373.7</ele>
        <time>2013-07-31T07:15:33Z</time>
        <sat>6</sat>
      </trkpt>
      <trkpt lat="33.230462" lon="35.563405">
        <ele>373.5</ele>
        <time>2013-07-31T07:15:35Z</time>
        <sat>6</sat>
      </trkpt>
      <trkpt lat="33.230507" lon="35.563535">
        <ele>372.8</ele>
        <time>2013-07-31T07:15:38Z</time>
        <sat>6</sat>
      </trkpt>
      <trkpt lat="33.230522" lon="35.563655">
        <ele>372.3</ele>
        <time>2013-07-31T07:15:40Z</time>
        <sat>7</sat>
      </trkpt>
      <trkpt lat="33.230443" lon="35.563765">
        <ele>371.7</ele>
        <time>2013-07-31T07:15:44Z</time>
        <sat>7</sat>
      </trkpt>
      <trkpt lat="33.230362" lon="35.563845">
        <ele>370.4</ele>
        <time>2013-07-31T07:15:46Z</time>
        <sat>7</sat>
      </trkpt>
      <trkpt lat="33.230305" lon="35.563953">
        <ele>370.5</ele>
        <time>2013-07-31T07:15:49Z</time>
        <sat>7</sat>
      </trkpt>
      <trkpt lat="33.230243" lon="35.564068">
        <ele>371.0</ele>
        <time>2013-07-31T07:15:54Z</time>
        <sat>7</sat>
      </trkpt>
      <trkpt lat="33.230180" lon="35.564165">
        <ele>371.3</ele>
        <time>2013-07-31T07:15:56Z</time>
        <sat>6</sat>
      </trkpt>
      <trkpt lat="33.230142" lon="35.564288">
        <ele>370.6</ele>
        <time>2013-07-31T07:15:58Z</time>
        <sat>7</sat>
      </trkpt>
      <trkpt lat="33.230127" lon="35.564442">
        <ele>369.7</ele>
        <time>2013-07-31T07:16:00Z</time>
        <sat>7</sat>
      </trkpt>
      <trkpt lat="33.230120" lon="35.564590">
        <ele>368.9</ele>
        <time>2013-07-31T07:16:02Z</time>
        <sat>6</sat>
      </trkpt>
      <trkpt lat="33.230110" lon="35.564727">
        <ele>368.1</ele>
        <time>2013-07-31T07:16:04Z</time>
        <sat>7</sat>
      </trkpt>
      <trkpt lat="33.230093" lon="35.564867">
        <ele>367.6</ele>
        <time>2013-07-31T07:16:06Z</time>
        <sat>7</sat>
      </trkpt>
      <trkpt lat="33.230068" lon="35.564987">
        <ele>366.5</ele>
        <time>2013-07-31T07:16:08Z</time>
        <sat>7</sat>
      </trkpt>
      <trkpt lat="33.230067" lon="35.565135">
        <ele>365.6</ele>
        <time>2013-07-31T07:16:11Z</time>
        <sat>7</sat>
      </trkpt>
      <trkpt lat="33.230105" lon="35.565240">
        <ele>365.3</ele>
        <time>2013-07-31T07:16:13Z</time>
        <sat>7</sat>
      </trkpt>
      <trkpt lat="33.230160" lon="35.565353">
        <ele>364.6</ele>
        <time>2013-07-31T07:16:16Z</time>
        <sat>7</sat>
      </trkpt>
      <trkpt lat="33.230058" lon="35.565328">
        <ele>361.6</ele>
        <time>2013-07-31T07:16:30Z</time>
        <sat>7</sat>
      </trkpt>
      <trkpt lat="33.229965" lon="35.565270">
        <ele>360.4</ele>
        <time>2013-07-31T07:16:35Z</time>
        <sat>7</sat>
      </trkpt>
      <trkpt lat="33.229868" lon="35.565218">
        <ele>359.1</ele>
        <time>2013-07-31T07:16:39Z</time>
        <sat>7</sat>
      </trkpt>
      <trkpt lat="33.229800" lon="35.565315">
        <ele>356.8</ele>
        <time>2013-07-31T07:16:44Z</time>
        <sat>7</sat>
      </trkpt>
      <trkpt lat="33.229850" lon="35.565408">
        <ele>356.0</ele>
        <time>2013-07-31T07:16:47Z</time>
        <sat>7</sat>
      </trkpt>
      <trkpt lat="33.229943" lon="35.565503">
        <ele>355.1</ele>
        <time>2013-07-31T07:16:50Z</time>
        <sat>7</sat>
      </trkpt>
      <trkpt lat="33.230020" lon="35.565622">
        <ele>354.6</ele>
        <time>2013-07-31T07:16:53Z</time>
        <sat>7</sat>
      </trkpt>
      <trkpt lat="33.230127" lon="35.565703">
        <ele>354.3</ele>
        <time>2013-07-31T07:16:56Z</time>
        <sat>7</sat>
      </trkpt>
      <trkpt lat="33.230207" lon="35.565837">
        <ele>353.8</ele>
        <time>2013-07-31T07:16:59Z</time>
        <sat>6</sat>
      </trkpt>
      <trkpt lat="33.230303" lon="35.565885">
        <ele>353.6</ele>
        <time>2013-07-31T07:17:02Z</time>
        <sat>6</sat>
      </trkpt>
      <trkpt lat="33.230402" lon="35.565947">
        <ele>353.4</ele>
        <time>2013-07-31T07:17:05Z</time>
        <sat>6</sat>
      </trkpt>
      <trkpt lat="33.230495" lon="35.565998">
        <ele>353.7</ele>
        <time>2013-07-31T07:17:08Z</time>
        <sat>6</sat>
      </trkpt>
      <trkpt lat="33.230603" lon="35.566090">
        <ele>353.3</ele>
        <time>2013-07-31T07:17:11Z</time>
        <sat>6</sat>
      </trkpt>
      <trkpt lat="33.230703" lon="35.566122">
        <ele>352.8</ele>
        <time>2013-07-31T07:17:13Z</time>
        <sat>6</sat>
      </trkpt>
      <trkpt lat="33.230788" lon="35.566180">
        <ele>353.1</ele>
        <time>2013-07-31T07:17:15Z</time>
        <sat>6</sat>
      </trkpt>
      <trkpt lat="33.230867" lon="35.566240">
        <ele>352.7</ele>
        <time>2013-07-31T07:17:17Z</time>
        <sat>6</sat>
      </trkpt>
      <trkpt lat="33.230957" lon="35.566322">
        <ele>351.9</ele>
        <time>2013-07-31T07:17:19Z</time>
        <sat>6</sat>
      </trkpt>
      <trkpt lat="33.231030" lon="35.566438">
        <ele>352.0</ele>
        <time>2013-07-31T07:17:21Z</time>
        <sat>6</sat>
      </trkpt>
      <trkpt lat="33.231088" lon="35.566522">
        <ele>351.7</ele>
        <time>2013-07-31T07:17:23Z</time>
        <sat>6</sat>
      </trkpt>
      <trkpt lat="33.231122" lon="35.566652">
        <ele>350.9</ele>
        <time>2013-07-31T07:17:27Z</time>
        <sat>6</sat>
      </trkpt>
      <trkpt lat="33.231133" lon="35.566787">
        <ele>350.2</ele>
        <time>2013-07-31T07:17:29Z</time>
        <sat>6</sat>
      </trkpt>
      <trkpt lat="33.231157" lon="35.566923">
        <ele>349.3</ele>
        <time>2013-07-31T07:17:32Z</time>
        <sat>6</sat>
      </trkpt>
      <trkpt lat="33.231137" lon="35.567082">
        <ele>348.5</ele>
        <time>2013-07-31T07:17:35Z</time>
        <sat>7</sat>
      </trkpt>
      <trkpt lat="33.231125" lon="35.567202">
        <ele>347.1</ele>
        <time>2013-07-31T07:17:37Z</time>
        <sat>7</sat>
      </trkpt>
      <trkpt lat="33.231105" lon="35.567330">
        <ele>346.4</ele>
        <time>2013-07-31T07:17:39Z</time>
        <sat>7</sat>
      </trkpt>
      <trkpt lat="33.231080" lon="35.567440">
        <ele>345.2</ele>
        <time>2013-07-31T07:17:41Z</time>
        <sat>7</sat>
      </trkpt>
      <trkpt lat="33.231077" lon="35.567590">
        <ele>343.9</ele>
        <time>2013-07-31T07:17:44Z</time>
        <sat>7</sat>
      </trkpt>
      <trkpt lat="33.231070" lon="35.567707">
        <ele>343.0</ele>
        <time>2013-07-31T07:17:46Z</time>
        <sat>7</sat>
      </trkpt>
      <trkpt lat="33.231073" lon="35.567820">
        <ele>342.6</ele>
        <time>2013-07-31T07:17:48Z</time>
        <sat>7</sat>
      </trkpt>
      <trkpt lat="33.231128" lon="35.567920">
        <ele>341.9</ele>
        <time>2013-07-31T07:17:50Z</time>
        <sat>7</sat>
      </trkpt>
      <trkpt lat="33.231205" lon="35.567995">
        <ele>341.6</ele>
        <time>2013-07-31T07:17:52Z</time>
        <sat>7</sat>
      </trkpt>
      <trkpt lat="33.231278" lon="35.568067">
        <ele>341.3</ele>
        <time>2013-07-31T07:17:54Z</time>
        <sat>7</sat>
      </trkpt>
      <trkpt lat="33.231342" lon="35.568195">
        <ele>342.5</ele>
        <time>2013-07-31T07:17:57Z</time>
        <sat>7</sat>
      </trkpt>
      <trkpt lat="33.231387" lon="35.568315">
        <ele>343.6</ele>
        <time>2013-07-31T07:18:00Z</time>
        <sat>7</sat>
      </trkpt>
      <trkpt lat="33.231440" lon="35.568407">
        <ele>344.5</ele>
        <time>2013-07-31T07:18:03Z</time>
        <sat>7</sat>
      </trkpt>
      <trkpt lat="33.231518" lon="35.568490">
        <ele>345.1</ele>
        <time>2013-07-31T07:18:06Z</time>
        <sat>7</sat>
      </trkpt>
      <trkpt lat="33.231600" lon="35.568568">
        <ele>345.8</ele>
        <time>2013-07-31T07:18:09Z</time>
        <sat>7</sat>
      </trkpt>
      <trkpt lat="33.231705" lon="35.568608">
        <ele>346.2</ele>
        <time>2013-07-31T07:18:12Z</time>
        <sat>7</sat>
      </trkpt>
      <trkpt lat="33.231808" lon="35.568655">
        <ele>346.3</ele>
        <time>2013-07-31T07:18:15Z</time>
        <sat>7</sat>
      </trkpt>
      <trkpt lat="33.231928" lon="35.568695">
        <ele>346.0</ele>
        <time>2013-07-31T07:18:18Z</time>
        <sat>7</sat>
      </trkpt>
      <trkpt lat="33.232022" lon="35.568720">
        <ele>345.5</ele>
        <time>2013-07-31T07:18:20Z</time>
        <sat>7</sat>
      </trkpt>
      <trkpt lat="33.232112" lon="35.568743">
        <ele>344.5</ele>
        <time>2013-07-31T07:18:22Z</time>
        <sat>6</sat>
      </trkpt>
      <trkpt lat="33.232203" lon="35.568773">
        <ele>343.8</ele>
        <time>2013-07-31T07:18:24Z</time>
        <sat>6</sat>
      </trkpt>
      <trkpt lat="33.232298" lon="35.568795">
        <ele>343.0</ele>
        <time>2013-07-31T07:18:26Z</time>
        <sat>6</sat>
      </trkpt>
      <trkpt lat="33.232405" lon="35.568782">
        <ele>341.9</ele>
        <time>2013-07-31T07:18:29Z</time>
        <sat>6</sat>
      </trkpt>
      <trkpt lat="33.232528" lon="35.568770">
        <ele>341.1</ele>
        <time>2013-07-31T07:18:33Z</time>
        <sat>6</sat>
      </trkpt>
      <trkpt lat="33.232628" lon="35.568765">
        <ele>341.8</ele>
        <time>2013-07-31T07:18:36Z</time>
        <sat>6</sat>
      </trkpt>
      <trkpt lat="33.232722" lon="35.568798">
        <ele>342.2</ele>
        <time>2013-07-31T07:18:40Z</time>
        <sat>6</sat>
      </trkpt>
      <trkpt lat="33.232797" lon="35.568903">
        <ele>342.1</ele>
        <time>2013-07-31T07:18:43Z</time>
        <sat>6</sat>
      </trkpt>
      <trkpt lat="33.232888" lon="35.568973">
        <ele>342.2</ele>
        <time>2013-07-31T07:18:46Z</time>
        <sat>6</sat>
      </trkpt>
      <trkpt lat="33.232985" lon="35.569063">
        <ele>342.3</ele>
        <time>2013-07-31T07:18:49Z</time>
        <sat>6</sat>
      </trkpt>
      <trkpt lat="33.233082" lon="35.569143">
        <ele>342.1</ele>
        <time>2013-07-31T07:18:52Z</time>
        <sat>6</sat>
      </trkpt>
      <trkpt lat="33.233158" lon="35.569235">
        <ele>342.2</ele>
        <time>2013-07-31T07:18:55Z</time>
        <sat>6</sat>
      </trkpt>
      <trkpt lat="33.233233" lon="35.569327">
        <ele>342.6</ele>
        <time>2013-07-31T07:18:58Z</time>
        <sat>6</sat>
      </trkpt>
      <trkpt lat="33.233220" lon="35.569470">
        <ele>341.9</ele>
        <time>2013-07-31T07:19:02Z</time>
        <sat>6</sat>
      </trkpt>
      <trkpt lat="33.233178" lon="35.569577">
        <ele>341.0</ele>
        <time>2013-07-31T07:19:07Z</time>
        <sat>6</sat>
      </trkpt>
      <trkpt lat="33.233080" lon="35.569537">
        <ele>339.9</ele>
        <time>2013-07-31T07:19:11Z</time>
        <sat>6</sat>
      </trkpt>
      <trkpt lat="33.232988" lon="35.569480">
        <ele>338.9</ele>
        <time>2013-07-31T07:19:13Z</time>
        <sat>6</sat>
      </trkpt>
      <trkpt lat="33.232893" lon="35.569388">
        <ele>338.8</ele>
        <time>2013-07-31T07:19:16Z</time>
        <sat>6</sat>
      </trkpt>
      <trkpt lat="33.232803" lon="35.569333">
        <ele>338.4</ele>
        <time>2013-07-31T07:19:19Z</time>
        <sat>6</sat>
      </trkpt>
      <trkpt lat="33.232702" lon="35.569283">
        <ele>337.3</ele>
        <time>2013-07-31T07:19:22Z</time>
        <sat>6</sat>
      </trkpt>
      <trkpt lat="33.232570" lon="35.569248">
        <ele>337.0</ele>
        <time>2013-07-31T07:19:25Z</time>
        <sat>6</sat>
      </trkpt>
      <trkpt lat="33.232462" lon="35.569260">
        <ele>336.4</ele>
        <time>2013-07-31T07:19:27Z</time>
        <sat>6</sat>
      </trkpt>
      <trkpt lat="33.232347" lon="35.569345">
        <ele>335.8</ele>
        <time>2013-07-31T07:19:29Z</time>
        <sat>5</sat>
      </trkpt>
      <trkpt lat="33.232278" lon="35.569425">
        <ele>334.5</ele>
        <time>2013-07-31T07:19:31Z</time>
        <sat>5</sat>
      </trkpt>
      <trkpt lat="33.232262" lon="35.569580">
        <ele>333.4</ele>
        <time>2013-07-31T07:19:34Z</time>
        <sat>6</sat>
      </trkpt>
      <trkpt lat="33.232267" lon="35.569702">
        <ele>332.5</ele>
        <time>2013-07-31T07:19:36Z</time>
        <sat>6</sat>
      </trkpt>
      <trkpt lat="33.232235" lon="35.569805">
        <ele>331.4</ele>
        <time>2013-07-31T07:19:38Z</time>
        <sat>6</sat>
      </trkpt>
      <trkpt lat="33.232162" lon="35.569872">
        <ele>330.5</ele>
        <time>2013-07-31T07:19:40Z</time>
        <sat>6</sat>
      </trkpt>
      <trkpt lat="33.232072" lon="35.569948">
        <ele>329.3</ele>
        <time>2013-07-31T07:19:42Z</time>
        <sat>6</sat>
      </trkpt>
      <trkpt lat="33.231995" lon="35.570030">
        <ele>328.9</ele>
        <time>2013-07-31T07:19:44Z</time>
        <sat>6</sat>
      </trkpt>
      <trkpt lat="33.231932" lon="35.570127">
        <ele>328.4</ele>
        <time>2013-07-31T07:19:46Z</time>
        <sat>6</sat>
      </trkpt>
      <trkpt lat="33.231845" lon="35.570240">
        <ele>327.3</ele>
        <time>2013-07-31T07:19:49Z</time>
        <sat>6</sat>
      </trkpt>
      <trkpt lat="33.231833" lon="35.570385">
        <ele>327.6</ele>
        <time>2013-07-31T07:19:53Z</time>
        <sat>6</sat>
      </trkpt>
      <trkpt lat="33.231923" lon="35.570453">
        <ele>327.9</ele>
        <time>2013-07-31T07:19:56Z</time>
        <sat>6</sat>
      </trkpt>
      <trkpt lat="33.232048" lon="35.570500">
        <ele>328.8</ele>
        <time>2013-07-31T07:19:59Z</time>
        <sat>6</sat>
      </trkpt>
      <trkpt lat="33.232097" lon="35.570637">
        <ele>328.7</ele>
        <time>2013-07-31T07:20:02Z</time>
        <sat>6</sat>
      </trkpt>
      <trkpt lat="33.232134" lon="35.570742">
        <ele>328.6</ele>
        <time>2013-07-31T07:20:04Z</time>
        <sat>6</sat>
      </trkpt>
      <trkpt lat="33.232177" lon="35.570837">
        <ele>328.9</ele>
        <time>2013-07-31T07:20:06Z</time>
        <sat>6</sat>
      </trkpt>
      <trkpt lat="33.232238" lon="35.570957">
        <ele>329.4</ele>
        <time>2013-07-31T07:20:09Z</time>
        <sat>6</sat>
      </trkpt>
      <trkpt lat="33.232298" lon="35.571062">
        <ele>330.5</ele>
        <time>2013-07-31T07:20:12Z</time>
        <sat>6</sat>
      </trkpt>
      <trkpt lat="33.232370" lon="35.571165">
        <ele>331.8</ele>
        <time>2013-07-31T07:20:16Z</time>
        <sat>6</sat>
      </trkpt>
      <trkpt lat="33.232407" lon="35.571292">
        <ele>334.1</ele>
        <time>2013-07-31T07:20:21Z</time>
        <sat>6</sat>
      </trkpt>
      <trkpt lat="33.232447" lon="35.571397">
        <ele>334.8</ele>
        <time>2013-07-31T07:20:24Z</time>
        <sat>6</sat>
      </trkpt>
      <trkpt lat="33.232540" lon="35.571432">
        <ele>335.3</ele>
        <time>2013-07-31T07:20:27Z</time>
        <sat>6</sat>
      </trkpt>
      <trkpt lat="33.232625" lon="35.571473">
        <ele>336.0</ele>
        <time>2013-07-31T07:20:30Z</time>
        <sat>6</sat>
      </trkpt>
      <trkpt lat="33.232708" lon="35.571543">
        <ele>336.5</ele>
        <time>2013-07-31T07:20:33Z</time>
        <sat>6</sat>
      </trkpt>
      <trkpt lat="33.232793" lon="35.571613">
        <ele>336.9</ele>
        <time>2013-07-31T07:20:36Z</time>
        <sat>6</sat>
      </trkpt>
      <trkpt lat="33.232895" lon="35.571637">
        <ele>337.4</ele>
        <time>2013-07-31T07:20:39Z</time>
        <sat>6</sat>
      </trkpt>
      <trkpt lat="33.232995" lon="35.571620">
        <ele>338.1</ele>
        <time>2013-07-31T07:20:42Z</time>
        <sat>6</sat>
      </trkpt>
      <trkpt lat="33.233102" lon="35.571627">
        <ele>338.0</ele>
        <time>2013-07-31T07:20:45Z</time>
        <sat>6</sat>
      </trkpt>
      <trkpt lat="33.233195" lon="35.571610">
        <ele>338.3</ele>
        <time>2013-07-31T07:20:48Z</time>
        <sat>6</sat>
      </trkpt>
      <trkpt lat="33.233298" lon="35.571583">
        <ele>338.9</ele>
        <time>2013-07-31T07:20:52Z</time>
        <sat>6</sat>
      </trkpt>
      <trkpt lat="33.233388" lon="35.571632">
        <ele>339.5</ele>
        <time>2013-07-31T07:20:55Z</time>
        <sat>6</sat>
      </trkpt>
      <trkpt lat="33.233500" lon="35.571652">
        <ele>339.9</ele>
        <time>2013-07-31T07:20:59Z</time>
        <sat>6</sat>
      </trkpt>
      <trkpt lat="33.233600" lon="35.571625">
        <ele>340.4</ele>
        <time>2013-07-31T07:21:03Z</time>
        <sat>6</sat>
      </trkpt>
      <trkpt lat="33.233697" lon="35.571663">
        <ele>341.9</ele>
        <time>2013-07-31T07:22:01Z</time>
        <sat>6</sat>
      </trkpt>
      <trkpt lat="33.233753" lon="35.571750">
        <ele>342.4</ele>
        <time>2013-07-31T07:22:04Z</time>
        <sat>6</sat>
      </trkpt>
      <trkpt lat="33.233840" lon="35.571827">
        <ele>343.8</ele>
        <time>2013-07-31T07:22:08Z</time>
        <sat>6</sat>
      </trkpt>
      <trkpt lat="33.233842" lon="35.571960">
        <ele>345.2</ele>
        <time>2013-07-31T07:22:13Z</time>
        <sat>6</sat>
      </trkpt>
      <trkpt lat="33.233827" lon="35.572073">
        <ele>345.5</ele>
        <time>2013-07-31T07:22:16Z</time>
        <sat>6</sat>
      </trkpt>
      <trkpt lat="33.233865" lon="35.572192">
        <ele>345.8</ele>
        <time>2013-07-31T07:22:19Z</time>
        <sat>6</sat>
      </trkpt>
      <trkpt lat="33.233912" lon="35.572300">
        <ele>347.0</ele>
        <time>2013-07-31T07:22:23Z</time>
        <sat>6</sat>
      </trkpt>
      <trkpt lat="33.233930" lon="35.572428">
        <ele>348.1</ele>
        <time>2013-07-31T07:22:28Z</time>
        <sat>6</sat>
      </trkpt>
      <trkpt lat="33.233992" lon="35.572543">
        <ele>348.3</ele>
        <time>2013-07-31T07:22:31Z</time>
        <sat>6</sat>
      </trkpt>
      <trkpt lat="33.234045" lon="35.572655">
        <ele>349.1</ele>
        <time>2013-07-31T07:22:34Z</time>
        <sat>6</sat>
      </trkpt>
      <trkpt lat="33.234128" lon="35.572738">
        <ele>350.0</ele>
        <time>2013-07-31T07:22:38Z</time>
        <sat>6</sat>
      </trkpt>
      <trkpt lat="33.234225" lon="35.572757">
        <ele>352.3</ele>
        <time>2013-07-31T07:22:44Z</time>
        <sat>6</sat>
      </trkpt>
      <trkpt lat="33.234320" lon="35.572725">
        <ele>354.1</ele>
        <time>2013-07-31T07:22:49Z</time>
        <sat>6</sat>
      </trkpt>
      <trkpt lat="33.234373" lon="35.572635">
        <ele>355.4</ele>
        <time>2013-07-31T07:22:55Z</time>
        <sat>6</sat>
      </trkpt>
      <trkpt lat="33.234448" lon="35.572548">
        <ele>356.0</ele>
        <time>2013-07-31T07:23:00Z</time>
        <sat>6</sat>
      </trkpt>
      <trkpt lat="33.234527" lon="35.572495">
        <ele>356.8</ele>
        <time>2013-07-31T07:23:04Z</time>
        <sat>6</sat>
      </trkpt>
      <trkpt lat="33.234610" lon="35.572420">
        <ele>358.3</ele>
        <time>2013-07-31T07:23:09Z</time>
        <sat>6</sat>
      </trkpt>
      <trkpt lat="33.234708" lon="35.572372">
        <ele>359.4</ele>
        <time>2013-07-31T07:23:14Z</time>
        <sat>6</sat>
      </trkpt>
      <trkpt lat="33.234803" lon="35.572423">
        <ele>360.3</ele>
        <time>2013-07-31T07:23:18Z</time>
        <sat>6</sat>
      </trkpt>
      <trkpt lat="33.234850" lon="35.572518">
        <ele>360.8</ele>
        <time>2013-07-31T07:23:22Z</time>
        <sat>6</sat>
      </trkpt>
      <trkpt lat="33.234890" lon="35.572638">
        <ele>361.6</ele>
        <time>2013-07-31T07:23:26Z</time>
        <sat>6</sat>
      </trkpt>
      <trkpt lat="33.234938" lon="35.572750">
        <ele>362.7</ele>
        <time>2013-07-31T07:23:31Z</time>
        <sat>6</sat>
      </trkpt>
      <trkpt lat="33.234960" lon="35.572858">
        <ele>363.4</ele>
        <time>2013-07-31T07:23:36Z</time>
        <sat>6</sat>
      </trkpt>
      <trkpt lat="33.235020" lon="35.572975">
        <ele>364.2</ele>
        <time>2013-07-31T07:23:41Z</time>
        <sat>6</sat>
      </trkpt>
      <trkpt lat="33.235055" lon="35.573090">
        <ele>364.8</ele>
        <time>2013-07-31T07:23:44Z</time>
        <sat>6</sat>
      </trkpt>
      <trkpt lat="33.235092" lon="35.573193">
        <ele>365.7</ele>
        <time>2013-07-31T07:23:49Z</time>
        <sat>6</sat>
      </trkpt>
      <trkpt lat="33.235152" lon="35.573273">
        <ele>365.8</ele>
        <time>2013-07-31T07:23:55Z</time>
        <sat>6</sat>
      </trkpt>
      <trkpt lat="33.235185" lon="35.573413">
        <ele>364.8</ele>
        <time>2013-07-31T07:24:17Z</time>
        <sat>6</sat>
      </trkpt>
      <trkpt lat="33.235252" lon="35.573487">
        <ele>364.7</ele>
        <time>2013-07-31T07:24:20Z</time>
        <sat>6</sat>
      </trkpt>
      <trkpt lat="33.235318" lon="35.573562">
        <ele>364.5</ele>
        <time>2013-07-31T07:24:26Z</time>
        <sat>6</sat>
      </trkpt>
      <trkpt lat="33.235203" lon="35.573480">
        <ele>366.6</ele>
        <time>2013-07-31T07:25:02Z</time>
        <sat>6</sat>
      </trkpt>
      <trkpt lat="33.235150" lon="35.573383">
        <ele>366.6</ele>
        <time>2013-07-31T07:25:07Z</time>
        <sat>6</sat>
      </trkpt>
      <trkpt lat="33.235130" lon="35.573267">
        <ele>366.6</ele>
        <time>2013-07-31T07:25:12Z</time>
        <sat>6</sat>
      </trkpt>
      <trkpt lat="33.235117" lon="35.573138">
        <ele>366.6</ele>
        <time>2013-07-31T07:25:17Z</time>
        <sat>6</sat>
      </trkpt>
      <trkpt lat="33.235230" lon="35.573135">
        <ele>366.5</ele>
        <time>2013-07-31T07:25:21Z</time>
        <sat>6</sat>
      </trkpt>
      <trkpt lat="33.235322" lon="35.573140">
        <ele>367.0</ele>
        <time>2013-07-31T07:25:24Z</time>
        <sat>6</sat>
      </trkpt>
      <trkpt lat="33.235432" lon="35.573195">
        <ele>367.8</ele>
        <time>2013-07-31T07:25:28Z</time>
        <sat>6</sat>
      </trkpt>
      <trkpt lat="33.235503" lon="35.573275">
        <ele>368.1</ele>
        <time>2013-07-31T07:25:31Z</time>
        <sat>6</sat>
      </trkpt>
      <trkpt lat="33.235577" lon="35.573370">
        <ele>368.4</ele>
        <time>2013-07-31T07:25:35Z</time>
        <sat>6</sat>
      </trkpt>
      <trkpt lat="33.235598" lon="35.573478">
        <ele>368.1</ele>
        <time>2013-07-31T07:25:38Z</time>
        <sat>6</sat>
      </trkpt>
      <trkpt lat="33.235682" lon="35.573585">
        <ele>368.0</ele>
        <time>2013-07-31T07:25:41Z</time>
        <sat>6</sat>
      </trkpt>
      <trkpt lat="33.235803" lon="35.573582">
        <ele>366.7</ele>
        <time>2013-07-31T07:25:44Z</time>
        <sat>6</sat>
      </trkpt>
      <trkpt lat="33.235900" lon="35.573553">
        <ele>365.9</ele>
        <time>2013-07-31T07:25:47Z</time>
        <sat>6</sat>
      </trkpt>
      <trkpt lat="33.235927" lon="35.573667">
        <ele>365.2</ele>
        <time>2013-07-31T07:25:50Z</time>
        <sat>6</sat>
      </trkpt>
      <trkpt lat="33.235860" lon="35.573805">
        <ele>364.1</ele>
        <time>2013-07-31T07:25:53Z</time>
        <sat>6</sat>
      </trkpt>
      <trkpt lat="33.235792" lon="35.573909">
        <ele>363.0</ele>
        <time>2013-07-31T07:25:55Z</time>
        <sat>6</sat>
      </trkpt>
      <trkpt lat="33.235722" lon="35.574010">
        <ele>362.4</ele>
        <time>2013-07-31T07:25:57Z</time>
        <sat>6</sat>
      </trkpt>
      <trkpt lat="33.235622" lon="35.574060">
        <ele>361.5</ele>
        <time>2013-07-31T07:25:59Z</time>
        <sat>6</sat>
      </trkpt>
      <trkpt lat="33.235528" lon="35.574053">
        <ele>361.9</ele>
        <time>2013-07-31T07:26:01Z</time>
        <sat>6</sat>
      </trkpt>
      <trkpt lat="33.235417" lon="35.574040">
        <ele>361.7</ele>
        <time>2013-07-31T07:26:04Z</time>
        <sat>6</sat>
      </trkpt>
      <trkpt lat="33.235300" lon="35.574013">
        <ele>361.1</ele>
        <time>2013-07-31T07:26:07Z</time>
        <sat>6</sat>
      </trkpt>
      <trkpt lat="33.235190" lon="35.573977">
        <ele>360.7</ele>
        <time>2013-07-31T07:26:10Z</time>
        <sat>6</sat>
      </trkpt>
      <trkpt lat="33.235087" lon="35.573950">
        <ele>360.7</ele>
        <time>2013-07-31T07:26:13Z</time>
        <sat>6</sat>
      </trkpt>
      <trkpt lat="33.234997" lon="35.573920">
        <ele>360.1</ele>
        <time>2013-07-31T07:26:15Z</time>
        <sat>6</sat>
      </trkpt>
      <trkpt lat="33.234918" lon="35.573858">
        <ele>359.8</ele>
        <time>2013-07-31T07:26:17Z</time>
        <sat>6</sat>
      </trkpt>
      <trkpt lat="33.234853" lon="35.573777">
        <ele>358.3</ele>
        <time>2013-07-31T07:26:19Z</time>
        <sat>6</sat>
      </trkpt>
      <trkpt lat="33.234795" lon="35.573628">
        <ele>357.8</ele>
        <time>2013-07-31T07:26:22Z</time>
        <sat>6</sat>
      </trkpt>
      <trkpt lat="33.234742" lon="35.573538">
        <ele>357.5</ele>
        <time>2013-07-31T07:26:24Z</time>
        <sat>6</sat>
      </trkpt>
      <trkpt lat="33.234648" lon="35.573508">
        <ele>356.9</ele>
        <time>2013-07-31T07:26:26Z</time>
        <sat>6</sat>
      </trkpt>
      <trkpt lat="33.234547" lon="35.573465">
        <ele>356.7</ele>
        <time>2013-07-31T07:26:28Z</time>
        <sat>6</sat>
      </trkpt>
      <trkpt lat="33.234452" lon="35.573413">
        <ele>355.8</ele>
        <time>2013-07-31T07:26:30Z</time>
        <sat>6</sat>
      </trkpt>
      <trkpt lat="33.234345" lon="35.573372">
        <ele>355.8</ele>
        <time>2013-07-31T07:26:32Z</time>
        <sat>6</sat>
      </trkpt>
      <trkpt lat="33.234255" lon="35.573303">
        <ele>355.7</ele>
        <time>2013-07-31T07:26:34Z</time>
        <sat>6</sat>
      </trkpt>
      <trkpt lat="33.234180" lon="35.573225">
        <ele>355.1</ele>
        <time>2013-07-31T07:26:36Z</time>
        <sat>6</sat>
      </trkpt>
      <trkpt lat="33.234083" lon="35.573207">
        <ele>354.8</ele>
        <time>2013-07-31T07:26:38Z</time>
        <sat>6</sat>
      </trkpt>
      <trkpt lat="33.233995" lon="35.573237">
        <ele>353.4</ele>
        <time>2013-07-31T07:26:40Z</time>
        <sat>6</sat>
      </trkpt>
      <trkpt lat="33.233928" lon="35.573310">
        <ele>353.0</ele>
        <time>2013-07-31T07:26:42Z</time>
        <sat>6</sat>
      </trkpt>
      <trkpt lat="33.233952" lon="35.573450">
        <ele>352.2</ele>
        <time>2013-07-31T07:26:45Z</time>
        <sat>6</sat>
      </trkpt>
      <trkpt lat="33.234012" lon="35.573548">
        <ele>351.6</ele>
        <time>2013-07-31T07:26:47Z</time>
        <sat>6</sat>
      </trkpt>
      <trkpt lat="33.234078" lon="35.573655">
        <ele>350.7</ele>
        <time>2013-07-31T07:26:49Z</time>
        <sat>6</sat>
      </trkpt>
      <trkpt lat="33.234145" lon="35.573763">
        <ele>349.8</ele>
        <time>2013-07-31T07:26:51Z</time>
        <sat>6</sat>
      </trkpt>
      <trkpt lat="33.234218" lon="35.573848">
        <ele>348.4</ele>
        <time>2013-07-31T07:26:53Z</time>
        <sat>6</sat>
      </trkpt>
      <trkpt lat="33.234320" lon="35.573937">
        <ele>347.9</ele>
        <time>2013-07-31T07:26:56Z</time>
        <sat>6</sat>
      </trkpt>
      <trkpt lat="33.234423" lon="35.574047">
        <ele>347.0</ele>
        <time>2013-07-31T07:26:59Z</time>
        <sat>6</sat>
      </trkpt>
      <trkpt lat="33.234507" lon="35.574145">
        <ele>346.0</ele>
        <time>2013-07-31T07:27:01Z</time>
        <sat>6</sat>
      </trkpt>
      <trkpt lat="33.234585" lon="35.574232">
        <ele>345.3</ele>
        <time>2013-07-31T07:27:03Z</time>
        <sat>6</sat>
      </trkpt>
      <trkpt lat="33.234673" lon="35.574295">
        <ele>342.4</ele>
        <time>2013-07-31T07:30:40Z</time>
        <sat>7</sat>
      </trkpt>
      <trkpt lat="33.234762" lon="35.574343">
        <ele>342.2</ele>
        <time>2013-07-31T07:30:45Z</time>
        <sat>6</sat>
      </trkpt>
      <trkpt lat="33.234858" lon="35.574408">
        <ele>342.3</ele>
        <time>2013-07-31T07:30:49Z</time>
        <sat>6</sat>
      </trkpt>
      <trkpt lat="33.234970" lon="35.574428">
        <ele>342.4</ele>
        <time>2013-07-31T07:30:53Z</time>
        <sat>7</sat>
      </trkpt>
      <trkpt lat="33.235075" lon="35.574445">
        <ele>343.4</ele>
        <time>2013-07-31T07:30:58Z</time>
        <sat>7</sat>
      </trkpt>
      <trkpt lat="33.235168" lon="35.574470">
        <ele>343.9</ele>
        <time>2013-07-31T07:31:03Z</time>
        <sat>7</sat>
      </trkpt>
      <trkpt lat="33.235255" lon="35.574500">
        <ele>344.2</ele>
        <time>2013-07-31T07:31:07Z</time>
        <sat>7</sat>
      </trkpt>
      <trkpt lat="33.235363" lon="35.574533">
        <ele>344.5</ele>
        <time>2013-07-31T07:31:11Z</time>
        <sat>7</sat>
      </trkpt>
      <trkpt lat="33.235470" lon="35.574540">
        <ele>344.5</ele>
        <time>2013-07-31T07:31:15Z</time>
        <sat>7</sat>
      </trkpt>
      <trkpt lat="33.235563" lon="35.574513">
        <ele>346.0</ele>
        <time>2013-07-31T07:31:21Z</time>
        <sat>7</sat>
      </trkpt>
      <trkpt lat="33.235670" lon="35.574520">
        <ele>345.6</ele>
        <time>2013-07-31T07:31:25Z</time>
        <sat>7</sat>
      </trkpt>
      <trkpt lat="33.235770" lon="35.574522">
        <ele>345.8</ele>
        <time>2013-07-31T07:31:27Z</time>
        <sat>7</sat>
      </trkpt>
      <trkpt lat="33.235880" lon="35.574525">
        <ele>345.9</ele>
        <time>2013-07-31T07:31:30Z</time>
        <sat>7</sat>
      </trkpt>
      <trkpt lat="33.235988" lon="35.574527">
        <ele>346.7</ele>
        <time>2013-07-31T07:31:35Z</time>
        <sat>7</sat>
      </trkpt>
      <trkpt lat="33.236090" lon="35.574553">
        <ele>347.0</ele>
        <time>2013-07-31T07:31:39Z</time>
        <sat>7</sat>
      </trkpt>
      <trkpt lat="33.236208" lon="35.574533">
        <ele>347.2</ele>
        <time>2013-07-31T07:31:44Z</time>
        <sat>7</sat>
      </trkpt>
      <trkpt lat="33.236305" lon="35.574517">
        <ele>347.5</ele>
        <time>2013-07-31T07:31:48Z</time>
        <sat>7</sat>
      </trkpt>
      <trkpt lat="33.236413" lon="35.574515">
        <ele>347.1</ele>
        <time>2013-07-31T07:31:51Z</time>
        <sat>7</sat>
      </trkpt>
      <trkpt lat="33.236537" lon="35.574475">
        <ele>346.8</ele>
        <time>2013-07-31T07:31:54Z</time>
        <sat>7</sat>
      </trkpt>
      <trkpt lat="33.236650" lon="35.574418">
        <ele>346.3</ele>
        <time>2013-07-31T07:31:57Z</time>
        <sat>7</sat>
      </trkpt>
      <trkpt lat="33.236740" lon="35.574347">
        <ele>346.5</ele>
        <time>2013-07-31T07:32:00Z</time>
        <sat>7</sat>
      </trkpt>
      <trkpt lat="33.236803" lon="35.574265">
        <ele>346.9</ele>
        <time>2013-07-31T07:32:03Z</time>
        <sat>7</sat>
      </trkpt>
      <trkpt lat="33.236842" lon="35.574165">
        <ele>347.6</ele>
        <time>2013-07-31T07:32:07Z</time>
        <sat>8</sat>
      </trkpt>
      <trkpt lat="33.236900" lon="35.574078">
        <ele>348.3</ele>
        <time>2013-07-31T07:32:11Z</time>
        <sat>8</sat>
      </trkpt>
      <trkpt lat="33.236947" lon="35.573973">
        <ele>348.8</ele>
        <time>2013-07-31T07:32:15Z</time>
        <sat>8</sat>
      </trkpt>
      <trkpt lat="33.236993" lon="35.573872">
        <ele>348.6</ele>
        <time>2013-07-31T07:32:18Z</time>
        <sat>8</sat>
      </trkpt>
      <trkpt lat="33.237030" lon="35.573727">
        <ele>348.0</ele>
        <time>2013-07-31T07:32:21Z</time>
        <sat>7</sat>
      </trkpt>
      <trkpt lat="33.237012" lon="35.573568">
        <ele>347.9</ele>
        <time>2013-07-31T07:32:24Z</time>
        <sat>7</sat>
      </trkpt>
      <trkpt lat="33.236980" lon="35.573467">
        <ele>347.6</ele>
        <time>2013-07-31T07:32:26Z</time>
        <sat>7</sat>
      </trkpt>
      <trkpt lat="33.236935" lon="35.573370">
        <ele>347.2</ele>
        <time>2013-07-31T07:32:28Z</time>
        <sat>7</sat>
      </trkpt>
      <trkpt lat="33.236887" lon="35.573277">
        <ele>347.3</ele>
        <time>2013-07-31T07:32:31Z</time>
        <sat>7</sat>
      </trkpt>
      <trkpt lat="33.237013" lon="35.573345">
        <ele>346.6</ele>
        <time>2013-07-31T07:32:49Z</time>
        <sat>8</sat>
      </trkpt>
      <trkpt lat="33.237127" lon="35.573378">
        <ele>346.2</ele>
        <time>2013-07-31T07:32:51Z</time>
        <sat>8</sat>
      </trkpt>
      <trkpt lat="33.237252" lon="35.573400">
        <ele>344.8</ele>
        <time>2013-07-31T07:32:53Z</time>
        <sat>8</sat>
      </trkpt>
      <trkpt lat="33.237337" lon="35.573443">
        <ele>343.1</ele>
        <time>2013-07-31T07:32:55Z</time>
        <sat>7</sat>
      </trkpt>
      <trkpt lat="33.237342" lon="35.573582">
        <ele>342.0</ele>
        <time>2013-07-31T07:32:59Z</time>
        <sat>8</sat>
      </trkpt>
      <trkpt lat="33.237348" lon="35.573693">
        <ele>340.8</ele>
        <time>2013-07-31T07:33:01Z</time>
        <sat>7</sat>
      </trkpt>
      <trkpt lat="33.237348" lon="35.573818">
        <ele>340.0</ele>
        <time>2013-07-31T07:33:03Z</time>
        <sat>8</sat>
      </trkpt>
      <trkpt lat="33.237348" lon="35.573940">
        <ele>339.2</ele>
        <time>2013-07-31T07:33:05Z</time>
        <sat>8</sat>
      </trkpt>
      <trkpt lat="33.237342" lon="35.574072">
        <ele>337.9</ele>
        <time>2013-07-31T07:33:07Z</time>
        <sat>8</sat>
      </trkpt>
      <trkpt lat="33.237313" lon="35.574205">
        <ele>337.8</ele>
        <time>2013-07-31T07:33:09Z</time>
        <sat>8</sat>
      </trkpt>
      <trkpt lat="33.237265" lon="35.574318">
        <ele>337.2</ele>
        <time>2013-07-31T07:33:11Z</time>
        <sat>8</sat>
      </trkpt>
      <trkpt lat="33.237213" lon="35.574407">
        <ele>336.4</ele>
        <time>2013-07-31T07:33:13Z</time>
        <sat>8</sat>
      </trkpt>
      <trkpt lat="33.237132" lon="35.574530">
        <ele>335.7</ele>
        <time>2013-07-31T07:33:16Z</time>
        <sat>8</sat>
      </trkpt>
      <trkpt lat="33.237037" lon="35.574628">
        <ele>335.1</ele>
        <time>2013-07-31T07:33:19Z</time>
        <sat>8</sat>
      </trkpt>
      <trkpt lat="33.236995" lon="35.574725">
        <ele>334.6</ele>
        <time>2013-07-31T07:33:23Z</time>
        <sat>8</sat>
      </trkpt>
      <trkpt lat="33.236908" lon="35.574808">
        <ele>333.8</ele>
        <time>2013-07-31T07:33:28Z</time>
        <sat>8</sat>
      </trkpt>
      <trkpt lat="33.236813" lon="35.574880">
        <ele>332.8</ele>
        <time>2013-07-31T07:33:32Z</time>
        <sat>8</sat>
      </trkpt>
      <trkpt lat="33.236725" lon="35.574958">
        <ele>332.0</ele>
        <time>2013-07-31T07:33:58Z</time>
        <sat>8</sat>
      </trkpt>
      <trkpt lat="33.236645" lon="35.575008">
        <ele>331.9</ele>
        <time>2013-07-31T07:34:01Z</time>
        <sat>8</sat>
      </trkpt>
      <trkpt lat="33.236543" lon="35.575067">
        <ele>331.4</ele>
        <time>2013-07-31T07:34:04Z</time>
        <sat>8</sat>
      </trkpt>
      <trkpt lat="33.236425" lon="35.575145">
        <ele>330.8</ele>
        <time>2013-07-31T07:34:07Z</time>
        <sat>8</sat>
      </trkpt>
      <trkpt lat="33.236320" lon="35.575198">
        <ele>330.0</ele>
        <time>2013-07-31T07:34:09Z</time>
        <sat>8</sat>
      </trkpt>
      <trkpt lat="33.236213" lon="35.575257">
        <ele>329.2</ele>
        <time>2013-07-31T07:34:11Z</time>
        <sat>8</sat>
      </trkpt>
      <trkpt lat="33.236107" lon="35.575285">
        <ele>328.1</ele>
        <time>2013-07-31T07:34:13Z</time>
        <sat>8</sat>
      </trkpt>
      <trkpt lat="33.235982" lon="35.575283">
        <ele>326.8</ele>
        <time>2013-07-31T07:34:16Z</time>
        <sat>8</sat>
      </trkpt>
      <trkpt lat="33.235868" lon="35.575312">
        <ele>326.1</ele>
        <time>2013-07-31T07:34:18Z</time>
        <sat>8</sat>
      </trkpt>
      <trkpt lat="33.235738" lon="35.575335">
        <ele>324.7</ele>
        <time>2013-07-31T07:34:20Z</time>
        <sat>8</sat>
      </trkpt>
      <trkpt lat="33.235630" lon="35.575338">
        <ele>323.5</ele>
        <time>2013-07-31T07:34:22Z</time>
        <sat>7</sat>
      </trkpt>
      <trkpt lat="33.235538" lon="35.575323">
        <ele>321.9</ele>
        <time>2013-07-31T07:34:24Z</time>
        <sat>8</sat>
      </trkpt>
      <trkpt lat="33.235423" lon="35.575307">
        <ele>321.0</ele>
        <time>2013-07-31T07:34:26Z</time>
        <sat>8</sat>
      </trkpt>
      <trkpt lat="33.235315" lon="35.575287">
        <ele>319.9</ele>
        <time>2013-07-31T07:34:28Z</time>
        <sat>7</sat>
      </trkpt>
      <trkpt lat="33.235202" lon="35.575267">
        <ele>319.4</ele>
        <time>2013-07-31T07:34:30Z</time>
        <sat>7</sat>
      </trkpt>
      <trkpt lat="33.235065" lon="35.575242">
        <ele>318.6</ele>
        <time>2013-07-31T07:34:32Z</time>
        <sat>7</sat>
      </trkpt>
      <trkpt lat="33.234935" lon="35.575220">
        <ele>318.1</ele>
        <time>2013-07-31T07:34:34Z</time>
        <sat>7</sat>
      </trkpt>
      <trkpt lat="33.234802" lon="35.575215">
        <ele>316.8</ele>
        <time>2013-07-31T07:34:36Z</time>
        <sat>7</sat>
      </trkpt>
      <trkpt lat="33.234675" lon="35.575197">
        <ele>316.7</ele>
        <time>2013-07-31T07:34:38Z</time>
        <sat>8</sat>
      </trkpt>
      <trkpt lat="33.234553" lon="35.575167">
        <ele>315.9</ele>
        <time>2013-07-31T07:34:40Z</time>
        <sat>7</sat>
      </trkpt>
      <trkpt lat="33.234428" lon="35.575143">
        <ele>315.7</ele>
        <time>2013-07-31T07:34:42Z</time>
        <sat>7</sat>
      </trkpt>
      <trkpt lat="33.234293" lon="35.575098">
        <ele>314.7</ele>
        <time>2013-07-31T07:34:44Z</time>
        <sat>8</sat>
      </trkpt>
      <trkpt lat="33.234158" lon="35.575033">
        <ele>314.2</ele>
        <time>2013-07-31T07:34:46Z</time>
        <sat>8</sat>
      </trkpt>
      <trkpt lat="33.234017" lon="35.574960">
        <ele>313.1</ele>
        <time>2013-07-31T07:34:48Z</time>
        <sat>8</sat>
      </trkpt>
      <trkpt lat="33.233870" lon="35.574878">
        <ele>311.9</ele>
        <time>2013-07-31T07:34:50Z</time>
        <sat>8</sat>
      </trkpt>
      <trkpt lat="33.233747" lon="35.574767">
        <ele>311.2</ele>
        <time>2013-07-31T07:34:52Z</time>
        <sat>7</sat>
      </trkpt>
      <trkpt lat="33.233613" lon="35.574662">
        <ele>310.6</ele>
        <time>2013-07-31T07:34:54Z</time>
        <sat>8</sat>
      </trkpt>
      <trkpt lat="33.233495" lon="35.574560">
        <ele>309.9</ele>
        <time>2013-07-31T07:34:56Z</time>
        <sat>8</sat>
      </trkpt>
      <trkpt lat="33.233392" lon="35.574473">
        <ele>310.1</ele>
        <time>2013-07-31T07:34:58Z</time>
        <sat>8</sat>
      </trkpt>
      <trkpt lat="33.233293" lon="35.574417">
        <ele>309.9</ele>
        <time>2013-07-31T07:35:00Z</time>
        <sat>8</sat>
      </trkpt>
      <trkpt lat="33.233192" lon="35.574358">
        <ele>309.3</ele>
        <time>2013-07-31T07:35:02Z</time>
        <sat>8</sat>
      </trkpt>
      <trkpt lat="33.233107" lon="35.574313">
        <ele>309.0</ele>
        <time>2013-07-31T07:35:04Z</time>
        <sat>7</sat>
      </trkpt>
      <trkpt lat="33.233013" lon="35.574270">
        <ele>309.1</ele>
        <time>2013-07-31T07:35:06Z</time>
        <sat>7</sat>
      </trkpt>
      <trkpt lat="33.232893" lon="35.574223">
        <ele>308.2</ele>
        <time>2013-07-31T07:35:08Z</time>
        <sat>7</sat>
      </trkpt>
      <trkpt lat="33.232793" lon="35.574170">
        <ele>306.9</ele>
        <time>2013-07-31T07:35:10Z</time>
        <sat>8</sat>
      </trkpt>
      <trkpt lat="33.232705" lon="35.574128">
        <ele>305.9</ele>
        <time>2013-07-31T07:35:12Z</time>
        <sat>8</sat>
      </trkpt>
      <trkpt lat="33.232610" lon="35.574083">
        <ele>304.3</ele>
        <time>2013-07-31T07:35:14Z</time>
        <sat>8</sat>
      </trkpt>
      <trkpt lat="33.232518" lon="35.574005">
        <ele>303.3</ele>
        <time>2013-07-31T07:35:16Z</time>
        <sat>8</sat>
      </trkpt>
      <trkpt lat="33.232433" lon="35.573909">
        <ele>302.2</ele>
        <time>2013-07-31T07:35:18Z</time>
        <sat>8</sat>
      </trkpt>
      <trkpt lat="33.232342" lon="35.573810">
        <ele>301.3</ele>
        <time>2013-07-31T07:35:20Z</time>
        <sat>8</sat>
      </trkpt>
      <trkpt lat="33.232258" lon="35.573723">
        <ele>299.9</ele>
        <time>2013-07-31T07:35:22Z</time>
        <sat>8</sat>
      </trkpt>
      <trkpt lat="33.232165" lon="35.573635">
        <ele>298.0</ele>
        <time>2013-07-31T07:35:25Z</time>
        <sat>8</sat>
      </trkpt>
      <trkpt lat="33.232083" lon="35.573530">
        <ele>297.2</ele>
        <time>2013-07-31T07:35:28Z</time>
        <sat>8</sat>
      </trkpt>
      <trkpt lat="33.232007" lon="35.573400">
        <ele>295.3</ele>
        <time>2013-07-31T07:35:31Z</time>
        <sat>8</sat>
      </trkpt>
      <trkpt lat="33.231945" lon="35.573287">
        <ele>295.2</ele>
        <time>2013-07-31T07:35:33Z</time>
        <sat>8</sat>
      </trkpt>
      <trkpt lat="33.231888" lon="35.573155">
        <ele>294.0</ele>
        <time>2013-07-31T07:35:35Z</time>
        <sat>8</sat>
      </trkpt>
      <trkpt lat="33.231808" lon="35.573030">
        <ele>293.3</ele>
        <time>2013-07-31T07:35:37Z</time>
        <sat>8</sat>
      </trkpt>
      <trkpt lat="33.231708" lon="35.572925">
        <ele>292.0</ele>
        <time>2013-07-31T07:35:39Z</time>
        <sat>8</sat>
      </trkpt>
      <trkpt lat="33.231600" lon="35.572830">
        <ele>291.0</ele>
        <time>2013-07-31T07:35:41Z</time>
        <sat>7</sat>
      </trkpt>
      <trkpt lat="33.231510" lon="35.572745">
        <ele>290.4</ele>
        <time>2013-07-31T07:35:43Z</time>
        <sat>8</sat>
      </trkpt>
      <trkpt lat="33.231422" lon="35.572660">
        <ele>289.4</ele>
        <time>2013-07-31T07:35:45Z</time>
        <sat>8</sat>
      </trkpt>
      <trkpt lat="33.231342" lon="35.572583">
        <ele>288.6</ele>
        <time>2013-07-31T07:35:47Z</time>
        <sat>8</sat>
      </trkpt>
      <trkpt lat="33.231258" lon="35.572515">
        <ele>287.6</ele>
        <time>2013-07-31T07:35:49Z</time>
        <sat>8</sat>
      </trkpt>
      <trkpt lat="33.231173" lon="35.572415">
        <ele>286.7</ele>
        <time>2013-07-31T07:35:51Z</time>
        <sat>8</sat>
      </trkpt>
      <trkpt lat="33.231088" lon="35.572315">
        <ele>284.7</ele>
        <time>2013-07-31T07:35:53Z</time>
        <sat>8</sat>
      </trkpt>
      <trkpt lat="33.230985" lon="35.572255">
        <ele>284.6</ele>
        <time>2013-07-31T07:35:55Z</time>
        <sat>8</sat>
      </trkpt>
      <trkpt lat="33.230873" lon="35.572198">
        <ele>283.8</ele>
        <time>2013-07-31T07:35:57Z</time>
        <sat>8</sat>
      </trkpt>
      <trkpt lat="33.230750" lon="35.572135">
        <ele>283.2</ele>
        <time>2013-07-31T07:35:59Z</time>
        <sat>8</sat>
      </trkpt>
      <trkpt lat="33.230623" lon="35.572075">
        <ele>281.1</ele>
        <time>2013-07-31T07:36:01Z</time>
        <sat>8</sat>
      </trkpt>
      <trkpt lat="33.230515" lon="35.572025">
        <ele>280.4</ele>
        <time>2013-07-31T07:36:03Z</time>
        <sat>8</sat>
      </trkpt>
      <trkpt lat="33.230412" lon="35.571988">
        <ele>279.8</ele>
        <time>2013-07-31T07:36:05Z</time>
        <sat>7</sat>
      </trkpt>
      <trkpt lat="33.230308" lon="35.571978">
        <ele>279.1</ele>
        <time>2013-07-31T07:36:07Z</time>
        <sat>7</sat>
      </trkpt>
      <trkpt lat="33.230198" lon="35.571942">
        <ele>278.1</ele>
        <time>2013-07-31T07:36:09Z</time>
        <sat>8</sat>
      </trkpt>
      <trkpt lat="33.230078" lon="35.571923">
        <ele>276.7</ele>
        <time>2013-07-31T07:36:12Z</time>
        <sat>8</sat>
      </trkpt>
      <trkpt lat="33.229978" lon="35.571935">
        <ele>275.5</ele>
        <time>2013-07-31T07:36:15Z</time>
        <sat>8</sat>
      </trkpt>
      <trkpt lat="33.229888" lon="35.571918">
        <ele>274.8</ele>
        <time>2013-07-31T07:36:18Z</time>
        <sat>8</sat>
      </trkpt>
      <trkpt lat="33.229803" lon="35.571850">
        <ele>270.2</ele>
        <time>2013-07-31T07:36:47Z</time>
        <sat>8</sat>
      </trkpt>
      <trkpt lat="33.229682" lon="35.571830">
        <ele>270.3</ele>
        <time>2013-07-31T07:36:50Z</time>
        <sat>8</sat>
      </trkpt>
      <trkpt lat="33.229552" lon="35.571855">
        <ele>270.5</ele>
        <time>2013-07-31T07:36:53Z</time>
        <sat>8</sat>
      </trkpt>
      <trkpt lat="33.229458" lon="35.571870">
        <ele>269.7</ele>
        <time>2013-07-31T07:36:55Z</time>
        <sat>8</sat>
      </trkpt>
      <trkpt lat="33.229355" lon="35.571877">
        <ele>269.1</ele>
        <time>2013-07-31T07:36:57Z</time>
        <sat>8</sat>
      </trkpt>
      <trkpt lat="33.229248" lon="35.571898">
        <ele>268.8</ele>
        <time>2013-07-31T07:36:59Z</time>
        <sat>8</sat>
      </trkpt>
      <trkpt lat="33.229145" lon="35.571918">
        <ele>268.0</ele>
        <time>2013-07-31T07:37:01Z</time>
        <sat>8</sat>
      </trkpt>
      <trkpt lat="33.229023" lon="35.571942">
        <ele>267.5</ele>
        <time>2013-07-31T07:37:03Z</time>
        <sat>8</sat>
      </trkpt>
      <trkpt lat="33.228885" lon="35.571943">
        <ele>266.4</ele>
        <time>2013-07-31T07:37:05Z</time>
        <sat>8</sat>
      </trkpt>
      <trkpt lat="33.228737" lon="35.571918">
        <ele>265.7</ele>
        <time>2013-07-31T07:37:07Z</time>
        <sat>8</sat>
      </trkpt>
      <trkpt lat="33.228605" lon="35.571877">
        <ele>265.1</ele>
        <time>2013-07-31T07:37:09Z</time>
        <sat>8</sat>
      </trkpt>
      <trkpt lat="33.228502" lon="35.571833">
        <ele>264.6</ele>
        <time>2013-07-31T07:37:11Z</time>
        <sat>8</sat>
      </trkpt>
      <trkpt lat="33.228398" lon="35.571795">
        <ele>264.2</ele>
        <time>2013-07-31T07:37:13Z</time>
        <sat>8</sat>
      </trkpt>
      <trkpt lat="33.228293" lon="35.571762">
        <ele>262.7</ele>
        <time>2013-07-31T07:37:15Z</time>
        <sat>8</sat>
      </trkpt>
      <trkpt lat="33.228197" lon="35.571708">
        <ele>262.1</ele>
        <time>2013-07-31T07:37:17Z</time>
        <sat>8</sat>
      </trkpt>
      <trkpt lat="33.228112" lon="35.571640">
        <ele>261.0</ele>
        <time>2013-07-31T07:37:19Z</time>
        <sat>8</sat>
      </trkpt>
      <trkpt lat="33.228022" lon="35.571548">
        <ele>259.9</ele>
        <time>2013-07-31T07:37:21Z</time>
        <sat>8</sat>
      </trkpt>
      <trkpt lat="33.227920" lon="35.571425">
        <ele>259.2</ele>
        <time>2013-07-31T07:37:23Z</time>
        <sat>8</sat>
      </trkpt>
      <trkpt lat="33.227825" lon="35.571305">
        <ele>258.2</ele>
        <time>2013-07-31T07:37:25Z</time>
        <sat>8</sat>
      </trkpt>
      <trkpt lat="33.227750" lon="35.571183">
        <ele>257.5</ele>
        <time>2013-07-31T07:37:27Z</time>
        <sat>8</sat>
      </trkpt>
      <trkpt lat="33.227707" lon="35.571048">
        <ele>257.1</ele>
        <time>2013-07-31T07:37:29Z</time>
        <sat>8</sat>
      </trkpt>
      <trkpt lat="33.227667" lon="35.570928">
        <ele>256.2</ele>
        <time>2013-07-31T07:37:31Z</time>
        <sat>8</sat>
      </trkpt>
      <trkpt lat="33.227588" lon="35.570808">
        <ele>255.3</ele>
        <time>2013-07-31T07:37:34Z</time>
        <sat>8</sat>
      </trkpt>
      <trkpt lat="33.227505" lon="35.570730">
        <ele>253.7</ele>
        <time>2013-07-31T07:37:37Z</time>
        <sat>8</sat>
      </trkpt>
      <trkpt lat="33.227462" lon="35.570835">
        <ele>251.0</ele>
        <time>2013-07-31T07:37:45Z</time>
        <sat>8</sat>
      </trkpt>
      <trkpt lat="33.227478" lon="35.570950">
        <ele>250.1</ele>
        <time>2013-07-31T07:37:51Z</time>
        <sat>8</sat>
      </trkpt>
      <trkpt lat="33.227460" lon="35.571065">
        <ele>248.8</ele>
        <time>2013-07-31T07:38:55Z</time>
        <sat>8</sat>
      </trkpt>
      <trkpt lat="33.227410" lon="35.571158">
        <ele>247.7</ele>
        <time>2013-07-31T07:39:14Z</time>
        <sat>8</sat>
      </trkpt>
      <trkpt lat="33.227333" lon="35.571232">
        <ele>241.9</ele>
        <time>2013-07-31T07:40:37Z</time>
        <sat>7</sat>
      </trkpt>
      <trkpt lat="33.227272" lon="35.571320">
        <ele>240.2</ele>
        <time>2013-07-31T07:41:35Z</time>
        <sat>7</sat>
      </trkpt>
      <trkpt lat="33.227230" lon="35.571418">
        <ele>240.3</ele>
        <time>2013-07-31T07:41:43Z</time>
        <sat>7</sat>
      </trkpt>
      <trkpt lat="33.227175" lon="35.571298">
        <ele>240.4</ele>
        <time>2013-07-31T07:42:03Z</time>
        <sat>9</sat>
      </trkpt>
      <trkpt lat="33.227133" lon="35.571175">
        <ele>241.2</ele>
        <time>2013-07-31T07:42:07Z</time>
        <sat>8</sat>
      </trkpt>
      <trkpt lat="33.227108" lon="35.571070">
        <ele>241.4</ele>
        <time>2013-07-31T07:42:10Z</time>
        <sat>9</sat>
      </trkpt>
      <trkpt lat="33.227075" lon="35.570962">
        <ele>241.9</ele>
        <time>2013-07-31T07:42:13Z</time>
        <sat>9</sat>
      </trkpt>
      <trkpt lat="33.227045" lon="35.570847">
        <ele>242.3</ele>
        <time>2013-07-31T07:42:16Z</time>
        <sat>9</sat>
      </trkpt>
      <trkpt lat="33.227013" lon="35.570737">
        <ele>242.8</ele>
        <time>2013-07-31T07:42:19Z</time>
        <sat>9</sat>
      </trkpt>
      <trkpt lat="33.226978" lon="35.570605">
        <ele>243.6</ele>
        <time>2013-07-31T07:42:23Z</time>
        <sat>9</sat>
      </trkpt>
      <trkpt lat="33.226947" lon="35.570480">
        <ele>244.2</ele>
        <time>2013-07-31T07:42:27Z</time>
        <sat>9</sat>
      </trkpt>
      <trkpt lat="33.226933" lon="35.570338">
        <ele>244.6</ele>
        <time>2013-07-31T07:42:31Z</time>
        <sat>9</sat>
      </trkpt>
      <trkpt lat="33.226927" lon="35.570212">
        <ele>244.9</ele>
        <time>2013-07-31T07:42:34Z</time>
        <sat>9</sat>
      </trkpt>
      <trkpt lat="33.226900" lon="35.570095">
        <ele>245.4</ele>
        <time>2013-07-31T07:42:37Z</time>
        <sat>9</sat>
      </trkpt>
      <trkpt lat="33.226865" lon="35.569985">
        <ele>246.0</ele>
        <time>2013-07-31T07:42:40Z</time>
        <sat>9</sat>
      </trkpt>
      <trkpt lat="33.226833" lon="35.569877">
        <ele>246.8</ele>
        <time>2013-07-31T07:42:43Z</time>
        <sat>9</sat>
      </trkpt>
      <trkpt lat="33.226803" lon="35.569773">
        <ele>247.3</ele>
        <time>2013-07-31T07:42:46Z</time>
        <sat>9</sat>
      </trkpt>
      <trkpt lat="33.226780" lon="35.569633">
        <ele>247.9</ele>
        <time>2013-07-31T07:42:50Z</time>
        <sat>9</sat>
      </trkpt>
      <trkpt lat="33.226805" lon="35.569528">
        <ele>248.4</ele>
        <time>2013-07-31T07:42:53Z</time>
        <sat>9</sat>
      </trkpt>
      <trkpt lat="33.226803" lon="35.569393">
        <ele>248.7</ele>
        <time>2013-07-31T07:42:57Z</time>
        <sat>9</sat>
      </trkpt>
      <trkpt lat="33.226720" lon="35.569273">
        <ele>248.6</ele>
        <time>2013-07-31T07:43:00Z</time>
        <sat>9</sat>
      </trkpt>
      <trkpt lat="33.226632" lon="35.569187">
        <ele>248.1</ele>
        <time>2013-07-31T07:43:02Z</time>
        <sat>9</sat>
      </trkpt>
      <trkpt lat="33.226525" lon="35.569087">
        <ele>247.3</ele>
        <time>2013-07-31T07:43:04Z</time>
        <sat>9</sat>
      </trkpt>
      <trkpt lat="33.226403" lon="35.568963">
        <ele>246.3</ele>
        <time>2013-07-31T07:43:06Z</time>
        <sat>9</sat>
      </trkpt>
      <trkpt lat="33.226268" lon="35.568847">
        <ele>244.9</ele>
        <time>2013-07-31T07:43:08Z</time>
        <sat>9</sat>
      </trkpt>
      <trkpt lat="33.226137" lon="35.568827">
        <ele>243.8</ele>
        <time>2013-07-31T07:43:10Z</time>
        <sat>9</sat>
      </trkpt>
      <trkpt lat="33.226055" lon="35.568923">
        <ele>242.8</ele>
        <time>2013-07-31T07:43:12Z</time>
        <sat>9</sat>
      </trkpt>
      <trkpt lat="33.226052" lon="35.569085">
        <ele>242.0</ele>
        <time>2013-07-31T07:43:14Z</time>
        <sat>9</sat>
      </trkpt>
      <trkpt lat="33.226092" lon="35.569257">
        <ele>240.9</ele>
        <time>2013-07-31T07:43:16Z</time>
        <sat>9</sat>
      </trkpt>
      <trkpt lat="33.226140" lon="35.569438">
        <ele>240.2</ele>
        <time>2013-07-31T07:43:18Z</time>
        <sat>9</sat>
      </trkpt>
      <trkpt lat="33.226193" lon="35.569628">
        <ele>239.3</ele>
        <time>2013-07-31T07:43:20Z</time>
        <sat>9</sat>
      </trkpt>
      <trkpt lat="33.226253" lon="35.569827">
        <ele>238.3</ele>
        <time>2013-07-31T07:43:22Z</time>
        <sat>9</sat>
      </trkpt>
      <trkpt lat="33.226285" lon="35.569928">
        <ele>237.8</ele>
        <time>2013-07-31T07:43:23Z</time>
        <sat>9</sat>
      </trkpt>
      <trkpt lat="33.226315" lon="35.570035">
        <ele>237.3</ele>
        <time>2013-07-31T07:43:24Z</time>
        <sat>8</sat>
      </trkpt>
      <trkpt lat="33.226343" lon="35.570143">
        <ele>236.7</ele>
        <time>2013-07-31T07:43:25Z</time>
        <sat>8</sat>
      </trkpt>
      <trkpt lat="33.226373" lon="35.570255">
        <ele>236.4</ele>
        <time>2013-07-31T07:43:26Z</time>
        <sat>9</sat>
      </trkpt>
      <trkpt lat="33.226407" lon="35.570367">
        <ele>236.1</ele>
        <time>2013-07-31T07:43:27Z</time>
        <sat>9</sat>
      </trkpt>
      <trkpt lat="33.226442" lon="35.570478">
        <ele>235.6</ele>
        <time>2013-07-31T07:43:28Z</time>
        <sat>9</sat>
      </trkpt>
      <trkpt lat="33.226475" lon="35.570590">
        <ele>235.2</ele>
        <time>2013-07-31T07:43:29Z</time>
        <sat>9</sat>
      </trkpt>
      <trkpt lat="33.226507" lon="35.570707">
        <ele>234.5</ele>
        <time>2013-07-31T07:43:30Z</time>
        <sat>8</sat>
      </trkpt>
      <trkpt lat="33.226538" lon="35.570818">
        <ele>233.8</ele>
        <time>2013-07-31T07:43:31Z</time>
        <sat>9</sat>
      </trkpt>
      <trkpt lat="33.226565" lon="35.570925">
        <ele>233.2</ele>
        <time>2013-07-31T07:43:32Z</time>
        <sat>9</sat>
      </trkpt>
      <trkpt lat="33.226578" lon="35.571105">
        <ele>232.1</ele>
        <time>2013-07-31T07:43:34Z</time>
        <sat>9</sat>
      </trkpt>
      <trkpt lat="33.226518" lon="35.571215">
        <ele>231.0</ele>
        <time>2013-07-31T07:43:36Z</time>
        <sat>8</sat>
      </trkpt>
      <trkpt lat="33.226408" lon="35.571240">
        <ele>230.2</ele>
        <time>2013-07-31T07:43:38Z</time>
        <sat>9</sat>
      </trkpt>
      <trkpt lat="33.226305" lon="35.571195">
        <ele>229.6</ele>
        <time>2013-07-31T07:43:40Z</time>
        <sat>9</sat>
      </trkpt>
      <trkpt lat="33.226212" lon="35.571100">
        <ele>229.1</ele>
        <time>2013-07-31T07:43:42Z</time>
        <sat>9</sat>
      </trkpt>
      <trkpt lat="33.226122" lon="35.570980">
        <ele>228.6</ele>
        <time>2013-07-31T07:43:44Z</time>
        <sat>9</sat>
      </trkpt>
      <trkpt lat="33.226023" lon="35.570845">
        <ele>228.1</ele>
        <time>2013-07-31T07:43:46Z</time>
        <sat>9</sat>
      </trkpt>
      <trkpt lat="33.225923" lon="35.570700">
        <ele>227.0</ele>
        <time>2013-07-31T07:43:48Z</time>
        <sat>8</sat>
      </trkpt>
      <trkpt lat="33.225815" lon="35.570545">
        <ele>226.0</ele>
        <time>2013-07-31T07:43:50Z</time>
        <sat>8</sat>
      </trkpt>
      <trkpt lat="33.225700" lon="35.570382">
        <ele>225.2</ele>
        <time>2013-07-31T07:43:52Z</time>
        <sat>9</sat>
      </trkpt>
      <trkpt lat="33.225638" lon="35.570297">
        <ele>224.5</ele>
        <time>2013-07-31T07:43:53Z</time>
        <sat>9</sat>
      </trkpt>
      <trkpt lat="33.225577" lon="35.570213">
        <ele>223.9</ele>
        <time>2013-07-31T07:43:54Z</time>
        <sat>9</sat>
      </trkpt>
      <trkpt lat="33.225510" lon="35.570133">
        <ele>223.4</ele>
        <time>2013-07-31T07:43:55Z</time>
        <sat>9</sat>
      </trkpt>
      <trkpt lat="33.225438" lon="35.570058">
        <ele>222.6</ele>
        <time>2013-07-31T07:43:56Z</time>
        <sat>9</sat>
      </trkpt>
      <trkpt lat="33.225362" lon="35.569985">
        <ele>222.0</ele>
        <time>2013-07-31T07:43:57Z</time>
        <sat>9</sat>
      </trkpt>
      <trkpt lat="33.225278" lon="35.569913">
        <ele>221.4</ele>
        <time>2013-07-31T07:43:58Z</time>
        <sat>9</sat>
      </trkpt>
      <trkpt lat="33.225193" lon="35.569845">
        <ele>220.6</ele>
        <time>2013-07-31T07:43:59Z</time>
        <sat>9</sat>
      </trkpt>
      <trkpt lat="33.225112" lon="35.569783">
        <ele>219.9</ele>
        <time>2013-07-31T07:44:00Z</time>
        <sat>9</sat>
      </trkpt>
      <trkpt lat="33.224973" lon="35.569695">
        <ele>218.7</ele>
        <time>2013-07-31T07:44:02Z</time>
        <sat>9</sat>
      </trkpt>
      <trkpt lat="33.224883" lon="35.569647">
        <ele>217.5</ele>
        <time>2013-07-31T07:44:04Z</time>
        <sat>9</sat>
      </trkpt>
      <trkpt lat="33.224770" lon="35.569638">
        <ele>215.6</ele>
        <time>2013-07-31T07:44:08Z</time>
        <sat>9</sat>
      </trkpt>
      <trkpt lat="33.224640" lon="35.569607">
        <ele>214.6</ele>
        <time>2013-07-31T07:44:11Z</time>
        <sat>9</sat>
      </trkpt>
      <trkpt lat="33.224532" lon="35.569573">
        <ele>213.9</ele>
        <time>2013-07-31T07:44:13Z</time>
        <sat>9</sat>
      </trkpt>
      <trkpt lat="33.224403" lon="35.569538">
        <ele>213.1</ele>
        <time>2013-07-31T07:44:15Z</time>
        <sat>9</sat>
      </trkpt>
      <trkpt lat="33.224257" lon="35.569505">
        <ele>212.2</ele>
        <time>2013-07-31T07:44:17Z</time>
        <sat>8</sat>
      </trkpt>
      <trkpt lat="33.224090" lon="35.569472">
        <ele>210.8</ele>
        <time>2013-07-31T07:44:19Z</time>
        <sat>8</sat>
      </trkpt>
      <trkpt lat="33.223922" lon="35.569465">
        <ele>209.7</ele>
        <time>2013-07-31T07:44:21Z</time>
        <sat>9</sat>
      </trkpt>
      <trkpt lat="33.223752" lon="35.569508">
        <ele>208.3</ele>
        <time>2013-07-31T07:44:23Z</time>
        <sat>9</sat>
      </trkpt>
      <trkpt lat="33.223602" lon="35.569577">
        <ele>207.3</ele>
        <time>2013-07-31T07:44:25Z</time>
        <sat>9</sat>
      </trkpt>
      <trkpt lat="33.223480" lon="35.569677">
        <ele>206.0</ele>
        <time>2013-07-31T07:44:27Z</time>
        <sat>9</sat>
      </trkpt>
      <trkpt lat="33.223388" lon="35.569840">
        <ele>204.8</ele>
        <time>2013-07-31T07:44:29Z</time>
        <sat>8</sat>
      </trkpt>
      <trkpt lat="33.223333" lon="35.570045">
        <ele>203.5</ele>
        <time>2013-07-31T07:44:31Z</time>
        <sat>9</sat>
      </trkpt>
      <trkpt lat="33.223318" lon="35.570155">
        <ele>202.8</ele>
        <time>2013-07-31T07:44:32Z</time>
        <sat>9</sat>
      </trkpt>
    </trkseg>
  </trk>
</gpx>
